<?xml version="1.0" encoding="UTF-8" standalone="no" ?>
<gpx xmlns="http://www.topografix.com/GPX/1/1" xmlns:xsi="http://www.w3.org/2001/XMLSchema-instance" xsi:schemaLocation="http://www.topografix.com/GPX/1/1 http://www.topografix.com/GPX/1/1/gpx.xsd" version="1.1" creator="VisuGPX - https://www.visugpx.com">
  <metadata>
    <name>83-D-Ampus</name>
    <desc><![CDATA[83-D-Ampus : dolmen de Marenq – bois de Prane – ND de Speluque]]></desc>
  </metadata>
  <trk>
    <name><![CDATA[2017-02-19-D-ampus]]></name>
    <trkseg>
      <trkpt lat="43.60606" lon="6.38262">
        <ele>578.9</ele>
        <time>2017-02-19T07:37:21Z</time>
      </trkpt>
      <trkpt lat="43.60606" lon="6.38262">
        <ele>578.9</ele>
        <time>2017-02-19T07:37:22Z</time>
      </trkpt>
      <trkpt lat="43.60596" lon="6.38263">
        <ele>578.7</ele>
        <time>2017-02-19T07:38:02Z</time>
      </trkpt>
      <trkpt lat="43.60591" lon="6.38253">
        <ele>579.5</ele>
        <time>2017-02-19T07:38:36Z</time>
      </trkpt>
      <trkpt lat="43.60588" lon="6.38264">
        <ele>579.7</ele>
        <time>2017-02-19T07:39:55Z</time>
      </trkpt>
      <trkpt lat="43.60591" lon="6.38276">
        <ele>581.7</ele>
        <time>2017-02-19T07:40:42Z</time>
      </trkpt>
      <trkpt lat="43.60591" lon="6.38288">
        <ele>581.6</ele>
        <time>2017-02-19T07:42:35Z</time>
      </trkpt>
      <trkpt lat="43.60589" lon="6.38301">
        <ele>581.8</ele>
        <time>2017-02-19T07:42:50Z</time>
      </trkpt>
      <trkpt lat="43.6059" lon="6.38314">
        <ele>582.5</ele>
        <time>2017-02-19T07:43:03Z</time>
      </trkpt>
      <trkpt lat="43.60586" lon="6.38326">
        <ele>583.7</ele>
        <time>2017-02-19T07:43:15Z</time>
      </trkpt>
      <trkpt lat="43.60584" lon="6.38339">
        <ele>584.7</ele>
        <time>2017-02-19T07:43:25Z</time>
      </trkpt>
      <trkpt lat="43.60582" lon="6.38351">
        <ele>585.6</ele>
        <time>2017-02-19T07:43:35Z</time>
      </trkpt>
      <trkpt lat="43.60581" lon="6.38365">
        <ele>586.4</ele>
        <time>2017-02-19T07:43:45Z</time>
      </trkpt>
      <trkpt lat="43.6058" lon="6.38378">
        <ele>586.8</ele>
        <time>2017-02-19T07:43:54Z</time>
      </trkpt>
      <trkpt lat="43.60581" lon="6.3839">
        <ele>587.2</ele>
        <time>2017-02-19T07:44:03Z</time>
      </trkpt>
      <trkpt lat="43.60585" lon="6.38402">
        <ele>587.5</ele>
        <time>2017-02-19T07:44:12Z</time>
      </trkpt>
      <trkpt lat="43.60594" lon="6.38402">
        <ele>588.8</ele>
        <time>2017-02-19T07:44:26Z</time>
      </trkpt>
      <trkpt lat="43.60601" lon="6.38393">
        <ele>592.5</ele>
        <time>2017-02-19T07:44:47Z</time>
      </trkpt>
      <trkpt lat="43.60611" lon="6.38394">
        <ele>595.3</ele>
        <time>2017-02-19T07:45:02Z</time>
      </trkpt>
      <trkpt lat="43.6062" lon="6.38392">
        <ele>598</ele>
        <time>2017-02-19T07:45:19Z</time>
      </trkpt>
      <trkpt lat="43.60625" lon="6.38381">
        <ele>600.1</ele>
        <time>2017-02-19T07:45:31Z</time>
      </trkpt>
      <trkpt lat="43.60633" lon="6.38376">
        <ele>602.3</ele>
        <time>2017-02-19T07:45:46Z</time>
      </trkpt>
      <trkpt lat="43.60641" lon="6.3837">
        <ele>603.7</ele>
        <time>2017-02-19T07:46:02Z</time>
      </trkpt>
      <trkpt lat="43.6065" lon="6.38365">
        <ele>604.5</ele>
        <time>2017-02-19T07:46:14Z</time>
      </trkpt>
      <trkpt lat="43.60659" lon="6.38361">
        <ele>605</ele>
        <time>2017-02-19T07:46:28Z</time>
      </trkpt>
      <trkpt lat="43.60669" lon="6.38365">
        <ele>605.4</ele>
        <time>2017-02-19T07:46:51Z</time>
      </trkpt>
      <trkpt lat="43.60674" lon="6.38374">
        <ele>606.9</ele>
        <time>2017-02-19T07:47:19Z</time>
      </trkpt>
      <trkpt lat="43.60665" lon="6.38378">
        <ele>607.9</ele>
        <time>2017-02-19T07:47:56Z</time>
      </trkpt>
      <trkpt lat="43.60656" lon="6.3838">
        <ele>608.4</ele>
        <time>2017-02-19T07:48:06Z</time>
      </trkpt>
      <trkpt lat="43.60647" lon="6.38382">
        <ele>609.2</ele>
        <time>2017-02-19T07:48:19Z</time>
      </trkpt>
      <trkpt lat="43.60639" lon="6.3839">
        <ele>610.4</ele>
        <time>2017-02-19T07:48:35Z</time>
      </trkpt>
      <trkpt lat="43.60638" lon="6.38403">
        <ele>611.4</ele>
        <time>2017-02-19T07:48:57Z</time>
      </trkpt>
      <trkpt lat="43.60643" lon="6.38413">
        <ele>611.7</ele>
        <time>2017-02-19T07:49:24Z</time>
      </trkpt>
      <trkpt lat="43.60635" lon="6.38416">
        <ele>610</ele>
        <time>2017-02-19T07:50:11Z</time>
      </trkpt>
      <trkpt lat="43.60639" lon="6.38405">
        <ele>610.9</ele>
        <time>2017-02-19T07:50:56Z</time>
      </trkpt>
      <trkpt lat="43.60646" lon="6.38396">
        <ele>612.2</ele>
        <time>2017-02-19T07:51:17Z</time>
      </trkpt>
      <trkpt lat="43.60655" lon="6.38392">
        <ele>612.9</ele>
        <time>2017-02-19T07:51:27Z</time>
      </trkpt>
      <trkpt lat="43.60665" lon="6.3839">
        <ele>613.5</ele>
        <time>2017-02-19T07:51:36Z</time>
      </trkpt>
      <trkpt lat="43.60673" lon="6.38394">
        <ele>614.5</ele>
        <time>2017-02-19T07:51:49Z</time>
      </trkpt>
      <trkpt lat="43.60665" lon="6.38389">
        <ele>615.2</ele>
        <time>2017-02-19T07:55:02Z</time>
      </trkpt>
      <trkpt lat="43.60656" lon="6.38393">
        <ele>613.6</ele>
        <time>2017-02-19T07:55:20Z</time>
      </trkpt>
      <trkpt lat="43.60647" lon="6.38394">
        <ele>612.7</ele>
        <time>2017-02-19T07:55:28Z</time>
      </trkpt>
      <trkpt lat="43.60649" lon="6.38381">
        <ele>610.7</ele>
        <time>2017-02-19T07:55:49Z</time>
      </trkpt>
      <trkpt lat="43.60658" lon="6.38379">
        <ele>609.8</ele>
        <time>2017-02-19T07:55:58Z</time>
      </trkpt>
      <trkpt lat="43.60668" lon="6.38377">
        <ele>608.3</ele>
        <time>2017-02-19T07:56:12Z</time>
      </trkpt>
      <trkpt lat="43.60671" lon="6.38366">
        <ele>605.9</ele>
        <time>2017-02-19T07:56:41Z</time>
      </trkpt>
      <trkpt lat="43.60676" lon="6.38355">
        <ele>604.2</ele>
        <time>2017-02-19T07:57:11Z</time>
      </trkpt>
      <trkpt lat="43.60684" lon="6.38351">
        <ele>603.3</ele>
        <time>2017-02-19T07:57:24Z</time>
      </trkpt>
      <trkpt lat="43.6069" lon="6.38363">
        <ele>602</ele>
        <time>2017-02-19T07:57:44Z</time>
      </trkpt>
      <trkpt lat="43.60691" lon="6.38376">
        <ele>601.1</ele>
        <time>2017-02-19T07:58:01Z</time>
      </trkpt>
      <trkpt lat="43.60699" lon="6.38369">
        <ele>598.5</ele>
        <time>2017-02-19T07:58:17Z</time>
      </trkpt>
      <trkpt lat="43.60705" lon="6.3836">
        <ele>597.3</ele>
        <time>2017-02-19T07:58:28Z</time>
      </trkpt>
      <trkpt lat="43.60711" lon="6.3835">
        <ele>595</ele>
        <time>2017-02-19T07:58:39Z</time>
      </trkpt>
      <trkpt lat="43.60721" lon="6.3835">
        <ele>591.8</ele>
        <time>2017-02-19T07:58:59Z</time>
      </trkpt>
      <trkpt lat="43.6073" lon="6.38356">
        <ele>588.3</ele>
        <time>2017-02-19T07:59:29Z</time>
      </trkpt>
      <trkpt lat="43.60736" lon="6.38365">
        <ele>586.8</ele>
        <time>2017-02-19T07:59:42Z</time>
      </trkpt>
      <trkpt lat="43.60745" lon="6.38365">
        <ele>585.8</ele>
        <time>2017-02-19T07:59:51Z</time>
      </trkpt>
      <trkpt lat="43.60755" lon="6.38364">
        <ele>584.4</ele>
        <time>2017-02-19T08:00:00Z</time>
      </trkpt>
      <trkpt lat="43.60764" lon="6.38365">
        <ele>583</ele>
        <time>2017-02-19T08:00:09Z</time>
      </trkpt>
      <trkpt lat="43.60773" lon="6.38365">
        <ele>582.3</ele>
        <time>2017-02-19T08:00:16Z</time>
      </trkpt>
      <trkpt lat="43.60783" lon="6.38363">
        <ele>581.2</ele>
        <time>2017-02-19T08:00:23Z</time>
      </trkpt>
      <trkpt lat="43.60792" lon="6.3836">
        <ele>580.2</ele>
        <time>2017-02-19T08:00:29Z</time>
      </trkpt>
      <trkpt lat="43.60801" lon="6.38358">
        <ele>579.2</ele>
        <time>2017-02-19T08:00:36Z</time>
      </trkpt>
      <trkpt lat="43.60811" lon="6.38357">
        <ele>578.2</ele>
        <time>2017-02-19T08:00:43Z</time>
      </trkpt>
      <trkpt lat="43.6082" lon="6.38355">
        <ele>577.1</ele>
        <time>2017-02-19T08:00:50Z</time>
      </trkpt>
      <trkpt lat="43.6083" lon="6.38354">
        <ele>575.9</ele>
        <time>2017-02-19T08:00:58Z</time>
      </trkpt>
      <trkpt lat="43.60839" lon="6.38353">
        <ele>574.9</ele>
        <time>2017-02-19T08:01:06Z</time>
      </trkpt>
      <trkpt lat="43.60849" lon="6.38353">
        <ele>574.2</ele>
        <time>2017-02-19T08:01:14Z</time>
      </trkpt>
      <trkpt lat="43.60859" lon="6.38353">
        <ele>573.5</ele>
        <time>2017-02-19T08:01:22Z</time>
      </trkpt>
      <trkpt lat="43.60868" lon="6.38356">
        <ele>572.6</ele>
        <time>2017-02-19T08:01:31Z</time>
      </trkpt>
      <trkpt lat="43.60874" lon="6.38367">
        <ele>571.6</ele>
        <time>2017-02-19T08:01:41Z</time>
      </trkpt>
      <trkpt lat="43.60883" lon="6.38368">
        <ele>570.5</ele>
        <time>2017-02-19T08:01:49Z</time>
      </trkpt>
      <trkpt lat="43.60892" lon="6.38364">
        <ele>570</ele>
        <time>2017-02-19T08:01:54Z</time>
      </trkpt>
      <trkpt lat="43.60901" lon="6.38362">
        <ele>569.2</ele>
        <time>2017-02-19T08:02:01Z</time>
      </trkpt>
      <trkpt lat="43.60911" lon="6.38363">
        <ele>568.5</ele>
        <time>2017-02-19T08:02:09Z</time>
      </trkpt>
      <trkpt lat="43.6092" lon="6.3836">
        <ele>567.6</ele>
        <time>2017-02-19T08:02:16Z</time>
      </trkpt>
      <trkpt lat="43.6093" lon="6.38357">
        <ele>566.7</ele>
        <time>2017-02-19T08:02:24Z</time>
      </trkpt>
      <trkpt lat="43.60939" lon="6.38354">
        <ele>566.1</ele>
        <time>2017-02-19T08:02:31Z</time>
      </trkpt>
      <trkpt lat="43.60949" lon="6.38354">
        <ele>565.4</ele>
        <time>2017-02-19T08:02:39Z</time>
      </trkpt>
      <trkpt lat="43.60958" lon="6.38354">
        <ele>564.6</ele>
        <time>2017-02-19T08:02:47Z</time>
      </trkpt>
      <trkpt lat="43.60968" lon="6.38354">
        <ele>563.7</ele>
        <time>2017-02-19T08:02:55Z</time>
      </trkpt>
      <trkpt lat="43.60977" lon="6.38356">
        <ele>562.7</ele>
        <time>2017-02-19T08:03:03Z</time>
      </trkpt>
      <trkpt lat="43.60987" lon="6.38358">
        <ele>561.7</ele>
        <time>2017-02-19T08:03:11Z</time>
      </trkpt>
      <trkpt lat="43.60996" lon="6.38357">
        <ele>560.8</ele>
        <time>2017-02-19T08:03:19Z</time>
      </trkpt>
      <trkpt lat="43.61005" lon="6.38357">
        <ele>559.8</ele>
        <time>2017-02-19T08:03:27Z</time>
      </trkpt>
      <trkpt lat="43.61015" lon="6.38357">
        <ele>558.7</ele>
        <time>2017-02-19T08:03:37Z</time>
      </trkpt>
      <trkpt lat="43.61025" lon="6.38357">
        <ele>557.5</ele>
        <time>2017-02-19T08:03:46Z</time>
      </trkpt>
      <trkpt lat="43.61034" lon="6.38356">
        <ele>555.9</ele>
        <time>2017-02-19T08:03:54Z</time>
      </trkpt>
      <trkpt lat="43.61044" lon="6.38355">
        <ele>554.4</ele>
        <time>2017-02-19T08:04:03Z</time>
      </trkpt>
      <trkpt lat="43.61052" lon="6.38351">
        <ele>552.7</ele>
        <time>2017-02-19T08:04:15Z</time>
      </trkpt>
      <trkpt lat="43.61061" lon="6.38347">
        <ele>550.5</ele>
        <time>2017-02-19T08:06:21Z</time>
      </trkpt>
      <trkpt lat="43.6107" lon="6.38346">
        <ele>550.3</ele>
        <time>2017-02-19T08:06:32Z</time>
      </trkpt>
      <trkpt lat="43.61078" lon="6.38339">
        <ele>550</ele>
        <time>2017-02-19T08:06:41Z</time>
      </trkpt>
      <trkpt lat="43.61087" lon="6.38333">
        <ele>549.7</ele>
        <time>2017-02-19T08:06:50Z</time>
      </trkpt>
      <trkpt lat="43.61095" lon="6.38327">
        <ele>549.3</ele>
        <time>2017-02-19T08:06:58Z</time>
      </trkpt>
      <trkpt lat="43.61104" lon="6.38322">
        <ele>549</ele>
        <time>2017-02-19T08:07:07Z</time>
      </trkpt>
      <trkpt lat="43.61114" lon="6.38322">
        <ele>548.7</ele>
        <time>2017-02-19T08:07:21Z</time>
      </trkpt>
      <trkpt lat="43.61123" lon="6.38325">
        <ele>548.5</ele>
        <time>2017-02-19T08:07:31Z</time>
      </trkpt>
      <trkpt lat="43.61133" lon="6.38329">
        <ele>548</ele>
        <time>2017-02-19T08:07:41Z</time>
      </trkpt>
      <trkpt lat="43.61141" lon="6.38335">
        <ele>547.4</ele>
        <time>2017-02-19T08:07:50Z</time>
      </trkpt>
      <trkpt lat="43.61148" lon="6.38344">
        <ele>546.9</ele>
        <time>2017-02-19T08:07:58Z</time>
      </trkpt>
      <trkpt lat="43.61153" lon="6.38355">
        <ele>546.6</ele>
        <time>2017-02-19T08:08:05Z</time>
      </trkpt>
      <trkpt lat="43.61158" lon="6.38366">
        <ele>546.2</ele>
        <time>2017-02-19T08:08:13Z</time>
      </trkpt>
      <trkpt lat="43.61162" lon="6.38377">
        <ele>545.9</ele>
        <time>2017-02-19T08:08:21Z</time>
      </trkpt>
      <trkpt lat="43.61167" lon="6.38389">
        <ele>545.6</ele>
        <time>2017-02-19T08:08:30Z</time>
      </trkpt>
      <trkpt lat="43.61171" lon="6.384">
        <ele>545.5</ele>
        <time>2017-02-19T08:08:38Z</time>
      </trkpt>
      <trkpt lat="43.61175" lon="6.38412">
        <ele>545.3</ele>
        <time>2017-02-19T08:08:47Z</time>
      </trkpt>
      <trkpt lat="43.61178" lon="6.38426">
        <ele>545.3</ele>
        <time>2017-02-19T08:08:55Z</time>
      </trkpt>
      <trkpt lat="43.6118" lon="6.38438">
        <ele>545.3</ele>
        <time>2017-02-19T08:09:03Z</time>
      </trkpt>
      <trkpt lat="43.61181" lon="6.38451">
        <ele>545.3</ele>
        <time>2017-02-19T08:09:11Z</time>
      </trkpt>
      <trkpt lat="43.61183" lon="6.38464">
        <ele>545.4</ele>
        <time>2017-02-19T08:09:21Z</time>
      </trkpt>
      <trkpt lat="43.61185" lon="6.38478">
        <ele>545.5</ele>
        <time>2017-02-19T08:09:30Z</time>
      </trkpt>
      <trkpt lat="43.61184" lon="6.38492">
        <ele>545.5</ele>
        <time>2017-02-19T08:09:39Z</time>
      </trkpt>
      <trkpt lat="43.61188" lon="6.38504">
        <ele>545.5</ele>
        <time>2017-02-19T08:09:50Z</time>
      </trkpt>
      <trkpt lat="43.61195" lon="6.38512">
        <ele>546.3</ele>
        <time>2017-02-19T08:10:46Z</time>
      </trkpt>
      <trkpt lat="43.61201" lon="6.38522">
        <ele>546.2</ele>
        <time>2017-02-19T08:11:07Z</time>
      </trkpt>
      <trkpt lat="43.61207" lon="6.38531">
        <ele>546.8</ele>
        <time>2017-02-19T08:11:24Z</time>
      </trkpt>
      <trkpt lat="43.61216" lon="6.38536">
        <ele>547.6</ele>
        <time>2017-02-19T08:11:36Z</time>
      </trkpt>
      <trkpt lat="43.61226" lon="6.38541">
        <ele>548.7</ele>
        <time>2017-02-19T08:11:48Z</time>
      </trkpt>
      <trkpt lat="43.61234" lon="6.38545">
        <ele>550.4</ele>
        <time>2017-02-19T08:12:00Z</time>
      </trkpt>
      <trkpt lat="43.61243" lon="6.38548">
        <ele>551.8</ele>
        <time>2017-02-19T08:12:12Z</time>
      </trkpt>
      <trkpt lat="43.61253" lon="6.38549">
        <ele>553.6</ele>
        <time>2017-02-19T08:12:24Z</time>
      </trkpt>
      <trkpt lat="43.61262" lon="6.38551">
        <ele>555.2</ele>
        <time>2017-02-19T08:12:36Z</time>
      </trkpt>
      <trkpt lat="43.61271" lon="6.38555">
        <ele>556.7</ele>
        <time>2017-02-19T08:12:47Z</time>
      </trkpt>
      <trkpt lat="43.61279" lon="6.38561">
        <ele>558.3</ele>
        <time>2017-02-19T08:12:58Z</time>
      </trkpt>
      <trkpt lat="43.61287" lon="6.38566">
        <ele>560</ele>
        <time>2017-02-19T08:13:09Z</time>
      </trkpt>
      <trkpt lat="43.61295" lon="6.38571">
        <ele>561.3</ele>
        <time>2017-02-19T08:13:19Z</time>
      </trkpt>
      <trkpt lat="43.61304" lon="6.38576">
        <ele>562.3</ele>
        <time>2017-02-19T08:13:29Z</time>
      </trkpt>
      <trkpt lat="43.61313" lon="6.38581">
        <ele>563.4</ele>
        <time>2017-02-19T08:13:39Z</time>
      </trkpt>
      <trkpt lat="43.61322" lon="6.38585">
        <ele>564.3</ele>
        <time>2017-02-19T08:13:49Z</time>
      </trkpt>
      <trkpt lat="43.61331" lon="6.38589">
        <ele>565.4</ele>
        <time>2017-02-19T08:13:59Z</time>
      </trkpt>
      <trkpt lat="43.6134" lon="6.38592">
        <ele>566.4</ele>
        <time>2017-02-19T08:14:09Z</time>
      </trkpt>
      <trkpt lat="43.61349" lon="6.38596">
        <ele>567.1</ele>
        <time>2017-02-19T08:14:19Z</time>
      </trkpt>
      <trkpt lat="43.61358" lon="6.38601">
        <ele>567.9</ele>
        <time>2017-02-19T08:14:29Z</time>
      </trkpt>
      <trkpt lat="43.61367" lon="6.38607">
        <ele>569.1</ele>
        <time>2017-02-19T08:14:40Z</time>
      </trkpt>
      <trkpt lat="43.61375" lon="6.38612">
        <ele>569.9</ele>
        <time>2017-02-19T08:14:49Z</time>
      </trkpt>
      <trkpt lat="43.61384" lon="6.38618">
        <ele>570.9</ele>
        <time>2017-02-19T08:14:59Z</time>
      </trkpt>
      <trkpt lat="43.61392" lon="6.38623">
        <ele>571.7</ele>
        <time>2017-02-19T08:15:10Z</time>
      </trkpt>
      <trkpt lat="43.61401" lon="6.38627">
        <ele>572.2</ele>
        <time>2017-02-19T08:15:19Z</time>
      </trkpt>
      <trkpt lat="43.6141" lon="6.38632">
        <ele>573.1</ele>
        <time>2017-02-19T08:15:28Z</time>
      </trkpt>
      <trkpt lat="43.61419" lon="6.38636">
        <ele>573.6</ele>
        <time>2017-02-19T08:15:37Z</time>
      </trkpt>
      <trkpt lat="43.61428" lon="6.3864">
        <ele>574.1</ele>
        <time>2017-02-19T08:15:47Z</time>
      </trkpt>
      <trkpt lat="43.61437" lon="6.38643">
        <ele>574.8</ele>
        <time>2017-02-19T08:15:57Z</time>
      </trkpt>
      <trkpt lat="43.61446" lon="6.38646">
        <ele>575.4</ele>
        <time>2017-02-19T08:16:07Z</time>
      </trkpt>
      <trkpt lat="43.61455" lon="6.38649">
        <ele>576.3</ele>
        <time>2017-02-19T08:16:17Z</time>
      </trkpt>
      <trkpt lat="43.61464" lon="6.38653">
        <ele>577.2</ele>
        <time>2017-02-19T08:16:27Z</time>
      </trkpt>
      <trkpt lat="43.61473" lon="6.38655">
        <ele>578.1</ele>
        <time>2017-02-19T08:16:37Z</time>
      </trkpt>
      <trkpt lat="43.61483" lon="6.38657">
        <ele>579.1</ele>
        <time>2017-02-19T08:16:47Z</time>
      </trkpt>
      <trkpt lat="43.61492" lon="6.38659">
        <ele>579.9</ele>
        <time>2017-02-19T08:16:58Z</time>
      </trkpt>
      <trkpt lat="43.61502" lon="6.38661">
        <ele>580.6</ele>
        <time>2017-02-19T08:17:08Z</time>
      </trkpt>
      <trkpt lat="43.61511" lon="6.38661">
        <ele>581.2</ele>
        <time>2017-02-19T08:17:18Z</time>
      </trkpt>
      <trkpt lat="43.6152" lon="6.38661">
        <ele>582.2</ele>
        <time>2017-02-19T08:17:29Z</time>
      </trkpt>
      <trkpt lat="43.61529" lon="6.3866">
        <ele>583.3</ele>
        <time>2017-02-19T08:17:40Z</time>
      </trkpt>
      <trkpt lat="43.61539" lon="6.38658">
        <ele>584.6</ele>
        <time>2017-02-19T08:17:51Z</time>
      </trkpt>
      <trkpt lat="43.61548" lon="6.38659">
        <ele>586.3</ele>
        <time>2017-02-19T08:18:04Z</time>
      </trkpt>
      <trkpt lat="43.61557" lon="6.38659">
        <ele>588.4</ele>
        <time>2017-02-19T08:18:18Z</time>
      </trkpt>
      <trkpt lat="43.61566" lon="6.38658">
        <ele>590.1</ele>
        <time>2017-02-19T08:18:30Z</time>
      </trkpt>
      <trkpt lat="43.61576" lon="6.38658">
        <ele>592.3</ele>
        <time>2017-02-19T08:18:44Z</time>
      </trkpt>
      <trkpt lat="43.61586" lon="6.38658">
        <ele>594</ele>
        <time>2017-02-19T08:18:56Z</time>
      </trkpt>
      <trkpt lat="43.61595" lon="6.3866">
        <ele>595.7</ele>
        <time>2017-02-19T08:19:09Z</time>
      </trkpt>
      <trkpt lat="43.61604" lon="6.38663">
        <ele>597.3</ele>
        <time>2017-02-19T08:19:21Z</time>
      </trkpt>
      <trkpt lat="43.61613" lon="6.38664">
        <ele>599.4</ele>
        <time>2017-02-19T08:19:36Z</time>
      </trkpt>
      <trkpt lat="43.61621" lon="6.38669">
        <ele>602.5</ele>
        <time>2017-02-19T08:23:03Z</time>
      </trkpt>
      <trkpt lat="43.61629" lon="6.38677">
        <ele>603.4</ele>
        <time>2017-02-19T08:23:19Z</time>
      </trkpt>
      <trkpt lat="43.61635" lon="6.38686">
        <ele>604.4</ele>
        <time>2017-02-19T08:23:34Z</time>
      </trkpt>
      <trkpt lat="43.61642" lon="6.38695">
        <ele>605.3</ele>
        <time>2017-02-19T08:23:46Z</time>
      </trkpt>
      <trkpt lat="43.61649" lon="6.38702">
        <ele>606.3</ele>
        <time>2017-02-19T08:23:57Z</time>
      </trkpt>
      <trkpt lat="43.61658" lon="6.3871">
        <ele>607.2</ele>
        <time>2017-02-19T08:24:07Z</time>
      </trkpt>
      <trkpt lat="43.61666" lon="6.38718">
        <ele>608.3</ele>
        <time>2017-02-19T08:24:17Z</time>
      </trkpt>
      <trkpt lat="43.61674" lon="6.38723">
        <ele>609</ele>
        <time>2017-02-19T08:24:27Z</time>
      </trkpt>
      <trkpt lat="43.61684" lon="6.38724">
        <ele>610.3</ele>
        <time>2017-02-19T08:24:37Z</time>
      </trkpt>
      <trkpt lat="43.61693" lon="6.38724">
        <ele>611.6</ele>
        <time>2017-02-19T08:24:48Z</time>
      </trkpt>
      <trkpt lat="43.61703" lon="6.38725">
        <ele>613</ele>
        <time>2017-02-19T08:24:59Z</time>
      </trkpt>
      <trkpt lat="43.61711" lon="6.3873">
        <ele>614.6</ele>
        <time>2017-02-19T08:25:11Z</time>
      </trkpt>
      <trkpt lat="43.61714" lon="6.38742">
        <ele>616.3</ele>
        <time>2017-02-19T08:25:23Z</time>
      </trkpt>
      <trkpt lat="43.61721" lon="6.38733">
        <ele>619.7</ele>
        <time>2017-02-19T08:25:45Z</time>
      </trkpt>
      <trkpt lat="43.61724" lon="6.3872">
        <ele>621.4</ele>
        <time>2017-02-19T08:25:56Z</time>
      </trkpt>
      <trkpt lat="43.61728" lon="6.38709">
        <ele>623.2</ele>
        <time>2017-02-19T08:26:07Z</time>
      </trkpt>
      <trkpt lat="43.61732" lon="6.38697">
        <ele>625.5</ele>
        <time>2017-02-19T08:26:21Z</time>
      </trkpt>
      <trkpt lat="43.61734" lon="6.38685">
        <ele>627.5</ele>
        <time>2017-02-19T08:26:34Z</time>
      </trkpt>
      <trkpt lat="43.61729" lon="6.38675">
        <ele>629.8</ele>
        <time>2017-02-19T08:26:47Z</time>
      </trkpt>
      <trkpt lat="43.61719" lon="6.3867">
        <ele>631.9</ele>
        <time>2017-02-19T08:27:00Z</time>
      </trkpt>
      <trkpt lat="43.6171" lon="6.38668">
        <ele>633.3</ele>
        <time>2017-02-19T08:27:11Z</time>
      </trkpt>
      <trkpt lat="43.61701" lon="6.38664">
        <ele>634.1</ele>
        <time>2017-02-19T08:27:22Z</time>
      </trkpt>
      <trkpt lat="43.61693" lon="6.38657">
        <ele>635.3</ele>
        <time>2017-02-19T08:27:35Z</time>
      </trkpt>
      <trkpt lat="43.61684" lon="6.38656">
        <ele>638</ele>
        <time>2017-02-19T08:31:56Z</time>
      </trkpt>
      <trkpt lat="43.61681" lon="6.38644">
        <ele>638.3</ele>
        <time>2017-02-19T08:32:09Z</time>
      </trkpt>
      <trkpt lat="43.61678" lon="6.38631">
        <ele>639.4</ele>
        <time>2017-02-19T08:32:22Z</time>
      </trkpt>
      <trkpt lat="43.61675" lon="6.38619">
        <ele>640.5</ele>
        <time>2017-02-19T08:32:35Z</time>
      </trkpt>
      <trkpt lat="43.61668" lon="6.3861">
        <ele>641.4</ele>
        <time>2017-02-19T08:32:48Z</time>
      </trkpt>
      <trkpt lat="43.61664" lon="6.38599">
        <ele>641.9</ele>
        <time>2017-02-19T08:32:59Z</time>
      </trkpt>
      <trkpt lat="43.61663" lon="6.38587">
        <ele>642.5</ele>
        <time>2017-02-19T08:33:09Z</time>
      </trkpt>
      <trkpt lat="43.61661" lon="6.38574">
        <ele>643.2</ele>
        <time>2017-02-19T08:33:21Z</time>
      </trkpt>
      <trkpt lat="43.61656" lon="6.38562">
        <ele>643.9</ele>
        <time>2017-02-19T08:33:30Z</time>
      </trkpt>
      <trkpt lat="43.61652" lon="6.3855">
        <ele>644.3</ele>
        <time>2017-02-19T08:33:38Z</time>
      </trkpt>
      <trkpt lat="43.61649" lon="6.38538">
        <ele>644.5</ele>
        <time>2017-02-19T08:33:45Z</time>
      </trkpt>
      <trkpt lat="43.61651" lon="6.38525">
        <ele>644.7</ele>
        <time>2017-02-19T08:33:54Z</time>
      </trkpt>
      <trkpt lat="43.61653" lon="6.38513">
        <ele>645.2</ele>
        <time>2017-02-19T08:34:06Z</time>
      </trkpt>
      <trkpt lat="43.61655" lon="6.38501">
        <ele>646.1</ele>
        <time>2017-02-19T08:34:20Z</time>
      </trkpt>
      <trkpt lat="43.61657" lon="6.38488">
        <ele>647.6</ele>
        <time>2017-02-19T08:34:33Z</time>
      </trkpt>
      <trkpt lat="43.61657" lon="6.38474">
        <ele>648.2</ele>
        <time>2017-02-19T08:34:43Z</time>
      </trkpt>
      <trkpt lat="43.61652" lon="6.38463">
        <ele>648.5</ele>
        <time>2017-02-19T08:34:55Z</time>
      </trkpt>
      <trkpt lat="43.61647" lon="6.38452">
        <ele>648.6</ele>
        <time>2017-02-19T08:35:06Z</time>
      </trkpt>
      <trkpt lat="43.61642" lon="6.38441">
        <ele>648.6</ele>
        <time>2017-02-19T08:35:17Z</time>
      </trkpt>
      <trkpt lat="43.6164" lon="6.38429">
        <ele>648.6</ele>
        <time>2017-02-19T08:35:26Z</time>
      </trkpt>
      <trkpt lat="43.61634" lon="6.38419">
        <ele>648.5</ele>
        <time>2017-02-19T08:35:35Z</time>
      </trkpt>
      <trkpt lat="43.61628" lon="6.38409">
        <ele>648.5</ele>
        <time>2017-02-19T08:35:44Z</time>
      </trkpt>
      <trkpt lat="43.6162" lon="6.38401">
        <ele>648.5</ele>
        <time>2017-02-19T08:35:53Z</time>
      </trkpt>
      <trkpt lat="43.61612" lon="6.38395">
        <ele>648.5</ele>
        <time>2017-02-19T08:36:01Z</time>
      </trkpt>
      <trkpt lat="43.61607" lon="6.38384">
        <ele>648.5</ele>
        <time>2017-02-19T08:36:10Z</time>
      </trkpt>
      <trkpt lat="43.61602" lon="6.38373">
        <ele>648.6</ele>
        <time>2017-02-19T08:36:22Z</time>
      </trkpt>
      <trkpt lat="43.61599" lon="6.3836">
        <ele>648.7</ele>
        <time>2017-02-19T08:36:34Z</time>
      </trkpt>
      <trkpt lat="43.61596" lon="6.38348">
        <ele>649</ele>
        <time>2017-02-19T08:36:44Z</time>
      </trkpt>
      <trkpt lat="43.6159" lon="6.38337">
        <ele>649.1</ele>
        <time>2017-02-19T08:36:53Z</time>
      </trkpt>
      <trkpt lat="43.61583" lon="6.38329">
        <ele>648.8</ele>
        <time>2017-02-19T08:37:02Z</time>
      </trkpt>
      <trkpt lat="43.61576" lon="6.38321">
        <ele>648.4</ele>
        <time>2017-02-19T08:37:11Z</time>
      </trkpt>
      <trkpt lat="43.61567" lon="6.38319">
        <ele>648.1</ele>
        <time>2017-02-19T08:37:22Z</time>
      </trkpt>
      <trkpt lat="43.61558" lon="6.38314">
        <ele>647.9</ele>
        <time>2017-02-19T08:37:31Z</time>
      </trkpt>
      <trkpt lat="43.6155" lon="6.38308">
        <ele>647.8</ele>
        <time>2017-02-19T08:37:41Z</time>
      </trkpt>
      <trkpt lat="43.61541" lon="6.38301">
        <ele>647.5</ele>
        <time>2017-02-19T08:37:52Z</time>
      </trkpt>
      <trkpt lat="43.61534" lon="6.38293">
        <ele>646.9</ele>
        <time>2017-02-19T08:38:02Z</time>
      </trkpt>
      <trkpt lat="43.61528" lon="6.38284">
        <ele>646.5</ele>
        <time>2017-02-19T08:38:11Z</time>
      </trkpt>
      <trkpt lat="43.61519" lon="6.38279">
        <ele>645.9</ele>
        <time>2017-02-19T08:38:21Z</time>
      </trkpt>
      <trkpt lat="43.6151" lon="6.38273">
        <ele>645.5</ele>
        <time>2017-02-19T08:38:30Z</time>
      </trkpt>
      <trkpt lat="43.61502" lon="6.38267">
        <ele>645.1</ele>
        <time>2017-02-19T08:38:39Z</time>
      </trkpt>
      <trkpt lat="43.61494" lon="6.38259">
        <ele>644.8</ele>
        <time>2017-02-19T08:38:49Z</time>
      </trkpt>
      <trkpt lat="43.61487" lon="6.3825">
        <ele>644.2</ele>
        <time>2017-02-19T08:38:59Z</time>
      </trkpt>
      <trkpt lat="43.61479" lon="6.38244">
        <ele>643.8</ele>
        <time>2017-02-19T08:39:09Z</time>
      </trkpt>
      <trkpt lat="43.61469" lon="6.38244">
        <ele>643.6</ele>
        <time>2017-02-19T08:39:22Z</time>
      </trkpt>
      <trkpt lat="43.6146" lon="6.38246">
        <ele>643.3</ele>
        <time>2017-02-19T08:39:33Z</time>
      </trkpt>
      <trkpt lat="43.61451" lon="6.38242">
        <ele>642.9</ele>
        <time>2017-02-19T08:39:44Z</time>
      </trkpt>
      <trkpt lat="43.61444" lon="6.38252">
        <ele>642.4</ele>
        <time>2017-02-19T08:40:00Z</time>
      </trkpt>
      <trkpt lat="43.61436" lon="6.38259">
        <ele>641.7</ele>
        <time>2017-02-19T08:40:15Z</time>
      </trkpt>
      <trkpt lat="43.61429" lon="6.38267">
        <ele>641.4</ele>
        <time>2017-02-19T08:40:26Z</time>
      </trkpt>
      <trkpt lat="43.61422" lon="6.38276">
        <ele>640.7</ele>
        <time>2017-02-19T08:40:41Z</time>
      </trkpt>
      <trkpt lat="43.61415" lon="6.38285">
        <ele>640.3</ele>
        <time>2017-02-19T08:40:51Z</time>
      </trkpt>
      <trkpt lat="43.61408" lon="6.38295">
        <ele>639.4</ele>
        <time>2017-02-19T08:41:02Z</time>
      </trkpt>
      <trkpt lat="43.61411" lon="6.38307">
        <ele>638.5</ele>
        <time>2017-02-19T08:41:27Z</time>
      </trkpt>
      <trkpt lat="43.61402" lon="6.3831">
        <ele>638.2</ele>
        <time>2017-02-19T08:44:51Z</time>
      </trkpt>
      <trkpt lat="43.61403" lon="6.38297">
        <ele>638.1</ele>
        <time>2017-02-19T08:48:57Z</time>
      </trkpt>
      <trkpt lat="43.61409" lon="6.38287">
        <ele>638.1</ele>
        <time>2017-02-19T08:49:11Z</time>
      </trkpt>
      <trkpt lat="43.61415" lon="6.38277">
        <ele>638.6</ele>
        <time>2017-02-19T08:49:25Z</time>
      </trkpt>
      <trkpt lat="43.61422" lon="6.38268">
        <ele>639.4</ele>
        <time>2017-02-19T08:49:39Z</time>
      </trkpt>
      <trkpt lat="43.61429" lon="6.3826">
        <ele>639.9</ele>
        <time>2017-02-19T08:49:52Z</time>
      </trkpt>
      <trkpt lat="43.61434" lon="6.3825">
        <ele>640.6</ele>
        <time>2017-02-19T08:50:09Z</time>
      </trkpt>
      <trkpt lat="43.61441" lon="6.3824">
        <ele>640.9</ele>
        <time>2017-02-19T08:50:21Z</time>
      </trkpt>
      <trkpt lat="43.61451" lon="6.38242">
        <ele>641.3</ele>
        <time>2017-02-19T08:50:32Z</time>
      </trkpt>
      <trkpt lat="43.6146" lon="6.38241">
        <ele>641.6</ele>
        <time>2017-02-19T08:50:44Z</time>
      </trkpt>
      <trkpt lat="43.61469" lon="6.38237">
        <ele>642.1</ele>
        <time>2017-02-19T08:50:55Z</time>
      </trkpt>
      <trkpt lat="43.61478" lon="6.38239">
        <ele>642.6</ele>
        <time>2017-02-19T08:51:08Z</time>
      </trkpt>
      <trkpt lat="43.61485" lon="6.38247">
        <ele>642.9</ele>
        <time>2017-02-19T08:51:20Z</time>
      </trkpt>
      <trkpt lat="43.61493" lon="6.38255">
        <ele>643.4</ele>
        <time>2017-02-19T08:51:31Z</time>
      </trkpt>
      <trkpt lat="43.61501" lon="6.38261">
        <ele>643.8</ele>
        <time>2017-02-19T08:51:41Z</time>
      </trkpt>
      <trkpt lat="43.6151" lon="6.38267">
        <ele>644.1</ele>
        <time>2017-02-19T08:51:53Z</time>
      </trkpt>
      <trkpt lat="43.61519" lon="6.38272">
        <ele>644.2</ele>
        <time>2017-02-19T08:52:03Z</time>
      </trkpt>
      <trkpt lat="43.61526" lon="6.38281">
        <ele>644.6</ele>
        <time>2017-02-19T08:52:14Z</time>
      </trkpt>
      <trkpt lat="43.61533" lon="6.3829">
        <ele>644.8</ele>
        <time>2017-02-19T08:52:24Z</time>
      </trkpt>
      <trkpt lat="43.61542" lon="6.38295">
        <ele>645.3</ele>
        <time>2017-02-19T08:52:35Z</time>
      </trkpt>
      <trkpt lat="43.6155" lon="6.38301">
        <ele>645.7</ele>
        <time>2017-02-19T08:52:44Z</time>
      </trkpt>
      <trkpt lat="43.61559" lon="6.38306">
        <ele>646</ele>
        <time>2017-02-19T08:52:52Z</time>
      </trkpt>
      <trkpt lat="43.61569" lon="6.38307">
        <ele>646.4</ele>
        <time>2017-02-19T08:53:03Z</time>
      </trkpt>
      <trkpt lat="43.61577" lon="6.38313">
        <ele>646.7</ele>
        <time>2017-02-19T08:53:12Z</time>
      </trkpt>
      <trkpt lat="43.61583" lon="6.38323">
        <ele>647</ele>
        <time>2017-02-19T08:53:21Z</time>
      </trkpt>
      <trkpt lat="43.61589" lon="6.38333">
        <ele>647.4</ele>
        <time>2017-02-19T08:53:30Z</time>
      </trkpt>
      <trkpt lat="43.61593" lon="6.38344">
        <ele>647.9</ele>
        <time>2017-02-19T08:53:39Z</time>
      </trkpt>
      <trkpt lat="43.61596" lon="6.38356">
        <ele>648.2</ele>
        <time>2017-02-19T08:53:48Z</time>
      </trkpt>
      <trkpt lat="43.616" lon="6.38368">
        <ele>648.5</ele>
        <time>2017-02-19T08:53:58Z</time>
      </trkpt>
      <trkpt lat="43.61605" lon="6.38379">
        <ele>648.7</ele>
        <time>2017-02-19T08:54:09Z</time>
      </trkpt>
      <trkpt lat="43.61613" lon="6.38385">
        <ele>648.9</ele>
        <time>2017-02-19T08:54:19Z</time>
      </trkpt>
      <trkpt lat="43.61621" lon="6.38393">
        <ele>649</ele>
        <time>2017-02-19T08:54:29Z</time>
      </trkpt>
      <trkpt lat="43.61628" lon="6.38402">
        <ele>649.1</ele>
        <time>2017-02-19T08:54:39Z</time>
      </trkpt>
      <trkpt lat="43.61634" lon="6.38413">
        <ele>649.2</ele>
        <time>2017-02-19T08:54:48Z</time>
      </trkpt>
      <trkpt lat="43.61643" lon="6.38415">
        <ele>649.2</ele>
        <time>2017-02-19T08:55:00Z</time>
      </trkpt>
      <trkpt lat="43.61652" lon="6.38412">
        <ele>649.5</ele>
        <time>2017-02-19T08:55:11Z</time>
      </trkpt>
      <trkpt lat="43.61661" lon="6.38407">
        <ele>650.2</ele>
        <time>2017-02-19T08:55:24Z</time>
      </trkpt>
      <trkpt lat="43.61669" lon="6.384">
        <ele>651</ele>
        <time>2017-02-19T08:55:35Z</time>
      </trkpt>
      <trkpt lat="43.61678" lon="6.38399">
        <ele>651.5</ele>
        <time>2017-02-19T08:55:44Z</time>
      </trkpt>
      <trkpt lat="43.61687" lon="6.384">
        <ele>652.1</ele>
        <time>2017-02-19T08:55:54Z</time>
      </trkpt>
      <trkpt lat="43.61696" lon="6.38403">
        <ele>653</ele>
        <time>2017-02-19T08:56:05Z</time>
      </trkpt>
      <trkpt lat="43.61705" lon="6.38404">
        <ele>653.7</ele>
        <time>2017-02-19T08:56:16Z</time>
      </trkpt>
      <trkpt lat="43.61714" lon="6.38409">
        <ele>654</ele>
        <time>2017-02-19T08:56:26Z</time>
      </trkpt>
      <trkpt lat="43.61722" lon="6.38415">
        <ele>654.5</ele>
        <time>2017-02-19T08:56:37Z</time>
      </trkpt>
      <trkpt lat="43.61731" lon="6.38422">
        <ele>654.9</ele>
        <time>2017-02-19T08:56:48Z</time>
      </trkpt>
      <trkpt lat="43.61739" lon="6.38429">
        <ele>655.3</ele>
        <time>2017-02-19T08:56:59Z</time>
      </trkpt>
      <trkpt lat="43.61745" lon="6.38437">
        <ele>655.5</ele>
        <time>2017-02-19T08:57:09Z</time>
      </trkpt>
      <trkpt lat="43.61751" lon="6.38447">
        <ele>655.6</ele>
        <time>2017-02-19T08:57:19Z</time>
      </trkpt>
      <trkpt lat="43.61758" lon="6.38457">
        <ele>655.7</ele>
        <time>2017-02-19T08:57:30Z</time>
      </trkpt>
      <trkpt lat="43.61766" lon="6.38464">
        <ele>656.1</ele>
        <time>2017-02-19T08:57:41Z</time>
      </trkpt>
      <trkpt lat="43.61774" lon="6.38472">
        <ele>656.3</ele>
        <time>2017-02-19T08:57:50Z</time>
      </trkpt>
      <trkpt lat="43.61782" lon="6.38478">
        <ele>656.5</ele>
        <time>2017-02-19T08:57:59Z</time>
      </trkpt>
      <trkpt lat="43.61791" lon="6.38482">
        <ele>656.7</ele>
        <time>2017-02-19T08:58:10Z</time>
      </trkpt>
      <trkpt lat="43.618" lon="6.38487">
        <ele>657.5</ele>
        <time>2017-02-19T08:58:28Z</time>
      </trkpt>
      <trkpt lat="43.61797" lon="6.38499">
        <ele>657.8</ele>
        <time>2017-02-19T08:58:51Z</time>
      </trkpt>
      <trkpt lat="43.61797" lon="6.38513">
        <ele>657.7</ele>
        <time>2017-02-19T08:59:03Z</time>
      </trkpt>
      <trkpt lat="43.61797" lon="6.38526">
        <ele>657.4</ele>
        <time>2017-02-19T08:59:12Z</time>
      </trkpt>
      <trkpt lat="43.61796" lon="6.38538">
        <ele>656.9</ele>
        <time>2017-02-19T08:59:21Z</time>
      </trkpt>
      <trkpt lat="43.61796" lon="6.38551">
        <ele>656.3</ele>
        <time>2017-02-19T08:59:31Z</time>
      </trkpt>
      <trkpt lat="43.61796" lon="6.38564">
        <ele>655.5</ele>
        <time>2017-02-19T08:59:43Z</time>
      </trkpt>
      <trkpt lat="43.61798" lon="6.38576">
        <ele>654.5</ele>
        <time>2017-02-19T08:59:55Z</time>
      </trkpt>
      <trkpt lat="43.61806" lon="6.38585">
        <ele>653.8</ele>
        <time>2017-02-19T09:00:03Z</time>
      </trkpt>
      <trkpt lat="43.61814" lon="6.38593">
        <ele>653.3</ele>
        <time>2017-02-19T09:00:12Z</time>
      </trkpt>
      <trkpt lat="43.6182" lon="6.38602">
        <ele>652.9</ele>
        <time>2017-02-19T09:00:23Z</time>
      </trkpt>
      <trkpt lat="43.61826" lon="6.38611">
        <ele>653</ele>
        <time>2017-02-19T09:00:40Z</time>
      </trkpt>
      <trkpt lat="43.61832" lon="6.3862">
        <ele>653.3</ele>
        <time>2017-02-19T09:00:50Z</time>
      </trkpt>
      <trkpt lat="43.61837" lon="6.38632">
        <ele>653.9</ele>
        <time>2017-02-19T09:01:03Z</time>
      </trkpt>
      <trkpt lat="43.61839" lon="6.38645">
        <ele>655.2</ele>
        <time>2017-02-19T09:01:20Z</time>
      </trkpt>
      <trkpt lat="43.61842" lon="6.38657">
        <ele>656.4</ele>
        <time>2017-02-19T09:01:32Z</time>
      </trkpt>
      <trkpt lat="43.61846" lon="6.38668">
        <ele>657.5</ele>
        <time>2017-02-19T09:01:44Z</time>
      </trkpt>
      <trkpt lat="43.6185" lon="6.38681">
        <ele>658.6</ele>
        <time>2017-02-19T09:01:55Z</time>
      </trkpt>
      <trkpt lat="43.61855" lon="6.38692">
        <ele>660</ele>
        <time>2017-02-19T09:02:08Z</time>
      </trkpt>
      <trkpt lat="43.61859" lon="6.38703">
        <ele>661.2</ele>
        <time>2017-02-19T09:02:23Z</time>
      </trkpt>
      <trkpt lat="43.61863" lon="6.38714">
        <ele>662.4</ele>
        <time>2017-02-19T09:02:37Z</time>
      </trkpt>
      <trkpt lat="43.61871" lon="6.38722">
        <ele>664.2</ele>
        <time>2017-02-19T09:02:55Z</time>
      </trkpt>
      <trkpt lat="43.61879" lon="6.38727">
        <ele>665.7</ele>
        <time>2017-02-19T09:03:07Z</time>
      </trkpt>
      <trkpt lat="43.61888" lon="6.3873">
        <ele>667.5</ele>
        <time>2017-02-19T09:03:22Z</time>
      </trkpt>
      <trkpt lat="43.61897" lon="6.3873">
        <ele>669.9</ele>
        <time>2017-02-19T09:03:40Z</time>
      </trkpt>
      <trkpt lat="43.61906" lon="6.38729">
        <ele>672.3</ele>
        <time>2017-02-19T09:03:58Z</time>
      </trkpt>
      <trkpt lat="43.61914" lon="6.38735">
        <ele>674.3</ele>
        <time>2017-02-19T09:04:16Z</time>
      </trkpt>
      <trkpt lat="43.6192" lon="6.38744">
        <ele>676.4</ele>
        <time>2017-02-19T09:04:32Z</time>
      </trkpt>
      <trkpt lat="43.61928" lon="6.3875">
        <ele>678.4</ele>
        <time>2017-02-19T09:04:48Z</time>
      </trkpt>
      <trkpt lat="43.61937" lon="6.38754">
        <ele>680.5</ele>
        <time>2017-02-19T09:05:04Z</time>
      </trkpt>
      <trkpt lat="43.61946" lon="6.38758">
        <ele>682.4</ele>
        <time>2017-02-19T09:05:18Z</time>
      </trkpt>
      <trkpt lat="43.61955" lon="6.38755">
        <ele>684.1</ele>
        <time>2017-02-19T09:05:33Z</time>
      </trkpt>
      <trkpt lat="43.61964" lon="6.38756">
        <ele>685.8</ele>
        <time>2017-02-19T09:05:48Z</time>
      </trkpt>
      <trkpt lat="43.61973" lon="6.38759">
        <ele>687.3</ele>
        <time>2017-02-19T09:06:01Z</time>
      </trkpt>
      <trkpt lat="43.6198" lon="6.38768">
        <ele>688.5</ele>
        <time>2017-02-19T09:06:16Z</time>
      </trkpt>
      <trkpt lat="43.61987" lon="6.38775">
        <ele>689.5</ele>
        <time>2017-02-19T09:06:32Z</time>
      </trkpt>
      <trkpt lat="43.61996" lon="6.3878">
        <ele>690.8</ele>
        <time>2017-02-19T09:06:49Z</time>
      </trkpt>
      <trkpt lat="43.62005" lon="6.38783">
        <ele>692.6</ele>
        <time>2017-02-19T09:07:07Z</time>
      </trkpt>
      <trkpt lat="43.62014" lon="6.38786">
        <ele>694.1</ele>
        <time>2017-02-19T09:07:20Z</time>
      </trkpt>
      <trkpt lat="43.62023" lon="6.38788">
        <ele>695.4</ele>
        <time>2017-02-19T09:07:34Z</time>
      </trkpt>
      <trkpt lat="43.62033" lon="6.38792">
        <ele>696.7</ele>
        <time>2017-02-19T09:07:47Z</time>
      </trkpt>
      <trkpt lat="43.62041" lon="6.38795">
        <ele>697.6</ele>
        <time>2017-02-19T09:07:59Z</time>
      </trkpt>
      <trkpt lat="43.62051" lon="6.38798">
        <ele>698.6</ele>
        <time>2017-02-19T09:08:11Z</time>
      </trkpt>
      <trkpt lat="43.62059" lon="6.38805">
        <ele>699.3</ele>
        <time>2017-02-19T09:08:20Z</time>
      </trkpt>
      <trkpt lat="43.62067" lon="6.38811">
        <ele>700</ele>
        <time>2017-02-19T09:08:30Z</time>
      </trkpt>
      <trkpt lat="43.62075" lon="6.38818">
        <ele>700.9</ele>
        <time>2017-02-19T09:08:42Z</time>
      </trkpt>
      <trkpt lat="43.6208" lon="6.38829">
        <ele>702</ele>
        <time>2017-02-19T09:08:56Z</time>
      </trkpt>
      <trkpt lat="43.62085" lon="6.3884">
        <ele>703.3</ele>
        <time>2017-02-19T09:09:07Z</time>
      </trkpt>
      <trkpt lat="43.6209" lon="6.38851">
        <ele>704.4</ele>
        <time>2017-02-19T09:09:19Z</time>
      </trkpt>
      <trkpt lat="43.62096" lon="6.38862">
        <ele>705</ele>
        <time>2017-02-19T09:09:29Z</time>
      </trkpt>
      <trkpt lat="43.62101" lon="6.38872">
        <ele>706.1</ele>
        <time>2017-02-19T09:09:41Z</time>
      </trkpt>
      <trkpt lat="43.62106" lon="6.38883">
        <ele>707.7</ele>
        <time>2017-02-19T09:10:22Z</time>
      </trkpt>
      <trkpt lat="43.62108" lon="6.38895">
        <ele>708.1</ele>
        <time>2017-02-19T09:15:51Z</time>
      </trkpt>
      <trkpt lat="43.62111" lon="6.38908">
        <ele>708.5</ele>
        <time>2017-02-19T09:16:06Z</time>
      </trkpt>
      <trkpt lat="43.62114" lon="6.3892">
        <ele>709</ele>
        <time>2017-02-19T09:16:19Z</time>
      </trkpt>
      <trkpt lat="43.62117" lon="6.38932">
        <ele>709.5</ele>
        <time>2017-02-19T09:16:29Z</time>
      </trkpt>
      <trkpt lat="43.6212" lon="6.38945">
        <ele>709.7</ele>
        <time>2017-02-19T09:16:42Z</time>
      </trkpt>
      <trkpt lat="43.62123" lon="6.38956">
        <ele>709.9</ele>
        <time>2017-02-19T09:16:53Z</time>
      </trkpt>
      <trkpt lat="43.62127" lon="6.38968">
        <ele>710.2</ele>
        <time>2017-02-19T09:17:03Z</time>
      </trkpt>
      <trkpt lat="43.62134" lon="6.38977">
        <ele>710.4</ele>
        <time>2017-02-19T09:17:13Z</time>
      </trkpt>
      <trkpt lat="43.62142" lon="6.38986">
        <ele>710.5</ele>
        <time>2017-02-19T09:17:23Z</time>
      </trkpt>
      <trkpt lat="43.62149" lon="6.38995">
        <ele>711.1</ele>
        <time>2017-02-19T09:17:33Z</time>
      </trkpt>
      <trkpt lat="43.62156" lon="6.39003">
        <ele>711.8</ele>
        <time>2017-02-19T09:17:49Z</time>
      </trkpt>
      <trkpt lat="43.6216" lon="6.39015">
        <ele>712.7</ele>
        <time>2017-02-19T09:18:09Z</time>
      </trkpt>
      <trkpt lat="43.62164" lon="6.39027">
        <ele>713.5</ele>
        <time>2017-02-19T09:18:19Z</time>
      </trkpt>
      <trkpt lat="43.62169" lon="6.39037">
        <ele>714</ele>
        <time>2017-02-19T09:18:28Z</time>
      </trkpt>
      <trkpt lat="43.62175" lon="6.39047">
        <ele>714.3</ele>
        <time>2017-02-19T09:18:39Z</time>
      </trkpt>
      <trkpt lat="43.62181" lon="6.39058">
        <ele>714.9</ele>
        <time>2017-02-19T09:18:51Z</time>
      </trkpt>
      <trkpt lat="43.62188" lon="6.39067">
        <ele>716</ele>
        <time>2017-02-19T09:19:07Z</time>
      </trkpt>
      <trkpt lat="43.62195" lon="6.39074">
        <ele>716.8</ele>
        <time>2017-02-19T09:19:20Z</time>
      </trkpt>
      <trkpt lat="43.62201" lon="6.39084">
        <ele>717.8</ele>
        <time>2017-02-19T09:19:35Z</time>
      </trkpt>
      <trkpt lat="43.62202" lon="6.39098">
        <ele>718.7</ele>
        <time>2017-02-19T09:19:52Z</time>
      </trkpt>
      <trkpt lat="43.62201" lon="6.39111">
        <ele>720</ele>
        <time>2017-02-19T09:20:04Z</time>
      </trkpt>
      <trkpt lat="43.62205" lon="6.39123">
        <ele>721.4</ele>
        <time>2017-02-19T09:20:17Z</time>
      </trkpt>
      <trkpt lat="43.62206" lon="6.39136">
        <ele>722.6</ele>
        <time>2017-02-19T09:20:29Z</time>
      </trkpt>
      <trkpt lat="43.62206" lon="6.39148">
        <ele>723.7</ele>
        <time>2017-02-19T09:20:42Z</time>
      </trkpt>
      <trkpt lat="43.62209" lon="6.39161">
        <ele>725.3</ele>
        <time>2017-02-19T09:20:57Z</time>
      </trkpt>
      <trkpt lat="43.62212" lon="6.39173">
        <ele>726.7</ele>
        <time>2017-02-19T09:21:11Z</time>
      </trkpt>
      <trkpt lat="43.62216" lon="6.39185">
        <ele>727.9</ele>
        <time>2017-02-19T09:21:23Z</time>
      </trkpt>
      <trkpt lat="43.62219" lon="6.39198">
        <ele>729.4</ele>
        <time>2017-02-19T09:21:39Z</time>
      </trkpt>
      <trkpt lat="43.62223" lon="6.39209">
        <ele>731.3</ele>
        <time>2017-02-19T09:21:53Z</time>
      </trkpt>
      <trkpt lat="43.62229" lon="6.39219">
        <ele>733.4</ele>
        <time>2017-02-19T09:22:07Z</time>
      </trkpt>
      <trkpt lat="43.62238" lon="6.39226">
        <ele>735.3</ele>
        <time>2017-02-19T09:22:21Z</time>
      </trkpt>
      <trkpt lat="43.62246" lon="6.39233">
        <ele>736.7</ele>
        <time>2017-02-19T09:22:35Z</time>
      </trkpt>
      <trkpt lat="43.62252" lon="6.39242">
        <ele>738.8</ele>
        <time>2017-02-19T09:22:51Z</time>
      </trkpt>
      <trkpt lat="43.62258" lon="6.39252">
        <ele>741.7</ele>
        <time>2017-02-19T09:23:20Z</time>
      </trkpt>
      <trkpt lat="43.62262" lon="6.39263">
        <ele>743.4</ele>
        <time>2017-02-19T09:26:40Z</time>
      </trkpt>
      <trkpt lat="43.6227" lon="6.3927">
        <ele>744.6</ele>
        <time>2017-02-19T09:26:54Z</time>
      </trkpt>
      <trkpt lat="43.62279" lon="6.39276">
        <ele>746.1</ele>
        <time>2017-02-19T09:27:08Z</time>
      </trkpt>
      <trkpt lat="43.62286" lon="6.39285">
        <ele>748</ele>
        <time>2017-02-19T09:27:26Z</time>
      </trkpt>
      <trkpt lat="43.62291" lon="6.39296">
        <ele>749.8</ele>
        <time>2017-02-19T09:27:41Z</time>
      </trkpt>
      <trkpt lat="43.62295" lon="6.39306">
        <ele>751.9</ele>
        <time>2017-02-19T09:27:58Z</time>
      </trkpt>
      <trkpt lat="43.623" lon="6.39318">
        <ele>753.8</ele>
        <time>2017-02-19T09:28:12Z</time>
      </trkpt>
      <trkpt lat="43.62304" lon="6.39329">
        <ele>756.7</ele>
        <time>2017-02-19T09:30:38Z</time>
      </trkpt>
      <trkpt lat="43.6231" lon="6.39338">
        <ele>756.9</ele>
        <time>2017-02-19T09:30:55Z</time>
      </trkpt>
      <trkpt lat="43.62319" lon="6.39343">
        <ele>757.5</ele>
        <time>2017-02-19T09:31:13Z</time>
      </trkpt>
      <trkpt lat="43.62328" lon="6.39346">
        <ele>758.6</ele>
        <time>2017-02-19T09:31:30Z</time>
      </trkpt>
      <trkpt lat="43.62337" lon="6.39347">
        <ele>759.4</ele>
        <time>2017-02-19T09:31:45Z</time>
      </trkpt>
      <trkpt lat="43.62345" lon="6.39353">
        <ele>760.4</ele>
        <time>2017-02-19T09:32:00Z</time>
      </trkpt>
      <trkpt lat="43.62354" lon="6.39357">
        <ele>762.1</ele>
        <time>2017-02-19T09:32:15Z</time>
      </trkpt>
      <trkpt lat="43.6236" lon="6.39367">
        <ele>764.2</ele>
        <time>2017-02-19T09:32:32Z</time>
      </trkpt>
      <trkpt lat="43.62366" lon="6.39377">
        <ele>766.3</ele>
        <time>2017-02-19T09:32:49Z</time>
      </trkpt>
      <trkpt lat="43.62373" lon="6.39385">
        <ele>768.3</ele>
        <time>2017-02-19T09:33:03Z</time>
      </trkpt>
      <trkpt lat="43.62381" lon="6.39392">
        <ele>770.3</ele>
        <time>2017-02-19T09:33:21Z</time>
      </trkpt>
      <trkpt lat="43.62387" lon="6.39402">
        <ele>772.5</ele>
        <time>2017-02-19T09:33:41Z</time>
      </trkpt>
      <trkpt lat="43.62394" lon="6.3941">
        <ele>774.6</ele>
        <time>2017-02-19T09:33:58Z</time>
      </trkpt>
      <trkpt lat="43.62397" lon="6.39422">
        <ele>776.7</ele>
        <time>2017-02-19T09:34:14Z</time>
      </trkpt>
      <trkpt lat="43.62403" lon="6.39432">
        <ele>778.6</ele>
        <time>2017-02-19T09:34:30Z</time>
      </trkpt>
      <trkpt lat="43.62411" lon="6.3944">
        <ele>780.7</ele>
        <time>2017-02-19T09:34:46Z</time>
      </trkpt>
      <trkpt lat="43.62418" lon="6.39449">
        <ele>783.1</ele>
        <time>2017-02-19T09:35:05Z</time>
      </trkpt>
      <trkpt lat="43.62426" lon="6.39454">
        <ele>785.5</ele>
        <time>2017-02-19T09:35:21Z</time>
      </trkpt>
      <trkpt lat="43.62436" lon="6.39457">
        <ele>787.1</ele>
        <time>2017-02-19T09:35:36Z</time>
      </trkpt>
      <trkpt lat="43.62443" lon="6.39465">
        <ele>788.8</ele>
        <time>2017-02-19T09:35:51Z</time>
      </trkpt>
      <trkpt lat="43.62453" lon="6.39467">
        <ele>790.6</ele>
        <time>2017-02-19T09:36:06Z</time>
      </trkpt>
      <trkpt lat="43.62461" lon="6.39472">
        <ele>792.1</ele>
        <time>2017-02-19T09:36:20Z</time>
      </trkpt>
      <trkpt lat="43.6247" lon="6.39477">
        <ele>793.6</ele>
        <time>2017-02-19T09:36:34Z</time>
      </trkpt>
      <trkpt lat="43.6248" lon="6.3948">
        <ele>795.8</ele>
        <time>2017-02-19T09:36:48Z</time>
      </trkpt>
      <trkpt lat="43.62489" lon="6.39484">
        <ele>797.2</ele>
        <time>2017-02-19T09:37:01Z</time>
      </trkpt>
      <trkpt lat="43.62498" lon="6.39488">
        <ele>798.6</ele>
        <time>2017-02-19T09:37:14Z</time>
      </trkpt>
      <trkpt lat="43.62506" lon="6.39494">
        <ele>799.8</ele>
        <time>2017-02-19T09:37:27Z</time>
      </trkpt>
      <trkpt lat="43.62515" lon="6.39499">
        <ele>801.3</ele>
        <time>2017-02-19T09:37:41Z</time>
      </trkpt>
      <trkpt lat="43.62522" lon="6.39508">
        <ele>802.8</ele>
        <time>2017-02-19T09:37:55Z</time>
      </trkpt>
      <trkpt lat="43.62529" lon="6.39518">
        <ele>804.4</ele>
        <time>2017-02-19T09:38:09Z</time>
      </trkpt>
      <trkpt lat="43.62536" lon="6.39525">
        <ele>806</ele>
        <time>2017-02-19T09:38:23Z</time>
      </trkpt>
      <trkpt lat="43.62544" lon="6.39531">
        <ele>808</ele>
        <time>2017-02-19T09:38:37Z</time>
      </trkpt>
      <trkpt lat="43.62553" lon="6.39536">
        <ele>809.6</ele>
        <time>2017-02-19T09:38:51Z</time>
      </trkpt>
      <trkpt lat="43.62561" lon="6.39542">
        <ele>810.9</ele>
        <time>2017-02-19T09:39:04Z</time>
      </trkpt>
      <trkpt lat="43.62569" lon="6.39549">
        <ele>812.2</ele>
        <time>2017-02-19T09:39:18Z</time>
      </trkpt>
      <trkpt lat="43.62578" lon="6.39555">
        <ele>814.1</ele>
        <time>2017-02-19T09:39:32Z</time>
      </trkpt>
      <trkpt lat="43.62586" lon="6.39561">
        <ele>816</ele>
        <time>2017-02-19T09:39:45Z</time>
      </trkpt>
      <trkpt lat="43.62595" lon="6.39566">
        <ele>817.9</ele>
        <time>2017-02-19T09:39:59Z</time>
      </trkpt>
      <trkpt lat="43.62603" lon="6.39572">
        <ele>819.7</ele>
        <time>2017-02-19T09:40:12Z</time>
      </trkpt>
      <trkpt lat="43.62612" lon="6.39578">
        <ele>821.2</ele>
        <time>2017-02-19T09:40:26Z</time>
      </trkpt>
      <trkpt lat="43.6262" lon="6.39584">
        <ele>822.6</ele>
        <time>2017-02-19T09:40:40Z</time>
      </trkpt>
      <trkpt lat="43.62629" lon="6.39591">
        <ele>823.4</ele>
        <time>2017-02-19T09:40:53Z</time>
      </trkpt>
      <trkpt lat="43.62636" lon="6.39599">
        <ele>824.6</ele>
        <time>2017-02-19T09:41:07Z</time>
      </trkpt>
      <trkpt lat="43.62644" lon="6.39607">
        <ele>825.7</ele>
        <time>2017-02-19T09:41:19Z</time>
      </trkpt>
      <trkpt lat="43.62651" lon="6.39615">
        <ele>826.7</ele>
        <time>2017-02-19T09:41:30Z</time>
      </trkpt>
      <trkpt lat="43.62659" lon="6.39621">
        <ele>827.7</ele>
        <time>2017-02-19T09:41:42Z</time>
      </trkpt>
      <trkpt lat="43.62667" lon="6.39628">
        <ele>828.5</ele>
        <time>2017-02-19T09:41:55Z</time>
      </trkpt>
      <trkpt lat="43.62675" lon="6.39636">
        <ele>829.6</ele>
        <time>2017-02-19T09:42:08Z</time>
      </trkpt>
      <trkpt lat="43.62682" lon="6.39646">
        <ele>830.7</ele>
        <time>2017-02-19T09:42:20Z</time>
      </trkpt>
      <trkpt lat="43.62689" lon="6.39655">
        <ele>832.2</ele>
        <time>2017-02-19T09:42:31Z</time>
      </trkpt>
      <trkpt lat="43.62696" lon="6.39663">
        <ele>833.6</ele>
        <time>2017-02-19T09:42:42Z</time>
      </trkpt>
      <trkpt lat="43.62703" lon="6.39672">
        <ele>834.2</ele>
        <time>2017-02-19T09:42:53Z</time>
      </trkpt>
      <trkpt lat="43.62706" lon="6.39684">
        <ele>834.3</ele>
        <time>2017-02-19T09:43:03Z</time>
      </trkpt>
      <trkpt lat="43.6271" lon="6.39696">
        <ele>834.8</ele>
        <time>2017-02-19T09:43:13Z</time>
      </trkpt>
      <trkpt lat="43.62712" lon="6.39709">
        <ele>835.1</ele>
        <time>2017-02-19T09:43:23Z</time>
      </trkpt>
      <trkpt lat="43.62714" lon="6.39722">
        <ele>835.5</ele>
        <time>2017-02-19T09:43:34Z</time>
      </trkpt>
      <trkpt lat="43.62712" lon="6.39735">
        <ele>836.3</ele>
        <time>2017-02-19T09:43:46Z</time>
      </trkpt>
      <trkpt lat="43.62711" lon="6.39747">
        <ele>837.7</ele>
        <time>2017-02-19T09:44:00Z</time>
      </trkpt>
      <trkpt lat="43.62711" lon="6.3976">
        <ele>838.8</ele>
        <time>2017-02-19T09:44:11Z</time>
      </trkpt>
      <trkpt lat="43.62711" lon="6.39774">
        <ele>840.1</ele>
        <time>2017-02-19T09:44:22Z</time>
      </trkpt>
      <trkpt lat="43.62712" lon="6.39786">
        <ele>840.9</ele>
        <time>2017-02-19T09:44:34Z</time>
      </trkpt>
      <trkpt lat="43.62713" lon="6.39799">
        <ele>842.1</ele>
        <time>2017-02-19T09:44:45Z</time>
      </trkpt>
      <trkpt lat="43.62714" lon="6.39812">
        <ele>843.2</ele>
        <time>2017-02-19T09:44:57Z</time>
      </trkpt>
      <trkpt lat="43.62715" lon="6.39824">
        <ele>843.9</ele>
        <time>2017-02-19T09:45:07Z</time>
      </trkpt>
      <trkpt lat="43.62718" lon="6.39837">
        <ele>844.8</ele>
        <time>2017-02-19T09:45:19Z</time>
      </trkpt>
      <trkpt lat="43.62718" lon="6.3985">
        <ele>845.3</ele>
        <time>2017-02-19T09:45:30Z</time>
      </trkpt>
      <trkpt lat="43.62717" lon="6.39863">
        <ele>846.2</ele>
        <time>2017-02-19T09:45:42Z</time>
      </trkpt>
      <trkpt lat="43.62716" lon="6.39876">
        <ele>847.3</ele>
        <time>2017-02-19T09:45:54Z</time>
      </trkpt>
      <trkpt lat="43.62715" lon="6.39888">
        <ele>848.5</ele>
        <time>2017-02-19T09:46:06Z</time>
      </trkpt>
      <trkpt lat="43.62715" lon="6.39901">
        <ele>850.4</ele>
        <time>2017-02-19T09:46:18Z</time>
      </trkpt>
      <trkpt lat="43.62716" lon="6.39914">
        <ele>851.8</ele>
        <time>2017-02-19T09:46:30Z</time>
      </trkpt>
      <trkpt lat="43.62719" lon="6.39927">
        <ele>852.8</ele>
        <time>2017-02-19T09:46:42Z</time>
      </trkpt>
      <trkpt lat="43.6272" lon="6.39939">
        <ele>853.6</ele>
        <time>2017-02-19T09:46:55Z</time>
      </trkpt>
      <trkpt lat="43.62721" lon="6.39952">
        <ele>854.6</ele>
        <time>2017-02-19T09:47:08Z</time>
      </trkpt>
      <trkpt lat="43.62717" lon="6.39965">
        <ele>855.6</ele>
        <time>2017-02-19T09:47:20Z</time>
      </trkpt>
      <trkpt lat="43.62714" lon="6.39977">
        <ele>856.8</ele>
        <time>2017-02-19T09:47:32Z</time>
      </trkpt>
      <trkpt lat="43.62713" lon="6.3999">
        <ele>857.4</ele>
        <time>2017-02-19T09:47:43Z</time>
      </trkpt>
      <trkpt lat="43.62711" lon="6.40002">
        <ele>858</ele>
        <time>2017-02-19T09:47:54Z</time>
      </trkpt>
      <trkpt lat="43.62707" lon="6.40014">
        <ele>859</ele>
        <time>2017-02-19T09:48:07Z</time>
      </trkpt>
      <trkpt lat="43.62704" lon="6.40026">
        <ele>861</ele>
        <time>2017-02-19T09:48:22Z</time>
      </trkpt>
      <trkpt lat="43.62701" lon="6.40039">
        <ele>862.8</ele>
        <time>2017-02-19T09:48:38Z</time>
      </trkpt>
      <trkpt lat="43.62699" lon="6.40052">
        <ele>864.9</ele>
        <time>2017-02-19T09:48:53Z</time>
      </trkpt>
      <trkpt lat="43.62697" lon="6.40065">
        <ele>866.9</ele>
        <time>2017-02-19T09:49:08Z</time>
      </trkpt>
      <trkpt lat="43.62695" lon="6.40077">
        <ele>868.3</ele>
        <time>2017-02-19T09:49:21Z</time>
      </trkpt>
      <trkpt lat="43.62693" lon="6.40089">
        <ele>869.6</ele>
        <time>2017-02-19T09:49:32Z</time>
      </trkpt>
      <trkpt lat="43.6269" lon="6.40102">
        <ele>871.5</ele>
        <time>2017-02-19T09:49:46Z</time>
      </trkpt>
      <trkpt lat="43.62689" lon="6.40115">
        <ele>872.9</ele>
        <time>2017-02-19T09:49:59Z</time>
      </trkpt>
      <trkpt lat="43.6269" lon="6.40128">
        <ele>873.7</ele>
        <time>2017-02-19T09:50:11Z</time>
      </trkpt>
      <trkpt lat="43.62689" lon="6.4014">
        <ele>874.7</ele>
        <time>2017-02-19T09:50:22Z</time>
      </trkpt>
      <trkpt lat="43.62689" lon="6.40153">
        <ele>876</ele>
        <time>2017-02-19T09:50:35Z</time>
      </trkpt>
      <trkpt lat="43.62689" lon="6.40166">
        <ele>877.3</ele>
        <time>2017-02-19T09:50:48Z</time>
      </trkpt>
      <trkpt lat="43.62689" lon="6.40179">
        <ele>878.9</ele>
        <time>2017-02-19T09:51:00Z</time>
      </trkpt>
      <trkpt lat="43.62689" lon="6.40191">
        <ele>880.3</ele>
        <time>2017-02-19T09:51:11Z</time>
      </trkpt>
      <trkpt lat="43.62689" lon="6.40204">
        <ele>881.9</ele>
        <time>2017-02-19T09:51:24Z</time>
      </trkpt>
      <trkpt lat="43.62686" lon="6.40216">
        <ele>883.3</ele>
        <time>2017-02-19T09:51:35Z</time>
      </trkpt>
      <trkpt lat="43.62685" lon="6.4023">
        <ele>884.9</ele>
        <time>2017-02-19T09:51:48Z</time>
      </trkpt>
      <trkpt lat="43.62687" lon="6.40243">
        <ele>885.8</ele>
        <time>2017-02-19T09:51:59Z</time>
      </trkpt>
      <trkpt lat="43.62688" lon="6.40255">
        <ele>886.6</ele>
        <time>2017-02-19T09:52:10Z</time>
      </trkpt>
      <trkpt lat="43.6269" lon="6.40268">
        <ele>887.5</ele>
        <time>2017-02-19T09:52:20Z</time>
      </trkpt>
      <trkpt lat="43.6269" lon="6.40281">
        <ele>888.2</ele>
        <time>2017-02-19T09:52:30Z</time>
      </trkpt>
      <trkpt lat="43.62692" lon="6.40294">
        <ele>889.1</ele>
        <time>2017-02-19T09:52:41Z</time>
      </trkpt>
      <trkpt lat="43.62693" lon="6.40307">
        <ele>889.8</ele>
        <time>2017-02-19T09:52:52Z</time>
      </trkpt>
      <trkpt lat="43.62694" lon="6.4032">
        <ele>890.3</ele>
        <time>2017-02-19T09:53:02Z</time>
      </trkpt>
      <trkpt lat="43.62695" lon="6.40334">
        <ele>891.2</ele>
        <time>2017-02-19T09:53:13Z</time>
      </trkpt>
      <trkpt lat="43.62694" lon="6.40347">
        <ele>891.6</ele>
        <time>2017-02-19T09:53:24Z</time>
      </trkpt>
      <trkpt lat="43.62691" lon="6.40359">
        <ele>891.6</ele>
        <time>2017-02-19T09:54:45Z</time>
      </trkpt>
      <trkpt lat="43.62695" lon="6.40371">
        <ele>891.2</ele>
        <time>2017-02-19T09:55:00Z</time>
      </trkpt>
      <trkpt lat="43.62701" lon="6.4038">
        <ele>891.2</ele>
        <time>2017-02-19T09:55:13Z</time>
      </trkpt>
      <trkpt lat="43.62706" lon="6.40391">
        <ele>891.6</ele>
        <time>2017-02-19T09:55:22Z</time>
      </trkpt>
      <trkpt lat="43.6271" lon="6.40403">
        <ele>891.9</ele>
        <time>2017-02-19T09:55:31Z</time>
      </trkpt>
      <trkpt lat="43.62713" lon="6.40415">
        <ele>892</ele>
        <time>2017-02-19T09:55:40Z</time>
      </trkpt>
      <trkpt lat="43.62718" lon="6.40426">
        <ele>892.1</ele>
        <time>2017-02-19T09:55:50Z</time>
      </trkpt>
      <trkpt lat="43.62722" lon="6.40438">
        <ele>892.1</ele>
        <time>2017-02-19T09:55:59Z</time>
      </trkpt>
      <trkpt lat="43.62726" lon="6.40449">
        <ele>892.1</ele>
        <time>2017-02-19T09:56:08Z</time>
      </trkpt>
      <trkpt lat="43.62732" lon="6.40458">
        <ele>892.2</ele>
        <time>2017-02-19T09:56:19Z</time>
      </trkpt>
      <trkpt lat="43.62739" lon="6.40467">
        <ele>892.8</ele>
        <time>2017-02-19T09:56:30Z</time>
      </trkpt>
      <trkpt lat="43.62744" lon="6.40477">
        <ele>893.4</ele>
        <time>2017-02-19T09:56:39Z</time>
      </trkpt>
      <trkpt lat="43.62751" lon="6.40486">
        <ele>893.8</ele>
        <time>2017-02-19T09:56:48Z</time>
      </trkpt>
      <trkpt lat="43.62758" lon="6.40495">
        <ele>894.6</ele>
        <time>2017-02-19T09:56:58Z</time>
      </trkpt>
      <trkpt lat="43.62767" lon="6.405">
        <ele>895.1</ele>
        <time>2017-02-19T09:57:09Z</time>
      </trkpt>
      <trkpt lat="43.62775" lon="6.40505">
        <ele>895.8</ele>
        <time>2017-02-19T09:57:21Z</time>
      </trkpt>
      <trkpt lat="43.62784" lon="6.4051">
        <ele>896.8</ele>
        <time>2017-02-19T09:57:33Z</time>
      </trkpt>
      <trkpt lat="43.62792" lon="6.40515">
        <ele>898.1</ele>
        <time>2017-02-19T09:57:58Z</time>
      </trkpt>
      <trkpt lat="43.6279" lon="6.40528">
        <ele>899</ele>
        <time>2017-02-19T09:59:48Z</time>
      </trkpt>
      <trkpt lat="43.62796" lon="6.40519">
        <ele>898.1</ele>
        <time>2017-02-19T10:02:45Z</time>
      </trkpt>
      <trkpt lat="43.62802" lon="6.40509">
        <ele>898.8</ele>
        <time>2017-02-19T10:07:21Z</time>
      </trkpt>
      <trkpt lat="43.62805" lon="6.40496">
        <ele>899.1</ele>
        <time>2017-02-19T10:07:35Z</time>
      </trkpt>
      <trkpt lat="43.62806" lon="6.40483">
        <ele>899.9</ele>
        <time>2017-02-19T10:07:48Z</time>
      </trkpt>
      <trkpt lat="43.62808" lon="6.40471">
        <ele>900.7</ele>
        <time>2017-02-19T10:08:03Z</time>
      </trkpt>
      <trkpt lat="43.6281" lon="6.40457">
        <ele>901.8</ele>
        <time>2017-02-19T10:08:16Z</time>
      </trkpt>
      <trkpt lat="43.62812" lon="6.40444">
        <ele>902.4</ele>
        <time>2017-02-19T10:08:24Z</time>
      </trkpt>
      <trkpt lat="43.62811" lon="6.40432">
        <ele>903.6</ele>
        <time>2017-02-19T10:08:34Z</time>
      </trkpt>
      <trkpt lat="43.62812" lon="6.40419">
        <ele>905.1</ele>
        <time>2017-02-19T10:08:44Z</time>
      </trkpt>
      <trkpt lat="43.62811" lon="6.40407">
        <ele>906.5</ele>
        <time>2017-02-19T10:08:57Z</time>
      </trkpt>
      <trkpt lat="43.62814" lon="6.40395">
        <ele>907.6</ele>
        <time>2017-02-19T10:09:07Z</time>
      </trkpt>
      <trkpt lat="43.62819" lon="6.40384">
        <ele>908.4</ele>
        <time>2017-02-19T10:09:18Z</time>
      </trkpt>
      <trkpt lat="43.62824" lon="6.40373">
        <ele>909.8</ele>
        <time>2017-02-19T10:09:32Z</time>
      </trkpt>
      <trkpt lat="43.62826" lon="6.40361">
        <ele>911.7</ele>
        <time>2017-02-19T10:09:46Z</time>
      </trkpt>
      <trkpt lat="43.62829" lon="6.40349">
        <ele>912.7</ele>
        <time>2017-02-19T10:09:59Z</time>
      </trkpt>
      <trkpt lat="43.62832" lon="6.40337">
        <ele>913.7</ele>
        <time>2017-02-19T10:10:10Z</time>
      </trkpt>
      <trkpt lat="43.62834" lon="6.40323">
        <ele>914.8</ele>
        <time>2017-02-19T10:10:20Z</time>
      </trkpt>
      <trkpt lat="43.62834" lon="6.40311">
        <ele>915.6</ele>
        <time>2017-02-19T10:10:30Z</time>
      </trkpt>
      <trkpt lat="43.62835" lon="6.40298">
        <ele>916.2</ele>
        <time>2017-02-19T10:10:40Z</time>
      </trkpt>
      <trkpt lat="43.62838" lon="6.40286">
        <ele>917.1</ele>
        <time>2017-02-19T10:10:51Z</time>
      </trkpt>
      <trkpt lat="43.62844" lon="6.40276">
        <ele>918</ele>
        <time>2017-02-19T10:11:02Z</time>
      </trkpt>
      <trkpt lat="43.6285" lon="6.40267">
        <ele>918.8</ele>
        <time>2017-02-19T10:11:12Z</time>
      </trkpt>
      <trkpt lat="43.62855" lon="6.40255">
        <ele>919.7</ele>
        <time>2017-02-19T10:11:23Z</time>
      </trkpt>
      <trkpt lat="43.62862" lon="6.40246">
        <ele>920.7</ele>
        <time>2017-02-19T10:11:33Z</time>
      </trkpt>
      <trkpt lat="43.62868" lon="6.40236">
        <ele>921.6</ele>
        <time>2017-02-19T10:11:44Z</time>
      </trkpt>
      <trkpt lat="43.62872" lon="6.40224">
        <ele>922.6</ele>
        <time>2017-02-19T10:11:56Z</time>
      </trkpt>
      <trkpt lat="43.62875" lon="6.40212">
        <ele>923.2</ele>
        <time>2017-02-19T10:12:06Z</time>
      </trkpt>
      <trkpt lat="43.6288" lon="6.40199">
        <ele>923.6</ele>
        <time>2017-02-19T10:12:15Z</time>
      </trkpt>
      <trkpt lat="43.62884" lon="6.40188">
        <ele>923.9</ele>
        <time>2017-02-19T10:12:24Z</time>
      </trkpt>
      <trkpt lat="43.62889" lon="6.40175">
        <ele>924.3</ele>
        <time>2017-02-19T10:12:33Z</time>
      </trkpt>
      <trkpt lat="43.62893" lon="6.40164">
        <ele>924.7</ele>
        <time>2017-02-19T10:12:42Z</time>
      </trkpt>
      <trkpt lat="43.62895" lon="6.40152">
        <ele>925</ele>
        <time>2017-02-19T10:12:52Z</time>
      </trkpt>
      <trkpt lat="43.62898" lon="6.40139">
        <ele>925.5</ele>
        <time>2017-02-19T10:13:02Z</time>
      </trkpt>
      <trkpt lat="43.62906" lon="6.40144">
        <ele>926.5</ele>
        <time>2017-02-19T10:15:46Z</time>
      </trkpt>
      <trkpt lat="43.62904" lon="6.40132">
        <ele>927</ele>
        <time>2017-02-19T10:16:56Z</time>
      </trkpt>
      <trkpt lat="43.62906" lon="6.40119">
        <ele>927.1</ele>
        <time>2017-02-19T10:17:07Z</time>
      </trkpt>
      <trkpt lat="43.62907" lon="6.40106">
        <ele>927.1</ele>
        <time>2017-02-19T10:17:17Z</time>
      </trkpt>
      <trkpt lat="43.62909" lon="6.40093">
        <ele>927.2</ele>
        <time>2017-02-19T10:17:27Z</time>
      </trkpt>
      <trkpt lat="43.62912" lon="6.40081">
        <ele>927.1</ele>
        <time>2017-02-19T10:17:38Z</time>
      </trkpt>
      <trkpt lat="43.62917" lon="6.4007">
        <ele>927.2</ele>
        <time>2017-02-19T10:17:48Z</time>
      </trkpt>
      <trkpt lat="43.62923" lon="6.4006">
        <ele>927.2</ele>
        <time>2017-02-19T10:17:56Z</time>
      </trkpt>
      <trkpt lat="43.62929" lon="6.4005">
        <ele>927</ele>
        <time>2017-02-19T10:18:03Z</time>
      </trkpt>
      <trkpt lat="43.62936" lon="6.40039">
        <ele>926.5</ele>
        <time>2017-02-19T10:18:11Z</time>
      </trkpt>
      <trkpt lat="43.62942" lon="6.40028">
        <ele>926.2</ele>
        <time>2017-02-19T10:18:18Z</time>
      </trkpt>
      <trkpt lat="43.62946" lon="6.40015">
        <ele>925.9</ele>
        <time>2017-02-19T10:18:27Z</time>
      </trkpt>
      <trkpt lat="43.62949" lon="6.40002">
        <ele>925.8</ele>
        <time>2017-02-19T10:18:35Z</time>
      </trkpt>
      <trkpt lat="43.62952" lon="6.3999">
        <ele>925.8</ele>
        <time>2017-02-19T10:18:43Z</time>
      </trkpt>
      <trkpt lat="43.62954" lon="6.39976">
        <ele>926</ele>
        <time>2017-02-19T10:18:53Z</time>
      </trkpt>
      <trkpt lat="43.62958" lon="6.39964">
        <ele>926.2</ele>
        <time>2017-02-19T10:19:02Z</time>
      </trkpt>
      <trkpt lat="43.62963" lon="6.39953">
        <ele>926.4</ele>
        <time>2017-02-19T10:19:12Z</time>
      </trkpt>
      <trkpt lat="43.6297" lon="6.39943">
        <ele>927</ele>
        <time>2017-02-19T10:19:21Z</time>
      </trkpt>
      <trkpt lat="43.62976" lon="6.39933">
        <ele>927.7</ele>
        <time>2017-02-19T10:19:30Z</time>
      </trkpt>
      <trkpt lat="43.62983" lon="6.39924">
        <ele>928.4</ele>
        <time>2017-02-19T10:19:39Z</time>
      </trkpt>
      <trkpt lat="43.62987" lon="6.39913">
        <ele>929.2</ele>
        <time>2017-02-19T10:19:48Z</time>
      </trkpt>
      <trkpt lat="43.62993" lon="6.39902">
        <ele>930.2</ele>
        <time>2017-02-19T10:19:59Z</time>
      </trkpt>
      <trkpt lat="43.62999" lon="6.39891">
        <ele>930.7</ele>
        <time>2017-02-19T10:20:08Z</time>
      </trkpt>
      <trkpt lat="43.63005" lon="6.39881">
        <ele>931.2</ele>
        <time>2017-02-19T10:20:17Z</time>
      </trkpt>
      <trkpt lat="43.63009" lon="6.39869">
        <ele>932.1</ele>
        <time>2017-02-19T10:20:33Z</time>
      </trkpt>
      <trkpt lat="43.63015" lon="6.39859">
        <ele>932.7</ele>
        <time>2017-02-19T10:20:44Z</time>
      </trkpt>
      <trkpt lat="43.63013" lon="6.39846">
        <ele>933.5</ele>
        <time>2017-02-19T10:20:54Z</time>
      </trkpt>
      <trkpt lat="43.63014" lon="6.39832">
        <ele>934.5</ele>
        <time>2017-02-19T10:21:06Z</time>
      </trkpt>
      <trkpt lat="43.63017" lon="6.39819">
        <ele>934.9</ele>
        <time>2017-02-19T10:21:13Z</time>
      </trkpt>
      <trkpt lat="43.63019" lon="6.39806">
        <ele>935.2</ele>
        <time>2017-02-19T10:21:21Z</time>
      </trkpt>
      <trkpt lat="43.63021" lon="6.39794">
        <ele>935.4</ele>
        <time>2017-02-19T10:21:30Z</time>
      </trkpt>
      <trkpt lat="43.63023" lon="6.39781">
        <ele>935</ele>
        <time>2017-02-19T10:21:54Z</time>
      </trkpt>
      <trkpt lat="43.6302" lon="6.39768">
        <ele>935.1</ele>
        <time>2017-02-19T10:23:05Z</time>
      </trkpt>
      <trkpt lat="43.63019" lon="6.39755">
        <ele>934.9</ele>
        <time>2017-02-19T10:23:17Z</time>
      </trkpt>
      <trkpt lat="43.63024" lon="6.39744">
        <ele>934.7</ele>
        <time>2017-02-19T10:23:27Z</time>
      </trkpt>
      <trkpt lat="43.63022" lon="6.39732">
        <ele>934.3</ele>
        <time>2017-02-19T10:23:36Z</time>
      </trkpt>
      <trkpt lat="43.6302" lon="6.3972">
        <ele>933.4</ele>
        <time>2017-02-19T10:23:46Z</time>
      </trkpt>
      <trkpt lat="43.63023" lon="6.39708">
        <ele>932.4</ele>
        <time>2017-02-19T10:23:56Z</time>
      </trkpt>
      <trkpt lat="43.63025" lon="6.39695">
        <ele>931.3</ele>
        <time>2017-02-19T10:24:06Z</time>
      </trkpt>
      <trkpt lat="43.63026" lon="6.39682">
        <ele>929.8</ele>
        <time>2017-02-19T10:24:17Z</time>
      </trkpt>
      <trkpt lat="43.63024" lon="6.3967">
        <ele>928.1</ele>
        <time>2017-02-19T10:24:29Z</time>
      </trkpt>
      <trkpt lat="43.6302" lon="6.39658">
        <ele>926</ele>
        <time>2017-02-19T10:24:41Z</time>
      </trkpt>
      <trkpt lat="43.63018" lon="6.39645">
        <ele>924.3</ele>
        <time>2017-02-19T10:24:52Z</time>
      </trkpt>
      <trkpt lat="43.63015" lon="6.39632">
        <ele>922</ele>
        <time>2017-02-19T10:25:04Z</time>
      </trkpt>
      <trkpt lat="43.63009" lon="6.39623">
        <ele>919.8</ele>
        <time>2017-02-19T10:25:20Z</time>
      </trkpt>
      <trkpt lat="43.63006" lon="6.39611">
        <ele>917.4</ele>
        <time>2017-02-19T10:25:38Z</time>
      </trkpt>
      <trkpt lat="43.63004" lon="6.39598">
        <ele>913.9</ele>
        <time>2017-02-19T10:29:44Z</time>
      </trkpt>
      <trkpt lat="43.63005" lon="6.39585">
        <ele>913.1</ele>
        <time>2017-02-19T10:30:00Z</time>
      </trkpt>
      <trkpt lat="43.63004" lon="6.39572">
        <ele>912.1</ele>
        <time>2017-02-19T10:30:15Z</time>
      </trkpt>
      <trkpt lat="43.63003" lon="6.39559">
        <ele>912</ele>
        <time>2017-02-19T10:30:35Z</time>
      </trkpt>
      <trkpt lat="43.63" lon="6.39547">
        <ele>911.3</ele>
        <time>2017-02-19T10:30:54Z</time>
      </trkpt>
      <trkpt lat="43.63" lon="6.39535">
        <ele>910.5</ele>
        <time>2017-02-19T10:31:07Z</time>
      </trkpt>
      <trkpt lat="43.62998" lon="6.39522">
        <ele>909.4</ele>
        <time>2017-02-19T10:31:19Z</time>
      </trkpt>
      <trkpt lat="43.62994" lon="6.3951">
        <ele>908.8</ele>
        <time>2017-02-19T10:31:31Z</time>
      </trkpt>
      <trkpt lat="43.62991" lon="6.39498">
        <ele>908.2</ele>
        <time>2017-02-19T10:31:42Z</time>
      </trkpt>
      <trkpt lat="43.6299" lon="6.39485">
        <ele>907.1</ele>
        <time>2017-02-19T10:31:54Z</time>
      </trkpt>
      <trkpt lat="43.6299" lon="6.39471">
        <ele>906.1</ele>
        <time>2017-02-19T10:32:05Z</time>
      </trkpt>
      <trkpt lat="43.62986" lon="6.3946">
        <ele>904.7</ele>
        <time>2017-02-19T10:32:30Z</time>
      </trkpt>
      <trkpt lat="43.62977" lon="6.39461">
        <ele>903.2</ele>
        <time>2017-02-19T10:32:58Z</time>
      </trkpt>
      <trkpt lat="43.62971" lon="6.39471">
        <ele>902.1</ele>
        <time>2017-02-19T10:33:13Z</time>
      </trkpt>
      <trkpt lat="43.62964" lon="6.39479">
        <ele>899.3</ele>
        <time>2017-02-19T10:34:49Z</time>
      </trkpt>
      <trkpt lat="43.62959" lon="6.39491">
        <ele>898.1</ele>
        <time>2017-02-19T10:35:11Z</time>
      </trkpt>
      <trkpt lat="43.62954" lon="6.39501">
        <ele>896.5</ele>
        <time>2017-02-19T10:35:23Z</time>
      </trkpt>
      <trkpt lat="43.62952" lon="6.39513">
        <ele>895.2</ele>
        <time>2017-02-19T10:35:35Z</time>
      </trkpt>
      <trkpt lat="43.62951" lon="6.39526">
        <ele>892.9</ele>
        <time>2017-02-19T10:36:40Z</time>
      </trkpt>
      <trkpt lat="43.62952" lon="6.39513">
        <ele>893.2</ele>
        <time>2017-02-19T10:37:36Z</time>
      </trkpt>
      <trkpt lat="43.62954" lon="6.395">
        <ele>893.5</ele>
        <time>2017-02-19T10:37:51Z</time>
      </trkpt>
      <trkpt lat="43.62959" lon="6.39489">
        <ele>894.2</ele>
        <time>2017-02-19T10:38:11Z</time>
      </trkpt>
      <trkpt lat="43.62963" lon="6.39478">
        <ele>895.7</ele>
        <time>2017-02-19T10:38:31Z</time>
      </trkpt>
      <trkpt lat="43.62969" lon="6.39469">
        <ele>897.7</ele>
        <time>2017-02-19T10:38:48Z</time>
      </trkpt>
      <trkpt lat="43.62976" lon="6.3946">
        <ele>900.1</ele>
        <time>2017-02-19T10:39:06Z</time>
      </trkpt>
      <trkpt lat="43.62976" lon="6.39447">
        <ele>901.6</ele>
        <time>2017-02-19T10:39:21Z</time>
      </trkpt>
      <trkpt lat="43.62973" lon="6.39435">
        <ele>902.1</ele>
        <time>2017-02-19T10:39:38Z</time>
      </trkpt>
      <trkpt lat="43.62971" lon="6.39422">
        <ele>901.1</ele>
        <time>2017-02-19T10:40:41Z</time>
      </trkpt>
      <trkpt lat="43.62968" lon="6.39411">
        <ele>900</ele>
        <time>2017-02-19T10:41:20Z</time>
      </trkpt>
      <trkpt lat="43.62964" lon="6.39399">
        <ele>899</ele>
        <time>2017-02-19T10:42:06Z</time>
      </trkpt>
      <trkpt lat="43.62958" lon="6.39389">
        <ele>897.9</ele>
        <time>2017-02-19T10:42:23Z</time>
      </trkpt>
      <trkpt lat="43.62951" lon="6.3938">
        <ele>896.6</ele>
        <time>2017-02-19T10:42:37Z</time>
      </trkpt>
      <trkpt lat="43.62948" lon="6.39368">
        <ele>895</ele>
        <time>2017-02-19T10:42:51Z</time>
      </trkpt>
      <trkpt lat="43.62947" lon="6.39356">
        <ele>892.5</ele>
        <time>2017-02-19T10:43:07Z</time>
      </trkpt>
      <trkpt lat="43.62943" lon="6.39344">
        <ele>890</ele>
        <time>2017-02-19T10:43:30Z</time>
      </trkpt>
      <trkpt lat="43.6294" lon="6.39332">
        <ele>886.2</ele>
        <time>2017-02-19T10:44:13Z</time>
      </trkpt>
      <trkpt lat="43.62936" lon="6.3932">
        <ele>884.7</ele>
        <time>2017-02-19T10:44:32Z</time>
      </trkpt>
      <trkpt lat="43.62932" lon="6.39309">
        <ele>882.1</ele>
        <time>2017-02-19T10:44:48Z</time>
      </trkpt>
      <trkpt lat="43.62927" lon="6.39298">
        <ele>879.4</ele>
        <time>2017-02-19T10:45:06Z</time>
      </trkpt>
      <trkpt lat="43.6292" lon="6.39288">
        <ele>877.2</ele>
        <time>2017-02-19T10:45:20Z</time>
      </trkpt>
      <trkpt lat="43.62914" lon="6.3928">
        <ele>875.3</ele>
        <time>2017-02-19T10:45:32Z</time>
      </trkpt>
      <trkpt lat="43.62905" lon="6.39274">
        <ele>874</ele>
        <time>2017-02-19T10:45:45Z</time>
      </trkpt>
      <trkpt lat="43.629" lon="6.39263">
        <ele>872.4</ele>
        <time>2017-02-19T10:46:03Z</time>
      </trkpt>
      <trkpt lat="43.62894" lon="6.39253">
        <ele>870.3</ele>
        <time>2017-02-19T10:46:17Z</time>
      </trkpt>
      <trkpt lat="43.6289" lon="6.39242">
        <ele>867.9</ele>
        <time>2017-02-19T10:46:30Z</time>
      </trkpt>
      <trkpt lat="43.62885" lon="6.39231">
        <ele>865.2</ele>
        <time>2017-02-19T10:46:45Z</time>
      </trkpt>
      <trkpt lat="43.62878" lon="6.39222">
        <ele>862.8</ele>
        <time>2017-02-19T10:46:58Z</time>
      </trkpt>
      <trkpt lat="43.6287" lon="6.39213">
        <ele>861.2</ele>
        <time>2017-02-19T10:47:10Z</time>
      </trkpt>
      <trkpt lat="43.62863" lon="6.39205">
        <ele>859.3</ele>
        <time>2017-02-19T10:47:23Z</time>
      </trkpt>
      <trkpt lat="43.62857" lon="6.39196">
        <ele>856.1</ele>
        <time>2017-02-19T10:47:45Z</time>
      </trkpt>
      <trkpt lat="43.62849" lon="6.39189">
        <ele>853.9</ele>
        <time>2017-02-19T10:48:04Z</time>
      </trkpt>
      <trkpt lat="43.62841" lon="6.39182">
        <ele>851.7</ele>
        <time>2017-02-19T10:48:21Z</time>
      </trkpt>
      <trkpt lat="43.62832" lon="6.39177">
        <ele>850.2</ele>
        <time>2017-02-19T10:48:36Z</time>
      </trkpt>
      <trkpt lat="43.62824" lon="6.39171">
        <ele>847.5</ele>
        <time>2017-02-19T10:48:53Z</time>
      </trkpt>
      <trkpt lat="43.62822" lon="6.39159">
        <ele>845.1</ele>
        <time>2017-02-19T10:49:10Z</time>
      </trkpt>
      <trkpt lat="43.62819" lon="6.39147">
        <ele>842.8</ele>
        <time>2017-02-19T10:49:25Z</time>
      </trkpt>
      <trkpt lat="43.62814" lon="6.39136">
        <ele>840.1</ele>
        <time>2017-02-19T10:49:44Z</time>
      </trkpt>
      <trkpt lat="43.62809" lon="6.39125">
        <ele>837.7</ele>
        <time>2017-02-19T10:49:59Z</time>
      </trkpt>
      <trkpt lat="43.62805" lon="6.39114">
        <ele>835.3</ele>
        <time>2017-02-19T10:50:16Z</time>
      </trkpt>
      <trkpt lat="43.628" lon="6.39104">
        <ele>832.9</ele>
        <time>2017-02-19T10:50:32Z</time>
      </trkpt>
      <trkpt lat="43.62791" lon="6.39101">
        <ele>830.6</ele>
        <time>2017-02-19T10:50:49Z</time>
      </trkpt>
      <trkpt lat="43.62782" lon="6.39098">
        <ele>828.3</ele>
        <time>2017-02-19T10:51:08Z</time>
      </trkpt>
      <trkpt lat="43.62773" lon="6.39094">
        <ele>826.5</ele>
        <time>2017-02-19T10:51:24Z</time>
      </trkpt>
      <trkpt lat="43.62764" lon="6.3909">
        <ele>824.3</ele>
        <time>2017-02-19T10:51:39Z</time>
      </trkpt>
      <trkpt lat="43.62755" lon="6.39087">
        <ele>822.1</ele>
        <time>2017-02-19T10:51:53Z</time>
      </trkpt>
      <trkpt lat="43.62746" lon="6.39091">
        <ele>820.5</ele>
        <time>2017-02-19T10:52:04Z</time>
      </trkpt>
      <trkpt lat="43.62737" lon="6.39096">
        <ele>819.1</ele>
        <time>2017-02-19T10:52:15Z</time>
      </trkpt>
      <trkpt lat="43.62728" lon="6.39097">
        <ele>817</ele>
        <time>2017-02-19T10:52:31Z</time>
      </trkpt>
      <trkpt lat="43.62718" lon="6.39097">
        <ele>815.1</ele>
        <time>2017-02-19T10:52:45Z</time>
      </trkpt>
      <trkpt lat="43.62709" lon="6.39098">
        <ele>813</ele>
        <time>2017-02-19T10:53:00Z</time>
      </trkpt>
      <trkpt lat="43.627" lon="6.39099">
        <ele>810.4</ele>
        <time>2017-02-19T10:53:16Z</time>
      </trkpt>
      <trkpt lat="43.62691" lon="6.39102">
        <ele>808.2</ele>
        <time>2017-02-19T10:53:31Z</time>
      </trkpt>
      <trkpt lat="43.62682" lon="6.39104">
        <ele>805.4</ele>
        <time>2017-02-19T10:53:49Z</time>
      </trkpt>
      <trkpt lat="43.62676" lon="6.39114">
        <ele>802.3</ele>
        <time>2017-02-19T10:54:57Z</time>
      </trkpt>
      <trkpt lat="43.62675" lon="6.39127">
        <ele>801.1</ele>
        <time>2017-02-19T10:55:15Z</time>
      </trkpt>
      <trkpt lat="43.62671" lon="6.39138">
        <ele>799.1</ele>
        <time>2017-02-19T10:55:32Z</time>
      </trkpt>
      <trkpt lat="43.62666" lon="6.39149">
        <ele>797.6</ele>
        <time>2017-02-19T10:55:43Z</time>
      </trkpt>
      <trkpt lat="43.6266" lon="6.39158">
        <ele>796.6</ele>
        <time>2017-02-19T10:55:55Z</time>
      </trkpt>
      <trkpt lat="43.62653" lon="6.39168">
        <ele>795.9</ele>
        <time>2017-02-19T10:56:07Z</time>
      </trkpt>
      <trkpt lat="43.62645" lon="6.39175">
        <ele>794.8</ele>
        <time>2017-02-19T10:56:21Z</time>
      </trkpt>
      <trkpt lat="43.62637" lon="6.3918">
        <ele>793</ele>
        <time>2017-02-19T10:56:34Z</time>
      </trkpt>
      <trkpt lat="43.62628" lon="6.39186">
        <ele>791.2</ele>
        <time>2017-02-19T10:56:48Z</time>
      </trkpt>
      <trkpt lat="43.62619" lon="6.39191">
        <ele>789</ele>
        <time>2017-02-19T10:57:02Z</time>
      </trkpt>
      <trkpt lat="43.62611" lon="6.39196">
        <ele>786.7</ele>
        <time>2017-02-19T10:57:17Z</time>
      </trkpt>
      <trkpt lat="43.62603" lon="6.39201">
        <ele>785.4</ele>
        <time>2017-02-19T10:57:31Z</time>
      </trkpt>
      <trkpt lat="43.62594" lon="6.39207">
        <ele>783.2</ele>
        <time>2017-02-19T10:57:47Z</time>
      </trkpt>
      <trkpt lat="43.62587" lon="6.39215">
        <ele>781</ele>
        <time>2017-02-19T10:58:02Z</time>
      </trkpt>
      <trkpt lat="43.6258" lon="6.39224">
        <ele>778.5</ele>
        <time>2017-02-19T10:58:17Z</time>
      </trkpt>
      <trkpt lat="43.62571" lon="6.39224">
        <ele>776</ele>
        <time>2017-02-19T10:58:33Z</time>
      </trkpt>
      <trkpt lat="43.62562" lon="6.39222">
        <ele>773.6</ele>
        <time>2017-02-19T10:58:48Z</time>
      </trkpt>
      <trkpt lat="43.62555" lon="6.39214">
        <ele>771.8</ele>
        <time>2017-02-19T10:58:59Z</time>
      </trkpt>
      <trkpt lat="43.62546" lon="6.39219">
        <ele>769</ele>
        <time>2017-02-19T10:59:19Z</time>
      </trkpt>
      <trkpt lat="43.6255" lon="6.39231">
        <ele>768</ele>
        <time>2017-02-19T10:59:29Z</time>
      </trkpt>
      <trkpt lat="43.6255" lon="6.39244">
        <ele>766.8</ele>
        <time>2017-02-19T10:59:40Z</time>
      </trkpt>
      <trkpt lat="43.62551" lon="6.39257">
        <ele>765.2</ele>
        <time>2017-02-19T10:59:51Z</time>
      </trkpt>
      <trkpt lat="43.6255" lon="6.39271">
        <ele>763.7</ele>
        <time>2017-02-19T11:00:02Z</time>
      </trkpt>
      <trkpt lat="43.62549" lon="6.39283">
        <ele>762.5</ele>
        <time>2017-02-19T11:00:12Z</time>
      </trkpt>
      <trkpt lat="43.6254" lon="6.39282">
        <ele>759.7</ele>
        <time>2017-02-19T11:00:31Z</time>
      </trkpt>
      <trkpt lat="43.62534" lon="6.39272">
        <ele>758.3</ele>
        <time>2017-02-19T11:00:41Z</time>
      </trkpt>
      <trkpt lat="43.62525" lon="6.39267">
        <ele>757.2</ele>
        <time>2017-02-19T11:00:51Z</time>
      </trkpt>
      <trkpt lat="43.62517" lon="6.39259">
        <ele>755.9</ele>
        <time>2017-02-19T11:01:03Z</time>
      </trkpt>
      <trkpt lat="43.6251" lon="6.3925">
        <ele>754.5</ele>
        <time>2017-02-19T11:01:12Z</time>
      </trkpt>
      <trkpt lat="43.62504" lon="6.3924">
        <ele>753.4</ele>
        <time>2017-02-19T11:01:24Z</time>
      </trkpt>
      <trkpt lat="43.62495" lon="6.39237">
        <ele>752.6</ele>
        <time>2017-02-19T11:01:32Z</time>
      </trkpt>
      <trkpt lat="43.62489" lon="6.39227">
        <ele>751.8</ele>
        <time>2017-02-19T11:01:43Z</time>
      </trkpt>
      <trkpt lat="43.62482" lon="6.39218">
        <ele>751</ele>
        <time>2017-02-19T11:01:52Z</time>
      </trkpt>
      <trkpt lat="43.62475" lon="6.39208">
        <ele>749.8</ele>
        <time>2017-02-19T11:02:01Z</time>
      </trkpt>
      <trkpt lat="43.6247" lon="6.39198">
        <ele>748.7</ele>
        <time>2017-02-19T11:02:09Z</time>
      </trkpt>
      <trkpt lat="43.62464" lon="6.39189">
        <ele>747.8</ele>
        <time>2017-02-19T11:02:18Z</time>
      </trkpt>
      <trkpt lat="43.62458" lon="6.39179">
        <ele>746.8</ele>
        <time>2017-02-19T11:02:27Z</time>
      </trkpt>
      <trkpt lat="43.62452" lon="6.39169">
        <ele>745.8</ele>
        <time>2017-02-19T11:02:36Z</time>
      </trkpt>
      <trkpt lat="43.62446" lon="6.3916">
        <ele>744.9</ele>
        <time>2017-02-19T11:02:46Z</time>
      </trkpt>
      <trkpt lat="43.6244" lon="6.3915">
        <ele>744.1</ele>
        <time>2017-02-19T11:02:55Z</time>
      </trkpt>
      <trkpt lat="43.62432" lon="6.39145">
        <ele>743.2</ele>
        <time>2017-02-19T11:03:04Z</time>
      </trkpt>
      <trkpt lat="43.62424" lon="6.39137">
        <ele>742.7</ele>
        <time>2017-02-19T11:03:14Z</time>
      </trkpt>
      <trkpt lat="43.62417" lon="6.39129">
        <ele>742.9</ele>
        <time>2017-02-19T11:03:24Z</time>
      </trkpt>
      <trkpt lat="43.62411" lon="6.39119">
        <ele>743.1</ele>
        <time>2017-02-19T11:03:33Z</time>
      </trkpt>
      <trkpt lat="43.62405" lon="6.39109">
        <ele>742.9</ele>
        <time>2017-02-19T11:03:42Z</time>
      </trkpt>
      <trkpt lat="43.624" lon="6.39097">
        <ele>742.6</ele>
        <time>2017-02-19T11:03:51Z</time>
      </trkpt>
      <trkpt lat="43.62396" lon="6.39086">
        <ele>742</ele>
        <time>2017-02-19T11:04:00Z</time>
      </trkpt>
      <trkpt lat="43.6239" lon="6.39075">
        <ele>741.2</ele>
        <time>2017-02-19T11:04:09Z</time>
      </trkpt>
      <trkpt lat="43.62383" lon="6.39066">
        <ele>740.7</ele>
        <time>2017-02-19T11:04:18Z</time>
      </trkpt>
      <trkpt lat="43.62376" lon="6.39058">
        <ele>739.9</ele>
        <time>2017-02-19T11:04:27Z</time>
      </trkpt>
      <trkpt lat="43.62369" lon="6.39049">
        <ele>739</ele>
        <time>2017-02-19T11:04:36Z</time>
      </trkpt>
      <trkpt lat="43.62365" lon="6.39038">
        <ele>738</ele>
        <time>2017-02-19T11:04:46Z</time>
      </trkpt>
      <trkpt lat="43.62363" lon="6.39024">
        <ele>737</ele>
        <time>2017-02-19T11:04:56Z</time>
      </trkpt>
      <trkpt lat="43.62359" lon="6.39013">
        <ele>735.7</ele>
        <time>2017-02-19T11:05:05Z</time>
      </trkpt>
      <trkpt lat="43.62355" lon="6.39002">
        <ele>734.8</ele>
        <time>2017-02-19T11:05:14Z</time>
      </trkpt>
      <trkpt lat="43.62351" lon="6.38991">
        <ele>733.5</ele>
        <time>2017-02-19T11:05:23Z</time>
      </trkpt>
      <trkpt lat="43.62349" lon="6.38979">
        <ele>731.9</ele>
        <time>2017-02-19T11:05:34Z</time>
      </trkpt>
      <trkpt lat="43.62347" lon="6.38965">
        <ele>730.6</ele>
        <time>2017-02-19T11:05:45Z</time>
      </trkpt>
      <trkpt lat="43.62347" lon="6.38953">
        <ele>729.8</ele>
        <time>2017-02-19T11:05:54Z</time>
      </trkpt>
      <trkpt lat="43.62346" lon="6.38939">
        <ele>728.9</ele>
        <time>2017-02-19T11:06:04Z</time>
      </trkpt>
      <trkpt lat="43.62342" lon="6.38927">
        <ele>728.2</ele>
        <time>2017-02-19T11:06:13Z</time>
      </trkpt>
      <trkpt lat="43.62335" lon="6.38918">
        <ele>727.5</ele>
        <time>2017-02-19T11:06:22Z</time>
      </trkpt>
      <trkpt lat="43.62325" lon="6.38917">
        <ele>726.9</ele>
        <time>2017-02-19T11:06:32Z</time>
      </trkpt>
      <trkpt lat="43.62316" lon="6.38914">
        <ele>726.7</ele>
        <time>2017-02-19T11:06:40Z</time>
      </trkpt>
      <trkpt lat="43.62307" lon="6.3891">
        <ele>726.4</ele>
        <time>2017-02-19T11:06:50Z</time>
      </trkpt>
      <trkpt lat="43.62298" lon="6.38906">
        <ele>726.2</ele>
        <time>2017-02-19T11:07:00Z</time>
      </trkpt>
      <trkpt lat="43.62293" lon="6.38895">
        <ele>725.7</ele>
        <time>2017-02-19T11:07:10Z</time>
      </trkpt>
      <trkpt lat="43.62295" lon="6.38883">
        <ele>725.5</ele>
        <time>2017-02-19T11:10:14Z</time>
      </trkpt>
      <trkpt lat="43.62298" lon="6.38871">
        <ele>725.3</ele>
        <time>2017-02-19T11:10:25Z</time>
      </trkpt>
      <trkpt lat="43.62302" lon="6.38859">
        <ele>725.3</ele>
        <time>2017-02-19T11:10:35Z</time>
      </trkpt>
      <trkpt lat="43.62307" lon="6.38849">
        <ele>725.2</ele>
        <time>2017-02-19T11:10:44Z</time>
      </trkpt>
      <trkpt lat="43.62314" lon="6.38838">
        <ele>725.2</ele>
        <time>2017-02-19T11:10:54Z</time>
      </trkpt>
      <trkpt lat="43.62321" lon="6.38831">
        <ele>725.1</ele>
        <time>2017-02-19T11:11:04Z</time>
      </trkpt>
      <trkpt lat="43.6233" lon="6.38828">
        <ele>724.9</ele>
        <time>2017-02-19T11:11:15Z</time>
      </trkpt>
      <trkpt lat="43.62339" lon="6.38824">
        <ele>724.6</ele>
        <time>2017-02-19T11:11:24Z</time>
      </trkpt>
      <trkpt lat="43.62348" lon="6.3882">
        <ele>723.9</ele>
        <time>2017-02-19T11:11:33Z</time>
      </trkpt>
      <trkpt lat="43.62357" lon="6.38817">
        <ele>723.1</ele>
        <time>2017-02-19T11:11:42Z</time>
      </trkpt>
      <trkpt lat="43.62367" lon="6.38813">
        <ele>722.2</ele>
        <time>2017-02-19T11:11:51Z</time>
      </trkpt>
      <trkpt lat="43.62376" lon="6.38813">
        <ele>721.5</ele>
        <time>2017-02-19T11:12:00Z</time>
      </trkpt>
      <trkpt lat="43.62385" lon="6.38818">
        <ele>720.5</ele>
        <time>2017-02-19T11:12:09Z</time>
      </trkpt>
      <trkpt lat="43.62392" lon="6.38826">
        <ele>718.8</ele>
        <time>2017-02-19T11:12:20Z</time>
      </trkpt>
      <trkpt lat="43.62401" lon="6.3883">
        <ele>717.4</ele>
        <time>2017-02-19T11:12:30Z</time>
      </trkpt>
      <trkpt lat="43.62407" lon="6.38821">
        <ele>716.5</ele>
        <time>2017-02-19T11:12:41Z</time>
      </trkpt>
      <trkpt lat="43.62408" lon="6.38807">
        <ele>715.6</ele>
        <time>2017-02-19T11:12:51Z</time>
      </trkpt>
      <trkpt lat="43.62408" lon="6.38794">
        <ele>714.5</ele>
        <time>2017-02-19T11:13:01Z</time>
      </trkpt>
      <trkpt lat="43.62407" lon="6.3878">
        <ele>713.8</ele>
        <time>2017-02-19T11:13:10Z</time>
      </trkpt>
      <trkpt lat="43.62404" lon="6.38768">
        <ele>712.8</ele>
        <time>2017-02-19T11:13:19Z</time>
      </trkpt>
      <trkpt lat="43.624" lon="6.38756">
        <ele>711.5</ele>
        <time>2017-02-19T11:13:28Z</time>
      </trkpt>
      <trkpt lat="43.62397" lon="6.38744">
        <ele>710.4</ele>
        <time>2017-02-19T11:13:37Z</time>
      </trkpt>
      <trkpt lat="43.62397" lon="6.3873">
        <ele>708.6</ele>
        <time>2017-02-19T11:13:47Z</time>
      </trkpt>
      <trkpt lat="43.62398" lon="6.38716">
        <ele>707.1</ele>
        <time>2017-02-19T11:13:56Z</time>
      </trkpt>
      <trkpt lat="43.624" lon="6.38703">
        <ele>705.6</ele>
        <time>2017-02-19T11:14:05Z</time>
      </trkpt>
      <trkpt lat="43.62401" lon="6.3869">
        <ele>703.9</ele>
        <time>2017-02-19T11:14:14Z</time>
      </trkpt>
      <trkpt lat="43.624" lon="6.38677">
        <ele>702.4</ele>
        <time>2017-02-19T11:14:25Z</time>
      </trkpt>
      <trkpt lat="43.62401" lon="6.38663">
        <ele>701.2</ele>
        <time>2017-02-19T11:14:34Z</time>
      </trkpt>
      <trkpt lat="43.62403" lon="6.3865">
        <ele>700</ele>
        <time>2017-02-19T11:14:43Z</time>
      </trkpt>
      <trkpt lat="43.62403" lon="6.38637">
        <ele>698.8</ele>
        <time>2017-02-19T11:14:51Z</time>
      </trkpt>
      <trkpt lat="43.62402" lon="6.38624">
        <ele>697.5</ele>
        <time>2017-02-19T11:14:59Z</time>
      </trkpt>
      <trkpt lat="43.624" lon="6.3861">
        <ele>696.3</ele>
        <time>2017-02-19T11:15:07Z</time>
      </trkpt>
      <trkpt lat="43.62399" lon="6.38597">
        <ele>695.1</ele>
        <time>2017-02-19T11:15:15Z</time>
      </trkpt>
      <trkpt lat="43.62399" lon="6.38584">
        <ele>694.2</ele>
        <time>2017-02-19T11:15:23Z</time>
      </trkpt>
      <trkpt lat="43.62401" lon="6.38572">
        <ele>693.5</ele>
        <time>2017-02-19T11:15:30Z</time>
      </trkpt>
      <trkpt lat="43.62405" lon="6.38559">
        <ele>692.7</ele>
        <time>2017-02-19T11:15:38Z</time>
      </trkpt>
      <trkpt lat="43.62408" lon="6.38547">
        <ele>691.7</ele>
        <time>2017-02-19T11:15:46Z</time>
      </trkpt>
      <trkpt lat="43.62411" lon="6.38534">
        <ele>690.3</ele>
        <time>2017-02-19T11:15:55Z</time>
      </trkpt>
      <trkpt lat="43.62414" lon="6.38522">
        <ele>689.2</ele>
        <time>2017-02-19T11:16:03Z</time>
      </trkpt>
      <trkpt lat="43.62417" lon="6.3851">
        <ele>688.1</ele>
        <time>2017-02-19T11:16:11Z</time>
      </trkpt>
      <trkpt lat="43.62419" lon="6.38498">
        <ele>687</ele>
        <time>2017-02-19T11:16:19Z</time>
      </trkpt>
      <trkpt lat="43.62424" lon="6.38486">
        <ele>686.1</ele>
        <time>2017-02-19T11:16:27Z</time>
      </trkpt>
      <trkpt lat="43.62428" lon="6.38473">
        <ele>685.2</ele>
        <time>2017-02-19T11:16:36Z</time>
      </trkpt>
      <trkpt lat="43.62432" lon="6.38461">
        <ele>684.5</ele>
        <time>2017-02-19T11:16:45Z</time>
      </trkpt>
      <trkpt lat="43.62439" lon="6.38452">
        <ele>684.1</ele>
        <time>2017-02-19T11:16:56Z</time>
      </trkpt>
      <trkpt lat="43.62447" lon="6.38449">
        <ele>684.3</ele>
        <time>2017-02-19T11:18:53Z</time>
      </trkpt>
      <trkpt lat="43.62455" lon="6.38456">
        <ele>684.5</ele>
        <time>2017-02-19T11:19:04Z</time>
      </trkpt>
      <trkpt lat="43.62464" lon="6.3846">
        <ele>684.8</ele>
        <time>2017-02-19T11:19:14Z</time>
      </trkpt>
      <trkpt lat="43.62474" lon="6.38462">
        <ele>685.5</ele>
        <time>2017-02-19T11:19:25Z</time>
      </trkpt>
      <trkpt lat="43.62483" lon="6.3846">
        <ele>686.6</ele>
        <time>2017-02-19T11:19:37Z</time>
      </trkpt>
      <trkpt lat="43.62492" lon="6.38457">
        <ele>687.9</ele>
        <time>2017-02-19T11:19:49Z</time>
      </trkpt>
      <trkpt lat="43.62501" lon="6.38452">
        <ele>689</ele>
        <time>2017-02-19T11:20:00Z</time>
      </trkpt>
      <trkpt lat="43.6251" lon="6.3845">
        <ele>690.2</ele>
        <time>2017-02-19T11:20:11Z</time>
      </trkpt>
      <trkpt lat="43.62519" lon="6.38447">
        <ele>691.4</ele>
        <time>2017-02-19T11:20:21Z</time>
      </trkpt>
      <trkpt lat="43.62528" lon="6.38442">
        <ele>692.5</ele>
        <time>2017-02-19T11:20:32Z</time>
      </trkpt>
      <trkpt lat="43.62537" lon="6.38438">
        <ele>694</ele>
        <time>2017-02-19T11:20:44Z</time>
      </trkpt>
      <trkpt lat="43.62545" lon="6.38433">
        <ele>695.8</ele>
        <time>2017-02-19T11:20:56Z</time>
      </trkpt>
      <trkpt lat="43.62554" lon="6.38426">
        <ele>697.7</ele>
        <time>2017-02-19T11:21:10Z</time>
      </trkpt>
      <trkpt lat="43.62562" lon="6.3842">
        <ele>699.6</ele>
        <time>2017-02-19T11:21:24Z</time>
      </trkpt>
      <trkpt lat="43.62571" lon="6.38414">
        <ele>701</ele>
        <time>2017-02-19T11:21:36Z</time>
      </trkpt>
      <trkpt lat="43.6258" lon="6.38408">
        <ele>702</ele>
        <time>2017-02-19T11:21:49Z</time>
      </trkpt>
      <trkpt lat="43.62588" lon="6.38401">
        <ele>703.9</ele>
        <time>2017-02-19T11:22:05Z</time>
      </trkpt>
      <trkpt lat="43.62593" lon="6.3839">
        <ele>706.8</ele>
        <time>2017-02-19T11:22:22Z</time>
      </trkpt>
      <trkpt lat="43.62595" lon="6.38378">
        <ele>709.1</ele>
        <time>2017-02-19T11:22:38Z</time>
      </trkpt>
      <trkpt lat="43.62599" lon="6.38367">
        <ele>710.7</ele>
        <time>2017-02-19T11:22:51Z</time>
      </trkpt>
      <trkpt lat="43.62599" lon="6.38354">
        <ele>712.1</ele>
        <time>2017-02-19T11:23:03Z</time>
      </trkpt>
      <trkpt lat="43.62598" lon="6.38341">
        <ele>712.7</ele>
        <time>2017-02-19T11:23:14Z</time>
      </trkpt>
      <trkpt lat="43.62598" lon="6.38328">
        <ele>712.4</ele>
        <time>2017-02-19T11:23:25Z</time>
      </trkpt>
      <trkpt lat="43.62598" lon="6.38314">
        <ele>711.2</ele>
        <time>2017-02-19T11:23:36Z</time>
      </trkpt>
      <trkpt lat="43.62596" lon="6.38301">
        <ele>710.3</ele>
        <time>2017-02-19T11:23:45Z</time>
      </trkpt>
      <trkpt lat="43.62598" lon="6.38289">
        <ele>709.5</ele>
        <time>2017-02-19T11:23:54Z</time>
      </trkpt>
      <trkpt lat="43.62591" lon="6.38281">
        <ele>705.9</ele>
        <time>2017-02-19T11:24:49Z</time>
      </trkpt>
      <trkpt lat="43.62586" lon="6.38271">
        <ele>705</ele>
        <time>2017-02-19T11:25:34Z</time>
      </trkpt>
      <trkpt lat="43.62593" lon="6.38279">
        <ele>704.3</ele>
        <time>2017-02-19T11:28:49Z</time>
      </trkpt>
      <trkpt lat="43.62585" lon="6.38274">
        <ele>704.6</ele>
        <time>2017-02-19T11:30:51Z</time>
      </trkpt>
      <trkpt lat="43.62593" lon="6.38281">
        <ele>705</ele>
        <time>2017-02-19T11:33:10Z</time>
      </trkpt>
      <trkpt lat="43.62588" lon="6.38269">
        <ele>704.6</ele>
        <time>2017-02-19T11:36:36Z</time>
      </trkpt>
      <trkpt lat="43.6258" lon="6.38264">
        <ele>707.6</ele>
        <time>2017-02-19T11:54:22Z</time>
      </trkpt>
      <trkpt lat="43.62589" lon="6.38269">
        <ele>707.9</ele>
        <time>2017-02-19T11:55:57Z</time>
      </trkpt>
      <trkpt lat="43.6258" lon="6.38264">
        <ele>708.3</ele>
        <time>2017-02-19T11:57:36Z</time>
      </trkpt>
      <trkpt lat="43.62589" lon="6.38269">
        <ele>709</ele>
        <time>2017-02-19T11:58:52Z</time>
      </trkpt>
      <trkpt lat="43.62596" lon="6.38276">
        <ele>708.3</ele>
        <time>2017-02-19T12:00:04Z</time>
      </trkpt>
      <trkpt lat="43.62588" lon="6.38272">
        <ele>709.3</ele>
        <time>2017-02-19T12:02:28Z</time>
      </trkpt>
      <trkpt lat="43.6258" lon="6.38266">
        <ele>709.6</ele>
        <time>2017-02-19T12:03:04Z</time>
      </trkpt>
      <trkpt lat="43.62589" lon="6.3827">
        <ele>709.5</ele>
        <time>2017-02-19T12:04:21Z</time>
      </trkpt>
      <trkpt lat="43.62596" lon="6.38278">
        <ele>709.8</ele>
        <time>2017-02-19T12:08:20Z</time>
      </trkpt>
      <trkpt lat="43.62587" lon="6.38274">
        <ele>710.9</ele>
        <time>2017-02-19T12:12:26Z</time>
      </trkpt>
      <trkpt lat="43.62597" lon="6.38276">
        <ele>712.4</ele>
        <time>2017-02-19T12:17:01Z</time>
      </trkpt>
      <trkpt lat="43.62587" lon="6.38274">
        <ele>711.8</ele>
        <time>2017-02-19T12:17:28Z</time>
      </trkpt>
      <trkpt lat="43.62596" lon="6.38275">
        <ele>711.8</ele>
        <time>2017-02-19T12:18:18Z</time>
      </trkpt>
      <trkpt lat="43.62605" lon="6.38279">
        <ele>712.1</ele>
        <time>2017-02-19T12:18:27Z</time>
      </trkpt>
      <trkpt lat="43.62597" lon="6.38276">
        <ele>711.4</ele>
        <time>2017-02-19T12:18:58Z</time>
      </trkpt>
      <trkpt lat="43.62591" lon="6.38265">
        <ele>713</ele>
        <time>2017-02-19T12:22:06Z</time>
      </trkpt>
      <trkpt lat="43.62596" lon="6.38254">
        <ele>712.8</ele>
        <time>2017-02-19T12:22:19Z</time>
      </trkpt>
      <trkpt lat="43.62604" lon="6.38248">
        <ele>713.9</ele>
        <time>2017-02-19T12:22:34Z</time>
      </trkpt>
      <trkpt lat="43.62607" lon="6.38236">
        <ele>714.1</ele>
        <time>2017-02-19T12:22:49Z</time>
      </trkpt>
      <trkpt lat="43.62609" lon="6.38223">
        <ele>714.7</ele>
        <time>2017-02-19T12:23:00Z</time>
      </trkpt>
      <trkpt lat="43.62609" lon="6.38209">
        <ele>714.5</ele>
        <time>2017-02-19T12:23:11Z</time>
      </trkpt>
      <trkpt lat="43.62609" lon="6.38196">
        <ele>713.9</ele>
        <time>2017-02-19T12:23:21Z</time>
      </trkpt>
      <trkpt lat="43.62613" lon="6.38185">
        <ele>713.3</ele>
        <time>2017-02-19T12:23:30Z</time>
      </trkpt>
      <trkpt lat="43.62617" lon="6.38172">
        <ele>713.1</ele>
        <time>2017-02-19T12:23:41Z</time>
      </trkpt>
      <trkpt lat="43.62622" lon="6.38161">
        <ele>712.6</ele>
        <time>2017-02-19T12:23:49Z</time>
      </trkpt>
      <trkpt lat="43.62627" lon="6.3815">
        <ele>712.4</ele>
        <time>2017-02-19T12:23:56Z</time>
      </trkpt>
      <trkpt lat="43.62632" lon="6.38139">
        <ele>712.8</ele>
        <time>2017-02-19T12:24:04Z</time>
      </trkpt>
      <trkpt lat="43.62637" lon="6.38128">
        <ele>713</ele>
        <time>2017-02-19T12:24:13Z</time>
      </trkpt>
      <trkpt lat="43.6264" lon="6.38115">
        <ele>713.8</ele>
        <time>2017-02-19T12:24:25Z</time>
      </trkpt>
      <trkpt lat="43.62641" lon="6.38102">
        <ele>714.2</ele>
        <time>2017-02-19T12:24:37Z</time>
      </trkpt>
      <trkpt lat="43.62642" lon="6.38089">
        <ele>713.8</ele>
        <time>2017-02-19T12:24:48Z</time>
      </trkpt>
      <trkpt lat="43.6264" lon="6.38077">
        <ele>713.6</ele>
        <time>2017-02-19T12:25:19Z</time>
      </trkpt>
      <trkpt lat="43.62642" lon="6.38064">
        <ele>713.3</ele>
        <time>2017-02-19T12:25:33Z</time>
      </trkpt>
      <trkpt lat="43.62644" lon="6.38052">
        <ele>713.5</ele>
        <time>2017-02-19T12:26:00Z</time>
      </trkpt>
      <trkpt lat="43.62641" lon="6.38039">
        <ele>713.1</ele>
        <time>2017-02-19T12:26:56Z</time>
      </trkpt>
      <trkpt lat="43.6264" lon="6.38025">
        <ele>713.3</ele>
        <time>2017-02-19T12:27:05Z</time>
      </trkpt>
      <trkpt lat="43.62639" lon="6.38011">
        <ele>712.8</ele>
        <time>2017-02-19T12:27:14Z</time>
      </trkpt>
      <trkpt lat="43.62641" lon="6.37998">
        <ele>712.8</ele>
        <time>2017-02-19T12:27:22Z</time>
      </trkpt>
      <trkpt lat="43.62644" lon="6.37987">
        <ele>712.1</ele>
        <time>2017-02-19T12:27:32Z</time>
      </trkpt>
      <trkpt lat="43.6265" lon="6.37978">
        <ele>711.8</ele>
        <time>2017-02-19T12:27:42Z</time>
      </trkpt>
      <trkpt lat="43.62655" lon="6.37966">
        <ele>710.7</ele>
        <time>2017-02-19T12:27:55Z</time>
      </trkpt>
      <trkpt lat="43.62646" lon="6.37964">
        <ele>709.7</ele>
        <time>2017-02-19T12:28:08Z</time>
      </trkpt>
      <trkpt lat="43.62639" lon="6.37971">
        <ele>708.7</ele>
        <time>2017-02-19T12:28:19Z</time>
      </trkpt>
      <trkpt lat="43.62639" lon="6.37959">
        <ele>707.1</ele>
        <time>2017-02-19T12:28:51Z</time>
      </trkpt>
      <trkpt lat="43.62629" lon="6.37958">
        <ele>705.1</ele>
        <time>2017-02-19T12:29:15Z</time>
      </trkpt>
      <trkpt lat="43.6262" lon="6.37962">
        <ele>704.1</ele>
        <time>2017-02-19T12:29:27Z</time>
      </trkpt>
      <trkpt lat="43.6261" lon="6.37964">
        <ele>702.5</ele>
        <time>2017-02-19T12:29:37Z</time>
      </trkpt>
      <trkpt lat="43.62601" lon="6.3797">
        <ele>701.7</ele>
        <time>2017-02-19T12:29:47Z</time>
      </trkpt>
      <trkpt lat="43.62592" lon="6.37974">
        <ele>700.4</ele>
        <time>2017-02-19T12:29:57Z</time>
      </trkpt>
      <trkpt lat="43.62584" lon="6.37978">
        <ele>699.3</ele>
        <time>2017-02-19T12:30:09Z</time>
      </trkpt>
      <trkpt lat="43.62575" lon="6.37973">
        <ele>697.6</ele>
        <time>2017-02-19T12:30:22Z</time>
      </trkpt>
      <trkpt lat="43.62566" lon="6.37974">
        <ele>695.7</ele>
        <time>2017-02-19T12:30:36Z</time>
      </trkpt>
      <trkpt lat="43.62556" lon="6.37976">
        <ele>694.9</ele>
        <time>2017-02-19T12:30:48Z</time>
      </trkpt>
      <trkpt lat="43.62548" lon="6.37979">
        <ele>693.6</ele>
        <time>2017-02-19T12:30:58Z</time>
      </trkpt>
      <trkpt lat="43.62538" lon="6.37982">
        <ele>692.9</ele>
        <time>2017-02-19T12:31:07Z</time>
      </trkpt>
      <trkpt lat="43.62529" lon="6.37984">
        <ele>690.1</ele>
        <time>2017-02-19T12:31:41Z</time>
      </trkpt>
      <trkpt lat="43.62519" lon="6.37984">
        <ele>689</ele>
        <time>2017-02-19T12:31:57Z</time>
      </trkpt>
      <trkpt lat="43.62511" lon="6.37988">
        <ele>687.6</ele>
        <time>2017-02-19T12:32:08Z</time>
      </trkpt>
      <trkpt lat="43.62502" lon="6.37994">
        <ele>686.8</ele>
        <time>2017-02-19T12:32:20Z</time>
      </trkpt>
      <trkpt lat="43.62493" lon="6.37998">
        <ele>685</ele>
        <time>2017-02-19T12:32:30Z</time>
      </trkpt>
      <trkpt lat="43.62484" lon="6.38001">
        <ele>683</ele>
        <time>2017-02-19T12:32:41Z</time>
      </trkpt>
      <trkpt lat="43.62474" lon="6.38">
        <ele>681.1</ele>
        <time>2017-02-19T12:32:51Z</time>
      </trkpt>
      <trkpt lat="43.62468" lon="6.3799">
        <ele>680.2</ele>
        <time>2017-02-19T12:32:59Z</time>
      </trkpt>
      <trkpt lat="43.62461" lon="6.37979">
        <ele>679</ele>
        <time>2017-02-19T12:33:08Z</time>
      </trkpt>
      <trkpt lat="43.62457" lon="6.37968">
        <ele>678.3</ele>
        <time>2017-02-19T12:33:16Z</time>
      </trkpt>
      <trkpt lat="43.62455" lon="6.37956">
        <ele>678.1</ele>
        <time>2017-02-19T12:33:25Z</time>
      </trkpt>
      <trkpt lat="43.62458" lon="6.37944">
        <ele>678.1</ele>
        <time>2017-02-19T12:33:31Z</time>
      </trkpt>
      <trkpt lat="43.62461" lon="6.37931">
        <ele>678.2</ele>
        <time>2017-02-19T12:33:38Z</time>
      </trkpt>
      <trkpt lat="43.62463" lon="6.37918">
        <ele>678.2</ele>
        <time>2017-02-19T12:33:46Z</time>
      </trkpt>
      <trkpt lat="43.62465" lon="6.37905">
        <ele>678</ele>
        <time>2017-02-19T12:33:54Z</time>
      </trkpt>
      <trkpt lat="43.62467" lon="6.37893">
        <ele>678.2</ele>
        <time>2017-02-19T12:34:02Z</time>
      </trkpt>
      <trkpt lat="43.6247" lon="6.3788">
        <ele>678.3</ele>
        <time>2017-02-19T12:34:10Z</time>
      </trkpt>
      <trkpt lat="43.62473" lon="6.37868">
        <ele>678.1</ele>
        <time>2017-02-19T12:34:18Z</time>
      </trkpt>
      <trkpt lat="43.62476" lon="6.37856">
        <ele>678.1</ele>
        <time>2017-02-19T12:34:25Z</time>
      </trkpt>
      <trkpt lat="43.6248" lon="6.37843">
        <ele>678</ele>
        <time>2017-02-19T12:34:33Z</time>
      </trkpt>
      <trkpt lat="43.62484" lon="6.37831">
        <ele>677.9</ele>
        <time>2017-02-19T12:34:41Z</time>
      </trkpt>
      <trkpt lat="43.62489" lon="6.37819">
        <ele>677.8</ele>
        <time>2017-02-19T12:34:49Z</time>
      </trkpt>
      <trkpt lat="43.62494" lon="6.37807">
        <ele>677.4</ele>
        <time>2017-02-19T12:34:57Z</time>
      </trkpt>
      <trkpt lat="43.625" lon="6.37797">
        <ele>676.6</ele>
        <time>2017-02-19T12:35:05Z</time>
      </trkpt>
      <trkpt lat="43.62506" lon="6.37787">
        <ele>675.7</ele>
        <time>2017-02-19T12:35:14Z</time>
      </trkpt>
      <trkpt lat="43.62512" lon="6.37777">
        <ele>675.2</ele>
        <time>2017-02-19T12:35:23Z</time>
      </trkpt>
      <trkpt lat="43.62517" lon="6.37767">
        <ele>675.1</ele>
        <time>2017-02-19T12:35:30Z</time>
      </trkpt>
      <trkpt lat="43.62523" lon="6.37756">
        <ele>674.8</ele>
        <time>2017-02-19T12:35:39Z</time>
      </trkpt>
      <trkpt lat="43.6253" lon="6.37748">
        <ele>674.7</ele>
        <time>2017-02-19T12:35:47Z</time>
      </trkpt>
      <trkpt lat="43.62538" lon="6.3774">
        <ele>674.8</ele>
        <time>2017-02-19T12:35:55Z</time>
      </trkpt>
      <trkpt lat="43.62545" lon="6.37731">
        <ele>675.1</ele>
        <time>2017-02-19T12:36:02Z</time>
      </trkpt>
      <trkpt lat="43.62552" lon="6.37723">
        <ele>675.4</ele>
        <time>2017-02-19T12:36:09Z</time>
      </trkpt>
      <trkpt lat="43.62558" lon="6.37713">
        <ele>675.8</ele>
        <time>2017-02-19T12:36:17Z</time>
      </trkpt>
      <trkpt lat="43.62563" lon="6.37703">
        <ele>676.5</ele>
        <time>2017-02-19T12:36:25Z</time>
      </trkpt>
      <trkpt lat="43.6257" lon="6.37694">
        <ele>677.5</ele>
        <time>2017-02-19T12:36:33Z</time>
      </trkpt>
      <trkpt lat="43.62578" lon="6.37687">
        <ele>678.6</ele>
        <time>2017-02-19T12:36:41Z</time>
      </trkpt>
      <trkpt lat="43.62585" lon="6.3768">
        <ele>679.7</ele>
        <time>2017-02-19T12:36:49Z</time>
      </trkpt>
      <trkpt lat="43.62592" lon="6.37671">
        <ele>680</ele>
        <time>2017-02-19T12:36:57Z</time>
      </trkpt>
      <trkpt lat="43.62598" lon="6.3766">
        <ele>680.4</ele>
        <time>2017-02-19T12:37:05Z</time>
      </trkpt>
      <trkpt lat="43.62604" lon="6.3765">
        <ele>681.1</ele>
        <time>2017-02-19T12:37:13Z</time>
      </trkpt>
      <trkpt lat="43.6261" lon="6.37641">
        <ele>682.2</ele>
        <time>2017-02-19T12:37:21Z</time>
      </trkpt>
      <trkpt lat="43.62616" lon="6.3763">
        <ele>682.9</ele>
        <time>2017-02-19T12:37:30Z</time>
      </trkpt>
      <trkpt lat="43.6262" lon="6.37619">
        <ele>683.6</ele>
        <time>2017-02-19T12:37:39Z</time>
      </trkpt>
      <trkpt lat="43.62624" lon="6.37607">
        <ele>683.7</ele>
        <time>2017-02-19T12:37:47Z</time>
      </trkpt>
      <trkpt lat="43.62628" lon="6.37595">
        <ele>683.8</ele>
        <time>2017-02-19T12:37:56Z</time>
      </trkpt>
      <trkpt lat="43.62633" lon="6.37582">
        <ele>684.1</ele>
        <time>2017-02-19T12:38:04Z</time>
      </trkpt>
      <trkpt lat="43.62637" lon="6.37571">
        <ele>684.2</ele>
        <time>2017-02-19T12:38:11Z</time>
      </trkpt>
      <trkpt lat="43.62641" lon="6.37559">
        <ele>683.9</ele>
        <time>2017-02-19T12:38:18Z</time>
      </trkpt>
      <trkpt lat="43.62645" lon="6.37547">
        <ele>683.7</ele>
        <time>2017-02-19T12:38:26Z</time>
      </trkpt>
      <trkpt lat="43.62647" lon="6.37534">
        <ele>683.2</ele>
        <time>2017-02-19T12:38:34Z</time>
      </trkpt>
      <trkpt lat="43.62649" lon="6.37522">
        <ele>683</ele>
        <time>2017-02-19T12:38:41Z</time>
      </trkpt>
      <trkpt lat="43.62651" lon="6.37509">
        <ele>682.4</ele>
        <time>2017-02-19T12:38:48Z</time>
      </trkpt>
      <trkpt lat="43.62652" lon="6.37496">
        <ele>682.1</ele>
        <time>2017-02-19T12:38:56Z</time>
      </trkpt>
      <trkpt lat="43.62654" lon="6.37483">
        <ele>681.6</ele>
        <time>2017-02-19T12:39:04Z</time>
      </trkpt>
      <trkpt lat="43.62657" lon="6.37471">
        <ele>680.9</ele>
        <time>2017-02-19T12:39:13Z</time>
      </trkpt>
      <trkpt lat="43.6266" lon="6.37458">
        <ele>680.2</ele>
        <time>2017-02-19T12:39:21Z</time>
      </trkpt>
      <trkpt lat="43.62664" lon="6.37444">
        <ele>679.5</ele>
        <time>2017-02-19T12:39:28Z</time>
      </trkpt>
      <trkpt lat="43.62668" lon="6.37432">
        <ele>678.8</ele>
        <time>2017-02-19T12:39:36Z</time>
      </trkpt>
      <trkpt lat="43.62671" lon="6.3742">
        <ele>677.8</ele>
        <time>2017-02-19T12:42:30Z</time>
      </trkpt>
      <trkpt lat="43.62672" lon="6.37406">
        <ele>677.3</ele>
        <time>2017-02-19T12:42:43Z</time>
      </trkpt>
      <trkpt lat="43.62672" lon="6.37394">
        <ele>676.2</ele>
        <time>2017-02-19T12:42:54Z</time>
      </trkpt>
      <trkpt lat="43.62673" lon="6.37381">
        <ele>675.2</ele>
        <time>2017-02-19T12:43:04Z</time>
      </trkpt>
      <trkpt lat="43.62674" lon="6.37367">
        <ele>674.4</ele>
        <time>2017-02-19T12:43:13Z</time>
      </trkpt>
      <trkpt lat="43.62675" lon="6.37355">
        <ele>673.8</ele>
        <time>2017-02-19T12:43:21Z</time>
      </trkpt>
      <trkpt lat="43.62675" lon="6.37341">
        <ele>673.3</ele>
        <time>2017-02-19T12:43:30Z</time>
      </trkpt>
      <trkpt lat="43.62675" lon="6.37327">
        <ele>672.8</ele>
        <time>2017-02-19T12:43:39Z</time>
      </trkpt>
      <trkpt lat="43.62676" lon="6.37314">
        <ele>671.7</ele>
        <time>2017-02-19T12:43:48Z</time>
      </trkpt>
      <trkpt lat="43.62677" lon="6.37301">
        <ele>670.8</ele>
        <time>2017-02-19T12:43:57Z</time>
      </trkpt>
      <trkpt lat="43.62678" lon="6.37288">
        <ele>670</ele>
        <time>2017-02-19T12:44:05Z</time>
      </trkpt>
      <trkpt lat="43.6268" lon="6.37276">
        <ele>669.1</ele>
        <time>2017-02-19T12:44:14Z</time>
      </trkpt>
      <trkpt lat="43.62681" lon="6.37262">
        <ele>669</ele>
        <time>2017-02-19T12:44:23Z</time>
      </trkpt>
      <trkpt lat="43.62683" lon="6.37249">
        <ele>668.7</ele>
        <time>2017-02-19T12:44:31Z</time>
      </trkpt>
      <trkpt lat="43.62684" lon="6.37236">
        <ele>668.6</ele>
        <time>2017-02-19T12:44:39Z</time>
      </trkpt>
      <trkpt lat="43.62684" lon="6.37223">
        <ele>667.9</ele>
        <time>2017-02-19T12:44:47Z</time>
      </trkpt>
      <trkpt lat="43.62683" lon="6.3721">
        <ele>667.2</ele>
        <time>2017-02-19T12:44:55Z</time>
      </trkpt>
      <trkpt lat="43.62682" lon="6.37198">
        <ele>666.5</ele>
        <time>2017-02-19T12:45:03Z</time>
      </trkpt>
      <trkpt lat="43.62682" lon="6.37184">
        <ele>666.2</ele>
        <time>2017-02-19T12:45:11Z</time>
      </trkpt>
      <trkpt lat="43.62681" lon="6.37171">
        <ele>665.9</ele>
        <time>2017-02-19T12:45:19Z</time>
      </trkpt>
      <trkpt lat="43.62681" lon="6.37158">
        <ele>666.1</ele>
        <time>2017-02-19T12:45:27Z</time>
      </trkpt>
      <trkpt lat="43.6268" lon="6.37145">
        <ele>666.1</ele>
        <time>2017-02-19T12:45:35Z</time>
      </trkpt>
      <trkpt lat="43.6268" lon="6.3713">
        <ele>666.1</ele>
        <time>2017-02-19T12:45:43Z</time>
      </trkpt>
      <trkpt lat="43.62681" lon="6.37117">
        <ele>665.6</ele>
        <time>2017-02-19T12:45:51Z</time>
      </trkpt>
      <trkpt lat="43.62682" lon="6.37103">
        <ele>665.1</ele>
        <time>2017-02-19T12:45:59Z</time>
      </trkpt>
      <trkpt lat="43.62682" lon="6.3709">
        <ele>664.8</ele>
        <time>2017-02-19T12:46:07Z</time>
      </trkpt>
      <trkpt lat="43.62682" lon="6.37076">
        <ele>664.4</ele>
        <time>2017-02-19T12:46:15Z</time>
      </trkpt>
      <trkpt lat="43.62683" lon="6.37063">
        <ele>663.9</ele>
        <time>2017-02-19T12:46:23Z</time>
      </trkpt>
      <trkpt lat="43.62682" lon="6.3705">
        <ele>663.3</ele>
        <time>2017-02-19T12:46:32Z</time>
      </trkpt>
      <trkpt lat="43.62684" lon="6.37038">
        <ele>662.4</ele>
        <time>2017-02-19T12:46:55Z</time>
      </trkpt>
      <trkpt lat="43.62686" lon="6.37026">
        <ele>662.1</ele>
        <time>2017-02-19T12:47:16Z</time>
      </trkpt>
      <trkpt lat="43.62687" lon="6.37013">
        <ele>661.9</ele>
        <time>2017-02-19T12:47:24Z</time>
      </trkpt>
      <trkpt lat="43.62688" lon="6.37">
        <ele>661.5</ele>
        <time>2017-02-19T12:47:33Z</time>
      </trkpt>
      <trkpt lat="43.6269" lon="6.36987">
        <ele>660.9</ele>
        <time>2017-02-19T12:47:42Z</time>
      </trkpt>
      <trkpt lat="43.62693" lon="6.36974">
        <ele>660.7</ele>
        <time>2017-02-19T12:47:51Z</time>
      </trkpt>
      <trkpt lat="43.62697" lon="6.36961">
        <ele>660.2</ele>
        <time>2017-02-19T12:47:59Z</time>
      </trkpt>
      <trkpt lat="43.62701" lon="6.36949">
        <ele>659.7</ele>
        <time>2017-02-19T12:48:07Z</time>
      </trkpt>
      <trkpt lat="43.62705" lon="6.36937">
        <ele>659.3</ele>
        <time>2017-02-19T12:48:14Z</time>
      </trkpt>
      <trkpt lat="43.62708" lon="6.36925">
        <ele>659.4</ele>
        <time>2017-02-19T12:48:21Z</time>
      </trkpt>
      <trkpt lat="43.62712" lon="6.36912">
        <ele>659.5</ele>
        <time>2017-02-19T12:48:29Z</time>
      </trkpt>
      <trkpt lat="43.62715" lon="6.36899">
        <ele>659.2</ele>
        <time>2017-02-19T12:48:37Z</time>
      </trkpt>
      <trkpt lat="43.62719" lon="6.36887">
        <ele>659.3</ele>
        <time>2017-02-19T12:48:45Z</time>
      </trkpt>
      <trkpt lat="43.62722" lon="6.36874">
        <ele>659.7</ele>
        <time>2017-02-19T12:48:54Z</time>
      </trkpt>
      <trkpt lat="43.62724" lon="6.36862">
        <ele>659.5</ele>
        <time>2017-02-19T12:49:01Z</time>
      </trkpt>
      <trkpt lat="43.62728" lon="6.36848">
        <ele>658.9</ele>
        <time>2017-02-19T12:49:09Z</time>
      </trkpt>
      <trkpt lat="43.62732" lon="6.36837">
        <ele>659.2</ele>
        <time>2017-02-19T12:49:17Z</time>
      </trkpt>
      <trkpt lat="43.62736" lon="6.36825">
        <ele>659.2</ele>
        <time>2017-02-19T12:49:24Z</time>
      </trkpt>
      <trkpt lat="43.6274" lon="6.36812">
        <ele>659.2</ele>
        <time>2017-02-19T12:49:32Z</time>
      </trkpt>
      <trkpt lat="43.62744" lon="6.36799">
        <ele>659.3</ele>
        <time>2017-02-19T12:49:40Z</time>
      </trkpt>
      <trkpt lat="43.62747" lon="6.36787">
        <ele>659.4</ele>
        <time>2017-02-19T12:49:48Z</time>
      </trkpt>
      <trkpt lat="43.62748" lon="6.36774">
        <ele>659.5</ele>
        <time>2017-02-19T12:49:56Z</time>
      </trkpt>
      <trkpt lat="43.6275" lon="6.36761">
        <ele>659.5</ele>
        <time>2017-02-19T12:50:03Z</time>
      </trkpt>
      <trkpt lat="43.62752" lon="6.36748">
        <ele>659.7</ele>
        <time>2017-02-19T12:50:11Z</time>
      </trkpt>
      <trkpt lat="43.62755" lon="6.36736">
        <ele>660.4</ele>
        <time>2017-02-19T12:50:18Z</time>
      </trkpt>
      <trkpt lat="43.6276" lon="6.36725">
        <ele>661.3</ele>
        <time>2017-02-19T12:50:26Z</time>
      </trkpt>
      <trkpt lat="43.62765" lon="6.36713">
        <ele>662</ele>
        <time>2017-02-19T12:50:34Z</time>
      </trkpt>
      <trkpt lat="43.6277" lon="6.36702">
        <ele>662.7</ele>
        <time>2017-02-19T12:50:43Z</time>
      </trkpt>
      <trkpt lat="43.62774" lon="6.3669">
        <ele>663.2</ele>
        <time>2017-02-19T12:50:52Z</time>
      </trkpt>
      <trkpt lat="43.62778" lon="6.36678">
        <ele>664.2</ele>
        <time>2017-02-19T12:51:00Z</time>
      </trkpt>
      <trkpt lat="43.62783" lon="6.36666">
        <ele>665</ele>
        <time>2017-02-19T12:51:08Z</time>
      </trkpt>
      <trkpt lat="43.62788" lon="6.36654">
        <ele>665.5</ele>
        <time>2017-02-19T12:51:17Z</time>
      </trkpt>
      <trkpt lat="43.62792" lon="6.36643">
        <ele>666.2</ele>
        <time>2017-02-19T12:51:25Z</time>
      </trkpt>
      <trkpt lat="43.62798" lon="6.36633">
        <ele>666.7</ele>
        <time>2017-02-19T12:51:33Z</time>
      </trkpt>
      <trkpt lat="43.62805" lon="6.36623">
        <ele>667.6</ele>
        <time>2017-02-19T12:51:42Z</time>
      </trkpt>
      <trkpt lat="43.62808" lon="6.36611">
        <ele>668.2</ele>
        <time>2017-02-19T12:51:50Z</time>
      </trkpt>
      <trkpt lat="43.6281" lon="6.36599">
        <ele>668.9</ele>
        <time>2017-02-19T12:51:58Z</time>
      </trkpt>
      <trkpt lat="43.62812" lon="6.36585">
        <ele>669.6</ele>
        <time>2017-02-19T12:52:06Z</time>
      </trkpt>
      <trkpt lat="43.62812" lon="6.36573">
        <ele>670</ele>
        <time>2017-02-19T12:52:14Z</time>
      </trkpt>
      <trkpt lat="43.62813" lon="6.3656">
        <ele>670.2</ele>
        <time>2017-02-19T12:52:22Z</time>
      </trkpt>
      <trkpt lat="43.62815" lon="6.36547">
        <ele>670.6</ele>
        <time>2017-02-19T12:52:31Z</time>
      </trkpt>
      <trkpt lat="43.62815" lon="6.36534">
        <ele>670.8</ele>
        <time>2017-02-19T12:52:38Z</time>
      </trkpt>
      <trkpt lat="43.62814" lon="6.36521">
        <ele>670.8</ele>
        <time>2017-02-19T12:52:45Z</time>
      </trkpt>
      <trkpt lat="43.62818" lon="6.36508">
        <ele>670.6</ele>
        <time>2017-02-19T12:52:52Z</time>
      </trkpt>
      <trkpt lat="43.62822" lon="6.36496">
        <ele>670.2</ele>
        <time>2017-02-19T12:52:58Z</time>
      </trkpt>
      <trkpt lat="43.62825" lon="6.36484">
        <ele>669.8</ele>
        <time>2017-02-19T12:53:05Z</time>
      </trkpt>
      <trkpt lat="43.62826" lon="6.36472">
        <ele>669.8</ele>
        <time>2017-02-19T12:53:13Z</time>
      </trkpt>
      <trkpt lat="43.62827" lon="6.36459">
        <ele>669.8</ele>
        <time>2017-02-19T12:53:21Z</time>
      </trkpt>
      <trkpt lat="43.62823" lon="6.36447">
        <ele>669.7</ele>
        <time>2017-02-19T12:53:29Z</time>
      </trkpt>
      <trkpt lat="43.62816" lon="6.36437">
        <ele>669.7</ele>
        <time>2017-02-19T12:53:37Z</time>
      </trkpt>
      <trkpt lat="43.62808" lon="6.3643">
        <ele>669.4</ele>
        <time>2017-02-19T12:53:45Z</time>
      </trkpt>
      <trkpt lat="43.62799" lon="6.36429">
        <ele>669.6</ele>
        <time>2017-02-19T12:53:54Z</time>
      </trkpt>
      <trkpt lat="43.6279" lon="6.36424">
        <ele>670.2</ele>
        <time>2017-02-19T12:54:04Z</time>
      </trkpt>
      <trkpt lat="43.62783" lon="6.36415">
        <ele>670.5</ele>
        <time>2017-02-19T12:54:12Z</time>
      </trkpt>
      <trkpt lat="43.62779" lon="6.36402">
        <ele>670.7</ele>
        <time>2017-02-19T12:54:20Z</time>
      </trkpt>
      <trkpt lat="43.62781" lon="6.36389">
        <ele>670.8</ele>
        <time>2017-02-19T12:54:27Z</time>
      </trkpt>
      <trkpt lat="43.62782" lon="6.36377">
        <ele>671.4</ele>
        <time>2017-02-19T12:54:35Z</time>
      </trkpt>
      <trkpt lat="43.62786" lon="6.36365">
        <ele>671.3</ele>
        <time>2017-02-19T12:54:45Z</time>
      </trkpt>
      <trkpt lat="43.62785" lon="6.36352">
        <ele>670.9</ele>
        <time>2017-02-19T12:55:49Z</time>
      </trkpt>
      <trkpt lat="43.62776" lon="6.36349">
        <ele>672.1</ele>
        <time>2017-02-19T12:59:48Z</time>
      </trkpt>
      <trkpt lat="43.62768" lon="6.36341">
        <ele>671</ele>
        <time>2017-02-19T13:00:19Z</time>
      </trkpt>
      <trkpt lat="43.62768" lon="6.36328">
        <ele>671.4</ele>
        <time>2017-02-19T13:00:33Z</time>
      </trkpt>
      <trkpt lat="43.62767" lon="6.36316">
        <ele>670.3</ele>
        <time>2017-02-19T13:01:15Z</time>
      </trkpt>
      <trkpt lat="43.62759" lon="6.3632">
        <ele>670.7</ele>
        <time>2017-02-19T13:03:18Z</time>
      </trkpt>
      <trkpt lat="43.6275" lon="6.36325">
        <ele>669.9</ele>
        <time>2017-02-19T13:03:29Z</time>
      </trkpt>
      <trkpt lat="43.62742" lon="6.3633">
        <ele>669.2</ele>
        <time>2017-02-19T13:03:41Z</time>
      </trkpt>
      <trkpt lat="43.62732" lon="6.36334">
        <ele>668.4</ele>
        <time>2017-02-19T13:03:52Z</time>
      </trkpt>
      <trkpt lat="43.62722" lon="6.36336">
        <ele>668.2</ele>
        <time>2017-02-19T13:03:59Z</time>
      </trkpt>
      <trkpt lat="43.62712" lon="6.36334">
        <ele>667.9</ele>
        <time>2017-02-19T13:04:07Z</time>
      </trkpt>
      <trkpt lat="43.62703" lon="6.3633">
        <ele>667.6</ele>
        <time>2017-02-19T13:04:16Z</time>
      </trkpt>
      <trkpt lat="43.62694" lon="6.36325">
        <ele>666.9</ele>
        <time>2017-02-19T13:04:27Z</time>
      </trkpt>
      <trkpt lat="43.62685" lon="6.36321">
        <ele>666.1</ele>
        <time>2017-02-19T13:04:44Z</time>
      </trkpt>
      <trkpt lat="43.62677" lon="6.36317">
        <ele>665.8</ele>
        <time>2017-02-19T13:04:53Z</time>
      </trkpt>
      <trkpt lat="43.62668" lon="6.36314">
        <ele>664.7</ele>
        <time>2017-02-19T13:05:04Z</time>
      </trkpt>
      <trkpt lat="43.62658" lon="6.36314">
        <ele>664.2</ele>
        <time>2017-02-19T13:05:15Z</time>
      </trkpt>
      <trkpt lat="43.62648" lon="6.36311">
        <ele>663.5</ele>
        <time>2017-02-19T13:05:23Z</time>
      </trkpt>
      <trkpt lat="43.62639" lon="6.36308">
        <ele>663.1</ele>
        <time>2017-02-19T13:05:35Z</time>
      </trkpt>
      <trkpt lat="43.62631" lon="6.36301">
        <ele>662.6</ele>
        <time>2017-02-19T13:05:44Z</time>
      </trkpt>
      <trkpt lat="43.62622" lon="6.36295">
        <ele>661.9</ele>
        <time>2017-02-19T13:05:54Z</time>
      </trkpt>
      <trkpt lat="43.62614" lon="6.36289">
        <ele>661.1</ele>
        <time>2017-02-19T13:06:05Z</time>
      </trkpt>
      <trkpt lat="43.62605" lon="6.36286">
        <ele>660.5</ele>
        <time>2017-02-19T13:06:16Z</time>
      </trkpt>
      <trkpt lat="43.62596" lon="6.36289">
        <ele>659.8</ele>
        <time>2017-02-19T13:06:28Z</time>
      </trkpt>
      <trkpt lat="43.62586" lon="6.36291">
        <ele>659.3</ele>
        <time>2017-02-19T13:06:39Z</time>
      </trkpt>
      <trkpt lat="43.62576" lon="6.36289">
        <ele>657.5</ele>
        <time>2017-02-19T13:06:56Z</time>
      </trkpt>
      <trkpt lat="43.62567" lon="6.36292">
        <ele>657</ele>
        <time>2017-02-19T13:07:05Z</time>
      </trkpt>
      <trkpt lat="43.62557" lon="6.36293">
        <ele>656.3</ele>
        <time>2017-02-19T13:07:19Z</time>
      </trkpt>
      <trkpt lat="43.62548" lon="6.36295">
        <ele>656</ele>
        <time>2017-02-19T13:07:26Z</time>
      </trkpt>
      <trkpt lat="43.62537" lon="6.36297">
        <ele>655.7</ele>
        <time>2017-02-19T13:07:35Z</time>
      </trkpt>
      <trkpt lat="43.62528" lon="6.36299">
        <ele>655.4</ele>
        <time>2017-02-19T13:07:42Z</time>
      </trkpt>
      <trkpt lat="43.62519" lon="6.363">
        <ele>655</ele>
        <time>2017-02-19T13:07:49Z</time>
      </trkpt>
      <trkpt lat="43.62511" lon="6.36295">
        <ele>653.9</ele>
        <time>2017-02-19T13:07:57Z</time>
      </trkpt>
      <trkpt lat="43.62502" lon="6.36292">
        <ele>653.4</ele>
        <time>2017-02-19T13:08:06Z</time>
      </trkpt>
      <trkpt lat="43.62493" lon="6.36286">
        <ele>652.9</ele>
        <time>2017-02-19T13:08:14Z</time>
      </trkpt>
      <trkpt lat="43.62488" lon="6.36277">
        <ele>652.7</ele>
        <time>2017-02-19T13:08:22Z</time>
      </trkpt>
      <trkpt lat="43.62482" lon="6.36266">
        <ele>652</ele>
        <time>2017-02-19T13:08:33Z</time>
      </trkpt>
      <trkpt lat="43.62474" lon="6.36257">
        <ele>651.5</ele>
        <time>2017-02-19T13:08:42Z</time>
      </trkpt>
      <trkpt lat="43.62468" lon="6.36247">
        <ele>650.6</ele>
        <time>2017-02-19T13:08:50Z</time>
      </trkpt>
      <trkpt lat="43.62462" lon="6.36236">
        <ele>649.9</ele>
        <time>2017-02-19T13:08:58Z</time>
      </trkpt>
      <trkpt lat="43.62457" lon="6.36224">
        <ele>649.5</ele>
        <time>2017-02-19T13:09:06Z</time>
      </trkpt>
      <trkpt lat="43.62453" lon="6.36213">
        <ele>649.1</ele>
        <time>2017-02-19T13:09:14Z</time>
      </trkpt>
      <trkpt lat="43.62448" lon="6.36202">
        <ele>649.1</ele>
        <time>2017-02-19T13:09:23Z</time>
      </trkpt>
      <trkpt lat="43.62442" lon="6.36192">
        <ele>649.1</ele>
        <time>2017-02-19T13:09:32Z</time>
      </trkpt>
      <trkpt lat="43.62435" lon="6.36183">
        <ele>648.4</ele>
        <time>2017-02-19T13:09:44Z</time>
      </trkpt>
      <trkpt lat="43.62427" lon="6.36177">
        <ele>648.3</ele>
        <time>2017-02-19T13:09:57Z</time>
      </trkpt>
      <trkpt lat="43.62418" lon="6.36177">
        <ele>648.1</ele>
        <time>2017-02-19T13:10:08Z</time>
      </trkpt>
      <trkpt lat="43.6241" lon="6.36171">
        <ele>648.8</ele>
        <time>2017-02-19T13:11:17Z</time>
      </trkpt>
      <trkpt lat="43.62403" lon="6.36162">
        <ele>649</ele>
        <time>2017-02-19T13:11:38Z</time>
      </trkpt>
      <trkpt lat="43.62395" lon="6.36156">
        <ele>648.8</ele>
        <time>2017-02-19T13:11:49Z</time>
      </trkpt>
      <trkpt lat="43.62386" lon="6.36152">
        <ele>649.2</ele>
        <time>2017-02-19T13:12:00Z</time>
      </trkpt>
      <trkpt lat="43.62377" lon="6.36153">
        <ele>649.5</ele>
        <time>2017-02-19T13:12:24Z</time>
      </trkpt>
      <trkpt lat="43.62368" lon="6.36158">
        <ele>649.9</ele>
        <time>2017-02-19T13:12:35Z</time>
      </trkpt>
      <trkpt lat="43.62361" lon="6.36166">
        <ele>649.8</ele>
        <time>2017-02-19T13:12:44Z</time>
      </trkpt>
      <trkpt lat="43.62356" lon="6.36176">
        <ele>649.8</ele>
        <time>2017-02-19T13:12:53Z</time>
      </trkpt>
      <trkpt lat="43.62351" lon="6.36188">
        <ele>650.2</ele>
        <time>2017-02-19T13:13:03Z</time>
      </trkpt>
      <trkpt lat="43.62346" lon="6.36198">
        <ele>650</ele>
        <time>2017-02-19T13:13:12Z</time>
      </trkpt>
      <trkpt lat="43.6234" lon="6.36208">
        <ele>650.3</ele>
        <time>2017-02-19T13:13:21Z</time>
      </trkpt>
      <trkpt lat="43.62335" lon="6.36219">
        <ele>650.6</ele>
        <time>2017-02-19T13:13:30Z</time>
      </trkpt>
      <trkpt lat="43.62329" lon="6.3623">
        <ele>650.6</ele>
        <time>2017-02-19T13:13:39Z</time>
      </trkpt>
      <trkpt lat="43.62324" lon="6.36241">
        <ele>650.6</ele>
        <time>2017-02-19T13:13:47Z</time>
      </trkpt>
      <trkpt lat="43.6232" lon="6.36253">
        <ele>650.5</ele>
        <time>2017-02-19T13:13:56Z</time>
      </trkpt>
      <trkpt lat="43.62316" lon="6.36265">
        <ele>650.2</ele>
        <time>2017-02-19T13:14:05Z</time>
      </trkpt>
      <trkpt lat="43.62312" lon="6.36277">
        <ele>649.7</ele>
        <time>2017-02-19T13:14:14Z</time>
      </trkpt>
      <trkpt lat="43.62308" lon="6.3629">
        <ele>649.5</ele>
        <time>2017-02-19T13:14:23Z</time>
      </trkpt>
      <trkpt lat="43.62305" lon="6.36303">
        <ele>649.4</ele>
        <time>2017-02-19T13:14:32Z</time>
      </trkpt>
      <trkpt lat="43.62304" lon="6.36316">
        <ele>649.3</ele>
        <time>2017-02-19T13:14:41Z</time>
      </trkpt>
      <trkpt lat="43.62303" lon="6.3633">
        <ele>649.1</ele>
        <time>2017-02-19T13:14:50Z</time>
      </trkpt>
      <trkpt lat="43.62302" lon="6.36342">
        <ele>649.1</ele>
        <time>2017-02-19T13:14:58Z</time>
      </trkpt>
      <trkpt lat="43.62304" lon="6.36356">
        <ele>648.6</ele>
        <time>2017-02-19T13:15:07Z</time>
      </trkpt>
      <trkpt lat="43.62307" lon="6.36369">
        <ele>648.1</ele>
        <time>2017-02-19T13:15:16Z</time>
      </trkpt>
      <trkpt lat="43.62315" lon="6.36376">
        <ele>647.6</ele>
        <time>2017-02-19T13:15:26Z</time>
      </trkpt>
      <trkpt lat="43.62325" lon="6.36375">
        <ele>647</ele>
        <time>2017-02-19T13:15:35Z</time>
      </trkpt>
      <trkpt lat="43.62334" lon="6.36378">
        <ele>645.6</ele>
        <time>2017-02-19T13:15:57Z</time>
      </trkpt>
      <trkpt lat="43.62343" lon="6.36372">
        <ele>646.1</ele>
        <time>2017-02-19T13:16:07Z</time>
      </trkpt>
      <trkpt lat="43.62352" lon="6.36372">
        <ele>646.3</ele>
        <time>2017-02-19T13:16:17Z</time>
      </trkpt>
      <trkpt lat="43.62362" lon="6.36371">
        <ele>646.8</ele>
        <time>2017-02-19T13:16:27Z</time>
      </trkpt>
      <trkpt lat="43.62372" lon="6.36376">
        <ele>647.7</ele>
        <time>2017-02-19T13:16:37Z</time>
      </trkpt>
      <trkpt lat="43.62379" lon="6.36384">
        <ele>648.6</ele>
        <time>2017-02-19T13:16:47Z</time>
      </trkpt>
      <trkpt lat="43.62381" lon="6.36397">
        <ele>649.1</ele>
        <time>2017-02-19T13:16:57Z</time>
      </trkpt>
      <trkpt lat="43.6238" lon="6.3641">
        <ele>649.6</ele>
        <time>2017-02-19T13:17:06Z</time>
      </trkpt>
      <trkpt lat="43.62379" lon="6.36423">
        <ele>650.1</ele>
        <time>2017-02-19T13:17:15Z</time>
      </trkpt>
      <trkpt lat="43.62378" lon="6.36435">
        <ele>650.3</ele>
        <time>2017-02-19T13:17:24Z</time>
      </trkpt>
      <trkpt lat="43.62381" lon="6.36448">
        <ele>650.4</ele>
        <time>2017-02-19T13:17:35Z</time>
      </trkpt>
      <trkpt lat="43.62385" lon="6.36459">
        <ele>649.5</ele>
        <time>2017-02-19T13:18:02Z</time>
      </trkpt>
      <trkpt lat="43.62378" lon="6.36468">
        <ele>649.6</ele>
        <time>2017-02-19T13:18:35Z</time>
      </trkpt>
      <trkpt lat="43.62384" lon="6.36478">
        <ele>648</ele>
        <time>2017-02-19T13:19:02Z</time>
      </trkpt>
      <trkpt lat="43.62394" lon="6.36473">
        <ele>649</ele>
        <time>2017-02-19T13:21:22Z</time>
      </trkpt>
      <trkpt lat="43.62384" lon="6.36473">
        <ele>650.2</ele>
        <time>2017-02-19T13:22:04Z</time>
      </trkpt>
      <trkpt lat="43.6238" lon="6.36459">
        <ele>650.1</ele>
        <time>2017-02-19T13:22:40Z</time>
      </trkpt>
      <trkpt lat="43.62375" lon="6.36449">
        <ele>650.9</ele>
        <time>2017-02-19T13:23:13Z</time>
      </trkpt>
      <trkpt lat="43.62378" lon="6.36436">
        <ele>651</ele>
        <time>2017-02-19T13:23:26Z</time>
      </trkpt>
      <trkpt lat="43.62387" lon="6.36436">
        <ele>650.3</ele>
        <time>2017-02-19T13:24:42Z</time>
      </trkpt>
      <trkpt lat="43.62389" lon="6.36449">
        <ele>650.2</ele>
        <time>2017-02-19T13:24:51Z</time>
      </trkpt>
      <trkpt lat="43.6239" lon="6.36462">
        <ele>650.4</ele>
        <time>2017-02-19T13:25:01Z</time>
      </trkpt>
      <trkpt lat="43.62392" lon="6.36477">
        <ele>650.8</ele>
        <time>2017-02-19T13:25:10Z</time>
      </trkpt>
      <trkpt lat="43.62393" lon="6.36489">
        <ele>650.9</ele>
        <time>2017-02-19T13:25:17Z</time>
      </trkpt>
      <trkpt lat="43.62391" lon="6.36477">
        <ele>651.3</ele>
        <time>2017-02-19T13:26:23Z</time>
      </trkpt>
      <trkpt lat="43.62388" lon="6.36465">
        <ele>651.4</ele>
        <time>2017-02-19T13:26:33Z</time>
      </trkpt>
      <trkpt lat="43.62384" lon="6.36452">
        <ele>651.1</ele>
        <time>2017-02-19T13:26:42Z</time>
      </trkpt>
      <trkpt lat="43.62383" lon="6.3644">
        <ele>650.8</ele>
        <time>2017-02-19T13:26:59Z</time>
      </trkpt>
      <trkpt lat="43.62381" lon="6.36427">
        <ele>650.3</ele>
        <time>2017-02-19T13:28:16Z</time>
      </trkpt>
      <trkpt lat="43.62379" lon="6.36414">
        <ele>650.2</ele>
        <time>2017-02-19T13:28:32Z</time>
      </trkpt>
      <trkpt lat="43.62379" lon="6.36401">
        <ele>650.1</ele>
        <time>2017-02-19T13:28:42Z</time>
      </trkpt>
      <trkpt lat="43.62379" lon="6.36389">
        <ele>649.6</ele>
        <time>2017-02-19T13:28:56Z</time>
      </trkpt>
      <trkpt lat="43.62371" lon="6.36382">
        <ele>648.2</ele>
        <time>2017-02-19T13:29:15Z</time>
      </trkpt>
      <trkpt lat="43.62362" lon="6.36378">
        <ele>647.6</ele>
        <time>2017-02-19T13:29:32Z</time>
      </trkpt>
      <trkpt lat="43.62353" lon="6.36377">
        <ele>647.5</ele>
        <time>2017-02-19T13:29:43Z</time>
      </trkpt>
      <trkpt lat="43.62344" lon="6.36382">
        <ele>646.9</ele>
        <time>2017-02-19T13:29:54Z</time>
      </trkpt>
      <trkpt lat="43.62335" lon="6.36382">
        <ele>646.5</ele>
        <time>2017-02-19T13:30:07Z</time>
      </trkpt>
      <trkpt lat="43.62326" lon="6.36378">
        <ele>646.9</ele>
        <time>2017-02-19T13:30:16Z</time>
      </trkpt>
      <trkpt lat="43.62317" lon="6.36378">
        <ele>647</ele>
        <time>2017-02-19T13:30:25Z</time>
      </trkpt>
      <trkpt lat="43.62308" lon="6.36381">
        <ele>647.1</ele>
        <time>2017-02-19T13:30:35Z</time>
      </trkpt>
      <trkpt lat="43.62299" lon="6.36389">
        <ele>647.3</ele>
        <time>2017-02-19T13:30:45Z</time>
      </trkpt>
      <trkpt lat="43.62293" lon="6.36399">
        <ele>647.8</ele>
        <time>2017-02-19T13:30:54Z</time>
      </trkpt>
      <trkpt lat="43.62286" lon="6.36408">
        <ele>648.1</ele>
        <time>2017-02-19T13:31:03Z</time>
      </trkpt>
      <trkpt lat="43.62279" lon="6.36417">
        <ele>647.9</ele>
        <time>2017-02-19T13:31:12Z</time>
      </trkpt>
      <trkpt lat="43.62271" lon="6.36425">
        <ele>647.8</ele>
        <time>2017-02-19T13:31:21Z</time>
      </trkpt>
      <trkpt lat="43.62263" lon="6.36432">
        <ele>648.1</ele>
        <time>2017-02-19T13:31:31Z</time>
      </trkpt>
      <trkpt lat="43.62256" lon="6.3644">
        <ele>648</ele>
        <time>2017-02-19T13:31:41Z</time>
      </trkpt>
      <trkpt lat="43.62247" lon="6.36446">
        <ele>648.2</ele>
        <time>2017-02-19T13:31:51Z</time>
      </trkpt>
      <trkpt lat="43.62239" lon="6.3645">
        <ele>649.2</ele>
        <time>2017-02-19T13:32:34Z</time>
      </trkpt>
      <trkpt lat="43.62232" lon="6.36458">
        <ele>648.8</ele>
        <time>2017-02-19T13:34:44Z</time>
      </trkpt>
      <trkpt lat="43.62225" lon="6.36467">
        <ele>649.1</ele>
        <time>2017-02-19T13:34:55Z</time>
      </trkpt>
      <trkpt lat="43.62218" lon="6.36476">
        <ele>648.7</ele>
        <time>2017-02-19T13:35:05Z</time>
      </trkpt>
      <trkpt lat="43.62211" lon="6.36485">
        <ele>648.6</ele>
        <time>2017-02-19T13:35:15Z</time>
      </trkpt>
      <trkpt lat="43.62204" lon="6.36495">
        <ele>648.2</ele>
        <time>2017-02-19T13:35:24Z</time>
      </trkpt>
      <trkpt lat="43.62197" lon="6.36504">
        <ele>648.6</ele>
        <time>2017-02-19T13:35:33Z</time>
      </trkpt>
      <trkpt lat="43.62191" lon="6.36513">
        <ele>649.3</ele>
        <time>2017-02-19T13:35:42Z</time>
      </trkpt>
      <trkpt lat="43.62183" lon="6.36522">
        <ele>649.2</ele>
        <time>2017-02-19T13:35:52Z</time>
      </trkpt>
      <trkpt lat="43.62177" lon="6.3653">
        <ele>649.2</ele>
        <time>2017-02-19T13:36:02Z</time>
      </trkpt>
      <trkpt lat="43.62169" lon="6.36539">
        <ele>649.5</ele>
        <time>2017-02-19T13:36:14Z</time>
      </trkpt>
      <trkpt lat="43.62162" lon="6.36547">
        <ele>650</ele>
        <time>2017-02-19T13:36:24Z</time>
      </trkpt>
      <trkpt lat="43.62155" lon="6.36556">
        <ele>650.5</ele>
        <time>2017-02-19T13:36:39Z</time>
      </trkpt>
      <trkpt lat="43.62147" lon="6.36563">
        <ele>651.5</ele>
        <time>2017-02-19T13:36:52Z</time>
      </trkpt>
      <trkpt lat="43.62138" lon="6.36566">
        <ele>652.3</ele>
        <time>2017-02-19T13:37:03Z</time>
      </trkpt>
      <trkpt lat="43.62128" lon="6.36568">
        <ele>652.8</ele>
        <time>2017-02-19T13:37:11Z</time>
      </trkpt>
      <trkpt lat="43.62119" lon="6.36569">
        <ele>653.4</ele>
        <time>2017-02-19T13:37:20Z</time>
      </trkpt>
      <trkpt lat="43.62109" lon="6.36573">
        <ele>653.8</ele>
        <time>2017-02-19T13:37:29Z</time>
      </trkpt>
      <trkpt lat="43.621" lon="6.36576">
        <ele>654.4</ele>
        <time>2017-02-19T13:37:38Z</time>
      </trkpt>
      <trkpt lat="43.62091" lon="6.36577">
        <ele>654.8</ele>
        <time>2017-02-19T13:37:46Z</time>
      </trkpt>
      <trkpt lat="43.62082" lon="6.36578">
        <ele>655.1</ele>
        <time>2017-02-19T13:37:54Z</time>
      </trkpt>
      <trkpt lat="43.62073" lon="6.3658">
        <ele>655.3</ele>
        <time>2017-02-19T13:38:02Z</time>
      </trkpt>
      <trkpt lat="43.62064" lon="6.36585">
        <ele>655</ele>
        <time>2017-02-19T13:38:10Z</time>
      </trkpt>
      <trkpt lat="43.62054" lon="6.36589">
        <ele>655.1</ele>
        <time>2017-02-19T13:38:18Z</time>
      </trkpt>
      <trkpt lat="43.62045" lon="6.36592">
        <ele>655.2</ele>
        <time>2017-02-19T13:38:25Z</time>
      </trkpt>
      <trkpt lat="43.62037" lon="6.36597">
        <ele>655.3</ele>
        <time>2017-02-19T13:38:34Z</time>
      </trkpt>
      <trkpt lat="43.62028" lon="6.366">
        <ele>655.4</ele>
        <time>2017-02-19T13:38:42Z</time>
      </trkpt>
      <trkpt lat="43.62019" lon="6.36607">
        <ele>655.6</ele>
        <time>2017-02-19T13:38:51Z</time>
      </trkpt>
      <trkpt lat="43.62011" lon="6.36615">
        <ele>655.9</ele>
        <time>2017-02-19T13:39:01Z</time>
      </trkpt>
      <trkpt lat="43.62003" lon="6.3662">
        <ele>656.4</ele>
        <time>2017-02-19T13:39:11Z</time>
      </trkpt>
      <trkpt lat="43.61994" lon="6.36626">
        <ele>656.4</ele>
        <time>2017-02-19T13:39:20Z</time>
      </trkpt>
      <trkpt lat="43.61985" lon="6.36631">
        <ele>656.6</ele>
        <time>2017-02-19T13:39:29Z</time>
      </trkpt>
      <trkpt lat="43.61975" lon="6.36636">
        <ele>657.1</ele>
        <time>2017-02-19T13:39:39Z</time>
      </trkpt>
      <trkpt lat="43.61967" lon="6.36641">
        <ele>657.5</ele>
        <time>2017-02-19T13:39:46Z</time>
      </trkpt>
      <trkpt lat="43.61958" lon="6.36644">
        <ele>657.4</ele>
        <time>2017-02-19T13:39:54Z</time>
      </trkpt>
      <trkpt lat="43.61949" lon="6.36648">
        <ele>657.5</ele>
        <time>2017-02-19T13:40:03Z</time>
      </trkpt>
      <trkpt lat="43.6194" lon="6.36653">
        <ele>658</ele>
        <time>2017-02-19T13:40:13Z</time>
      </trkpt>
      <trkpt lat="43.61931" lon="6.36656">
        <ele>657.9</ele>
        <time>2017-02-19T13:40:23Z</time>
      </trkpt>
      <trkpt lat="43.61922" lon="6.36661">
        <ele>657.9</ele>
        <time>2017-02-19T13:40:33Z</time>
      </trkpt>
      <trkpt lat="43.61913" lon="6.36668">
        <ele>659</ele>
        <time>2017-02-19T13:40:44Z</time>
      </trkpt>
      <trkpt lat="43.61905" lon="6.36674">
        <ele>659.2</ele>
        <time>2017-02-19T13:40:52Z</time>
      </trkpt>
      <trkpt lat="43.61897" lon="6.36679">
        <ele>659.6</ele>
        <time>2017-02-19T13:41:03Z</time>
      </trkpt>
      <trkpt lat="43.61888" lon="6.36686">
        <ele>660.1</ele>
        <time>2017-02-19T13:41:12Z</time>
      </trkpt>
      <trkpt lat="43.61879" lon="6.36692">
        <ele>660.5</ele>
        <time>2017-02-19T13:41:20Z</time>
      </trkpt>
      <trkpt lat="43.61872" lon="6.367">
        <ele>660.9</ele>
        <time>2017-02-19T13:41:28Z</time>
      </trkpt>
      <trkpt lat="43.61864" lon="6.36708">
        <ele>661.5</ele>
        <time>2017-02-19T13:41:38Z</time>
      </trkpt>
      <trkpt lat="43.61855" lon="6.36713">
        <ele>661.9</ele>
        <time>2017-02-19T13:41:47Z</time>
      </trkpt>
      <trkpt lat="43.61846" lon="6.36719">
        <ele>662.1</ele>
        <time>2017-02-19T13:41:54Z</time>
      </trkpt>
      <trkpt lat="43.61836" lon="6.36723">
        <ele>662.1</ele>
        <time>2017-02-19T13:42:01Z</time>
      </trkpt>
      <trkpt lat="43.61828" lon="6.36726">
        <ele>661.9</ele>
        <time>2017-02-19T13:42:08Z</time>
      </trkpt>
      <trkpt lat="43.61819" lon="6.36728">
        <ele>662.1</ele>
        <time>2017-02-19T13:42:17Z</time>
      </trkpt>
      <trkpt lat="43.6181" lon="6.36731">
        <ele>662.2</ele>
        <time>2017-02-19T13:42:31Z</time>
      </trkpt>
      <trkpt lat="43.61801" lon="6.36734">
        <ele>662</ele>
        <time>2017-02-19T13:44:27Z</time>
      </trkpt>
      <trkpt lat="43.61792" lon="6.36739">
        <ele>662.2</ele>
        <time>2017-02-19T13:44:39Z</time>
      </trkpt>
      <trkpt lat="43.61784" lon="6.36744">
        <ele>662</ele>
        <time>2017-02-19T13:44:49Z</time>
      </trkpt>
      <trkpt lat="43.61775" lon="6.36748">
        <ele>662</ele>
        <time>2017-02-19T13:44:57Z</time>
      </trkpt>
      <trkpt lat="43.61766" lon="6.3675">
        <ele>661.9</ele>
        <time>2017-02-19T13:45:05Z</time>
      </trkpt>
      <trkpt lat="43.61756" lon="6.3675">
        <ele>662.1</ele>
        <time>2017-02-19T13:45:14Z</time>
      </trkpt>
      <trkpt lat="43.61747" lon="6.36752">
        <ele>662</ele>
        <time>2017-02-19T13:45:23Z</time>
      </trkpt>
      <trkpt lat="43.61737" lon="6.36752">
        <ele>661.9</ele>
        <time>2017-02-19T13:45:31Z</time>
      </trkpt>
      <trkpt lat="43.61728" lon="6.36753">
        <ele>662.2</ele>
        <time>2017-02-19T13:45:40Z</time>
      </trkpt>
      <trkpt lat="43.61718" lon="6.36753">
        <ele>662.4</ele>
        <time>2017-02-19T13:45:50Z</time>
      </trkpt>
      <trkpt lat="43.61709" lon="6.36753">
        <ele>662.4</ele>
        <time>2017-02-19T13:45:58Z</time>
      </trkpt>
      <trkpt lat="43.61699" lon="6.36753">
        <ele>662.2</ele>
        <time>2017-02-19T13:46:07Z</time>
      </trkpt>
      <trkpt lat="43.61689" lon="6.36755">
        <ele>661.9</ele>
        <time>2017-02-19T13:46:16Z</time>
      </trkpt>
      <trkpt lat="43.61679" lon="6.36753">
        <ele>661.7</ele>
        <time>2017-02-19T13:46:26Z</time>
      </trkpt>
      <trkpt lat="43.61669" lon="6.36753">
        <ele>661.5</ele>
        <time>2017-02-19T13:46:35Z</time>
      </trkpt>
      <trkpt lat="43.6166" lon="6.36751">
        <ele>661.2</ele>
        <time>2017-02-19T13:46:44Z</time>
      </trkpt>
      <trkpt lat="43.6165" lon="6.36751">
        <ele>661</ele>
        <time>2017-02-19T13:46:53Z</time>
      </trkpt>
      <trkpt lat="43.6164" lon="6.36752">
        <ele>661</ele>
        <time>2017-02-19T13:47:01Z</time>
      </trkpt>
      <trkpt lat="43.6163" lon="6.36753">
        <ele>661</ele>
        <time>2017-02-19T13:47:09Z</time>
      </trkpt>
      <trkpt lat="43.61621" lon="6.36756">
        <ele>660.9</ele>
        <time>2017-02-19T13:47:19Z</time>
      </trkpt>
      <trkpt lat="43.61612" lon="6.36758">
        <ele>660.9</ele>
        <time>2017-02-19T13:47:27Z</time>
      </trkpt>
      <trkpt lat="43.61602" lon="6.36758">
        <ele>660.9</ele>
        <time>2017-02-19T13:47:35Z</time>
      </trkpt>
      <trkpt lat="43.61592" lon="6.36757">
        <ele>661.1</ele>
        <time>2017-02-19T13:47:44Z</time>
      </trkpt>
      <trkpt lat="43.61583" lon="6.36755">
        <ele>661</ele>
        <time>2017-02-19T13:47:52Z</time>
      </trkpt>
      <trkpt lat="43.61574" lon="6.36755">
        <ele>660.8</ele>
        <time>2017-02-19T13:48:00Z</time>
      </trkpt>
      <trkpt lat="43.61564" lon="6.36755">
        <ele>660.2</ele>
        <time>2017-02-19T13:48:08Z</time>
      </trkpt>
      <trkpt lat="43.61555" lon="6.3675">
        <ele>659.9</ele>
        <time>2017-02-19T13:48:16Z</time>
      </trkpt>
      <trkpt lat="43.61547" lon="6.36744">
        <ele>659.7</ele>
        <time>2017-02-19T13:48:24Z</time>
      </trkpt>
      <trkpt lat="43.61538" lon="6.36737">
        <ele>659.4</ele>
        <time>2017-02-19T13:48:32Z</time>
      </trkpt>
      <trkpt lat="43.61529" lon="6.36734">
        <ele>658.9</ele>
        <time>2017-02-19T13:48:40Z</time>
      </trkpt>
      <trkpt lat="43.61519" lon="6.36731">
        <ele>658.6</ele>
        <time>2017-02-19T13:48:48Z</time>
      </trkpt>
      <trkpt lat="43.6151" lon="6.36729">
        <ele>657.9</ele>
        <time>2017-02-19T13:48:57Z</time>
      </trkpt>
      <trkpt lat="43.61501" lon="6.36727">
        <ele>657.5</ele>
        <time>2017-02-19T13:49:06Z</time>
      </trkpt>
      <trkpt lat="43.61491" lon="6.36723">
        <ele>657.1</ele>
        <time>2017-02-19T13:49:15Z</time>
      </trkpt>
      <trkpt lat="43.61482" lon="6.36717">
        <ele>656.7</ele>
        <time>2017-02-19T13:49:23Z</time>
      </trkpt>
      <trkpt lat="43.61472" lon="6.36713">
        <ele>656.2</ele>
        <time>2017-02-19T13:49:31Z</time>
      </trkpt>
      <trkpt lat="43.61464" lon="6.36706">
        <ele>655.3</ele>
        <time>2017-02-19T13:49:40Z</time>
      </trkpt>
      <trkpt lat="43.61456" lon="6.367">
        <ele>654.4</ele>
        <time>2017-02-19T13:49:49Z</time>
      </trkpt>
      <trkpt lat="43.61446" lon="6.36701">
        <ele>652.8</ele>
        <time>2017-02-19T13:49:59Z</time>
      </trkpt>
      <trkpt lat="43.61438" lon="6.36709">
        <ele>651.3</ele>
        <time>2017-02-19T13:50:10Z</time>
      </trkpt>
      <trkpt lat="43.61429" lon="6.36714">
        <ele>649.6</ele>
        <time>2017-02-19T13:50:21Z</time>
      </trkpt>
      <trkpt lat="43.61422" lon="6.36706">
        <ele>648.2</ele>
        <time>2017-02-19T13:50:33Z</time>
      </trkpt>
      <trkpt lat="43.61415" lon="6.36697">
        <ele>647.1</ele>
        <time>2017-02-19T13:50:43Z</time>
      </trkpt>
      <trkpt lat="43.6141" lon="6.36686">
        <ele>644.6</ele>
        <time>2017-02-19T13:53:50Z</time>
      </trkpt>
      <trkpt lat="43.61401" lon="6.36684">
        <ele>644.4</ele>
        <time>2017-02-19T13:54:01Z</time>
      </trkpt>
      <trkpt lat="43.61392" lon="6.36688">
        <ele>644.5</ele>
        <time>2017-02-19T13:54:11Z</time>
      </trkpt>
      <trkpt lat="43.61383" lon="6.36684">
        <ele>644.5</ele>
        <time>2017-02-19T13:54:21Z</time>
      </trkpt>
      <trkpt lat="43.61374" lon="6.3668">
        <ele>644.4</ele>
        <time>2017-02-19T13:54:30Z</time>
      </trkpt>
      <trkpt lat="43.61366" lon="6.36675">
        <ele>643.6</ele>
        <time>2017-02-19T13:54:39Z</time>
      </trkpt>
      <trkpt lat="43.61358" lon="6.36667">
        <ele>642.8</ele>
        <time>2017-02-19T13:54:47Z</time>
      </trkpt>
      <trkpt lat="43.61351" lon="6.36659">
        <ele>641.6</ele>
        <time>2017-02-19T13:54:56Z</time>
      </trkpt>
      <trkpt lat="43.61343" lon="6.36653">
        <ele>640.1</ele>
        <time>2017-02-19T13:55:05Z</time>
      </trkpt>
      <trkpt lat="43.61336" lon="6.36645">
        <ele>638.2</ele>
        <time>2017-02-19T13:55:18Z</time>
      </trkpt>
      <trkpt lat="43.61329" lon="6.36637">
        <ele>636.6</ele>
        <time>2017-02-19T13:55:34Z</time>
      </trkpt>
      <trkpt lat="43.6132" lon="6.36635">
        <ele>635.5</ele>
        <time>2017-02-19T13:55:49Z</time>
      </trkpt>
      <trkpt lat="43.61311" lon="6.3664">
        <ele>633.7</ele>
        <time>2017-02-19T13:56:02Z</time>
      </trkpt>
      <trkpt lat="43.61306" lon="6.3665">
        <ele>631.2</ele>
        <time>2017-02-19T13:56:19Z</time>
      </trkpt>
      <trkpt lat="43.61306" lon="6.36663">
        <ele>629.6</ele>
        <time>2017-02-19T13:56:33Z</time>
      </trkpt>
      <trkpt lat="43.61307" lon="6.36675">
        <ele>628.4</ele>
        <time>2017-02-19T13:56:44Z</time>
      </trkpt>
      <trkpt lat="43.61303" lon="6.36687">
        <ele>627.6</ele>
        <time>2017-02-19T13:56:54Z</time>
      </trkpt>
      <trkpt lat="43.61295" lon="6.36693">
        <ele>626.8</ele>
        <time>2017-02-19T13:57:05Z</time>
      </trkpt>
      <trkpt lat="43.61286" lon="6.36689">
        <ele>625.2</ele>
        <time>2017-02-19T13:57:19Z</time>
      </trkpt>
      <trkpt lat="43.61277" lon="6.36688">
        <ele>624</ele>
        <time>2017-02-19T13:57:32Z</time>
      </trkpt>
      <trkpt lat="43.61269" lon="6.36696">
        <ele>622.9</ele>
        <time>2017-02-19T13:57:44Z</time>
      </trkpt>
      <trkpt lat="43.61263" lon="6.36705">
        <ele>621.6</ele>
        <time>2017-02-19T13:57:58Z</time>
      </trkpt>
      <trkpt lat="43.61256" lon="6.36712">
        <ele>620.6</ele>
        <time>2017-02-19T13:58:16Z</time>
      </trkpt>
      <trkpt lat="43.61247" lon="6.36715">
        <ele>619.6</ele>
        <time>2017-02-19T13:58:29Z</time>
      </trkpt>
      <trkpt lat="43.61238" lon="6.36716">
        <ele>618.8</ele>
        <time>2017-02-19T13:58:43Z</time>
      </trkpt>
      <trkpt lat="43.61229" lon="6.3672">
        <ele>618.1</ele>
        <time>2017-02-19T13:58:54Z</time>
      </trkpt>
      <trkpt lat="43.61219" lon="6.36724">
        <ele>617.9</ele>
        <time>2017-02-19T13:59:04Z</time>
      </trkpt>
      <trkpt lat="43.61211" lon="6.36728">
        <ele>617.4</ele>
        <time>2017-02-19T13:59:14Z</time>
      </trkpt>
      <trkpt lat="43.61202" lon="6.36734">
        <ele>616.8</ele>
        <time>2017-02-19T13:59:23Z</time>
      </trkpt>
      <trkpt lat="43.61194" lon="6.36742">
        <ele>616.1</ele>
        <time>2017-02-19T13:59:32Z</time>
      </trkpt>
      <trkpt lat="43.61187" lon="6.3675">
        <ele>615.7</ele>
        <time>2017-02-19T13:59:40Z</time>
      </trkpt>
      <trkpt lat="43.6118" lon="6.36759">
        <ele>615.2</ele>
        <time>2017-02-19T13:59:49Z</time>
      </trkpt>
      <trkpt lat="43.61175" lon="6.3677">
        <ele>614.5</ele>
        <time>2017-02-19T13:59:58Z</time>
      </trkpt>
      <trkpt lat="43.61171" lon="6.36782">
        <ele>613.6</ele>
        <time>2017-02-19T14:00:08Z</time>
      </trkpt>
      <trkpt lat="43.61167" lon="6.36793">
        <ele>613</ele>
        <time>2017-02-19T14:00:17Z</time>
      </trkpt>
      <trkpt lat="43.61164" lon="6.36805">
        <ele>612.4</ele>
        <time>2017-02-19T14:00:26Z</time>
      </trkpt>
      <trkpt lat="43.61161" lon="6.36818">
        <ele>612</ele>
        <time>2017-02-19T14:00:35Z</time>
      </trkpt>
      <trkpt lat="43.6116" lon="6.36831">
        <ele>611.5</ele>
        <time>2017-02-19T14:00:44Z</time>
      </trkpt>
      <trkpt lat="43.6116" lon="6.36845">
        <ele>610.5</ele>
        <time>2017-02-19T14:00:53Z</time>
      </trkpt>
      <trkpt lat="43.6116" lon="6.36858">
        <ele>609.9</ele>
        <time>2017-02-19T14:01:02Z</time>
      </trkpt>
      <trkpt lat="43.61159" lon="6.36871">
        <ele>609.4</ele>
        <time>2017-02-19T14:01:12Z</time>
      </trkpt>
      <trkpt lat="43.61157" lon="6.36884">
        <ele>608.6</ele>
        <time>2017-02-19T14:01:22Z</time>
      </trkpt>
      <trkpt lat="43.61158" lon="6.36897">
        <ele>608.2</ele>
        <time>2017-02-19T14:01:33Z</time>
      </trkpt>
      <trkpt lat="43.61155" lon="6.3691">
        <ele>608</ele>
        <time>2017-02-19T14:01:44Z</time>
      </trkpt>
      <trkpt lat="43.6115" lon="6.36921">
        <ele>608</ele>
        <time>2017-02-19T14:01:53Z</time>
      </trkpt>
      <trkpt lat="43.61144" lon="6.36931">
        <ele>607.9</ele>
        <time>2017-02-19T14:02:02Z</time>
      </trkpt>
      <trkpt lat="43.61137" lon="6.36939">
        <ele>607.7</ele>
        <time>2017-02-19T14:02:12Z</time>
      </trkpt>
      <trkpt lat="43.61131" lon="6.36948">
        <ele>606.9</ele>
        <time>2017-02-19T14:02:26Z</time>
      </trkpt>
      <trkpt lat="43.61125" lon="6.36959">
        <ele>605.7</ele>
        <time>2017-02-19T14:02:40Z</time>
      </trkpt>
      <trkpt lat="43.61118" lon="6.36967">
        <ele>605.3</ele>
        <time>2017-02-19T14:02:51Z</time>
      </trkpt>
      <trkpt lat="43.6111" lon="6.36974">
        <ele>604.9</ele>
        <time>2017-02-19T14:03:03Z</time>
      </trkpt>
      <trkpt lat="43.61103" lon="6.36983">
        <ele>604.4</ele>
        <time>2017-02-19T14:03:12Z</time>
      </trkpt>
      <trkpt lat="43.61096" lon="6.3699">
        <ele>603.6</ele>
        <time>2017-02-19T14:03:25Z</time>
      </trkpt>
      <trkpt lat="43.61089" lon="6.36999">
        <ele>604.8</ele>
        <time>2017-02-19T14:04:02Z</time>
      </trkpt>
      <trkpt lat="43.61081" lon="6.37006">
        <ele>604.5</ele>
        <time>2017-02-19T14:04:14Z</time>
      </trkpt>
      <trkpt lat="43.61073" lon="6.37014">
        <ele>604.6</ele>
        <time>2017-02-19T14:04:28Z</time>
      </trkpt>
      <trkpt lat="43.61066" lon="6.37022">
        <ele>605.7</ele>
        <time>2017-02-19T14:04:44Z</time>
      </trkpt>
      <trkpt lat="43.61057" lon="6.37025">
        <ele>607.6</ele>
        <time>2017-02-19T14:04:59Z</time>
      </trkpt>
      <trkpt lat="43.61051" lon="6.37035">
        <ele>609.2</ele>
        <time>2017-02-19T14:05:13Z</time>
      </trkpt>
      <trkpt lat="43.61043" lon="6.37043">
        <ele>611.8</ele>
        <time>2017-02-19T14:05:30Z</time>
      </trkpt>
      <trkpt lat="43.61034" lon="6.37047">
        <ele>614.1</ele>
        <time>2017-02-19T14:05:46Z</time>
      </trkpt>
      <trkpt lat="43.61025" lon="6.37047">
        <ele>617.3</ele>
        <time>2017-02-19T14:06:05Z</time>
      </trkpt>
      <trkpt lat="43.61016" lon="6.37044">
        <ele>620.7</ele>
        <time>2017-02-19T14:06:30Z</time>
      </trkpt>
      <trkpt lat="43.61007" lon="6.37044">
        <ele>622.3</ele>
        <time>2017-02-19T14:06:51Z</time>
      </trkpt>
      <trkpt lat="43.60998" lon="6.37041">
        <ele>625.4</ele>
        <time>2017-02-19T14:07:15Z</time>
      </trkpt>
      <trkpt lat="43.60991" lon="6.37049">
        <ele>629.4</ele>
        <time>2017-02-19T14:07:44Z</time>
      </trkpt>
      <trkpt lat="43.60982" lon="6.37055">
        <ele>633.1</ele>
        <time>2017-02-19T14:08:10Z</time>
      </trkpt>
      <trkpt lat="43.60975" lon="6.37064">
        <ele>635.3</ele>
        <time>2017-02-19T14:08:28Z</time>
      </trkpt>
      <trkpt lat="43.6097" lon="6.37075">
        <ele>637.4</ele>
        <time>2017-02-19T14:08:45Z</time>
      </trkpt>
      <trkpt lat="43.60962" lon="6.37082">
        <ele>639.8</ele>
        <time>2017-02-19T14:09:03Z</time>
      </trkpt>
      <trkpt lat="43.60955" lon="6.37089">
        <ele>641.8</ele>
        <time>2017-02-19T14:09:20Z</time>
      </trkpt>
      <trkpt lat="43.60948" lon="6.37098">
        <ele>643.4</ele>
        <time>2017-02-19T14:09:36Z</time>
      </trkpt>
      <trkpt lat="43.60941" lon="6.37105">
        <ele>645.2</ele>
        <time>2017-02-19T14:09:51Z</time>
      </trkpt>
      <trkpt lat="43.60932" lon="6.37111">
        <ele>646.7</ele>
        <time>2017-02-19T14:10:07Z</time>
      </trkpt>
      <trkpt lat="43.60928" lon="6.37123">
        <ele>648.3</ele>
        <time>2017-02-19T14:10:23Z</time>
      </trkpt>
      <trkpt lat="43.60921" lon="6.37131">
        <ele>649.4</ele>
        <time>2017-02-19T14:10:35Z</time>
      </trkpt>
      <trkpt lat="43.60914" lon="6.3714">
        <ele>650.9</ele>
        <time>2017-02-19T14:10:47Z</time>
      </trkpt>
      <trkpt lat="43.60906" lon="6.37145">
        <ele>651.9</ele>
        <time>2017-02-19T14:10:58Z</time>
      </trkpt>
      <trkpt lat="43.60897" lon="6.3715">
        <ele>653.2</ele>
        <time>2017-02-19T14:11:09Z</time>
      </trkpt>
      <trkpt lat="43.6089" lon="6.3716">
        <ele>654.5</ele>
        <time>2017-02-19T14:11:22Z</time>
      </trkpt>
      <trkpt lat="43.60882" lon="6.37166">
        <ele>655.5</ele>
        <time>2017-02-19T14:11:34Z</time>
      </trkpt>
      <trkpt lat="43.60874" lon="6.37173">
        <ele>656.5</ele>
        <time>2017-02-19T14:11:46Z</time>
      </trkpt>
      <trkpt lat="43.60866" lon="6.3718">
        <ele>653.8</ele>
        <time>2017-02-19T14:17:06Z</time>
      </trkpt>
      <trkpt lat="43.6086" lon="6.37189">
        <ele>653.6</ele>
        <time>2017-02-19T14:17:18Z</time>
      </trkpt>
      <trkpt lat="43.60853" lon="6.37197">
        <ele>653.4</ele>
        <time>2017-02-19T14:17:28Z</time>
      </trkpt>
      <trkpt lat="43.60846" lon="6.37205">
        <ele>653.6</ele>
        <time>2017-02-19T14:17:37Z</time>
      </trkpt>
      <trkpt lat="43.6084" lon="6.37215">
        <ele>653.8</ele>
        <time>2017-02-19T14:17:47Z</time>
      </trkpt>
      <trkpt lat="43.60834" lon="6.37225">
        <ele>654.2</ele>
        <time>2017-02-19T14:17:58Z</time>
      </trkpt>
      <trkpt lat="43.60828" lon="6.37234">
        <ele>654.4</ele>
        <time>2017-02-19T14:18:09Z</time>
      </trkpt>
      <trkpt lat="43.60821" lon="6.37243">
        <ele>654.6</ele>
        <time>2017-02-19T14:18:19Z</time>
      </trkpt>
      <trkpt lat="43.60815" lon="6.37253">
        <ele>654.9</ele>
        <time>2017-02-19T14:18:29Z</time>
      </trkpt>
      <trkpt lat="43.60811" lon="6.37264">
        <ele>655.1</ele>
        <time>2017-02-19T14:18:39Z</time>
      </trkpt>
      <trkpt lat="43.60806" lon="6.37275">
        <ele>655.2</ele>
        <time>2017-02-19T14:18:50Z</time>
      </trkpt>
      <trkpt lat="43.60801" lon="6.37286">
        <ele>655.3</ele>
        <time>2017-02-19T14:19:03Z</time>
      </trkpt>
      <trkpt lat="43.60794" lon="6.37295">
        <ele>655</ele>
        <time>2017-02-19T14:19:16Z</time>
      </trkpt>
      <trkpt lat="43.60788" lon="6.37305">
        <ele>654.6</ele>
        <time>2017-02-19T14:19:29Z</time>
      </trkpt>
      <trkpt lat="43.60782" lon="6.37315">
        <ele>654.3</ele>
        <time>2017-02-19T14:19:39Z</time>
      </trkpt>
      <trkpt lat="43.60775" lon="6.37324">
        <ele>653.9</ele>
        <time>2017-02-19T14:19:48Z</time>
      </trkpt>
      <trkpt lat="43.60769" lon="6.37333">
        <ele>653.6</ele>
        <time>2017-02-19T14:19:58Z</time>
      </trkpt>
      <trkpt lat="43.60761" lon="6.37342">
        <ele>653.3</ele>
        <time>2017-02-19T14:20:08Z</time>
      </trkpt>
      <trkpt lat="43.60755" lon="6.3735">
        <ele>653.1</ele>
        <time>2017-02-19T14:20:16Z</time>
      </trkpt>
      <trkpt lat="43.60747" lon="6.37357">
        <ele>652.9</ele>
        <time>2017-02-19T14:20:24Z</time>
      </trkpt>
      <trkpt lat="43.6074" lon="6.37366">
        <ele>652.8</ele>
        <time>2017-02-19T14:20:32Z</time>
      </trkpt>
      <trkpt lat="43.60733" lon="6.37375">
        <ele>652.6</ele>
        <time>2017-02-19T14:20:40Z</time>
      </trkpt>
      <trkpt lat="43.60728" lon="6.37385">
        <ele>652.2</ele>
        <time>2017-02-19T14:20:49Z</time>
      </trkpt>
      <trkpt lat="43.60724" lon="6.37397">
        <ele>651.3</ele>
        <time>2017-02-19T14:21:00Z</time>
      </trkpt>
      <trkpt lat="43.60719" lon="6.37408">
        <ele>650.7</ele>
        <time>2017-02-19T14:21:08Z</time>
      </trkpt>
      <trkpt lat="43.60715" lon="6.3742">
        <ele>650.1</ele>
        <time>2017-02-19T14:21:17Z</time>
      </trkpt>
      <trkpt lat="43.60711" lon="6.37432">
        <ele>649.6</ele>
        <time>2017-02-19T14:21:26Z</time>
      </trkpt>
      <trkpt lat="43.60708" lon="6.37445">
        <ele>649</ele>
        <time>2017-02-19T14:21:35Z</time>
      </trkpt>
      <trkpt lat="43.60705" lon="6.37458">
        <ele>649</ele>
        <time>2017-02-19T14:21:44Z</time>
      </trkpt>
      <trkpt lat="43.60703" lon="6.37471">
        <ele>649</ele>
        <time>2017-02-19T14:21:54Z</time>
      </trkpt>
      <trkpt lat="43.60702" lon="6.37484">
        <ele>649.3</ele>
        <time>2017-02-19T14:22:04Z</time>
      </trkpt>
      <trkpt lat="43.60701" lon="6.37496">
        <ele>649.5</ele>
        <time>2017-02-19T14:22:14Z</time>
      </trkpt>
      <trkpt lat="43.60697" lon="6.3751">
        <ele>649.7</ele>
        <time>2017-02-19T14:22:24Z</time>
      </trkpt>
      <trkpt lat="43.60696" lon="6.37522">
        <ele>650</ele>
        <time>2017-02-19T14:22:33Z</time>
      </trkpt>
      <trkpt lat="43.60694" lon="6.37535">
        <ele>650.3</ele>
        <time>2017-02-19T14:22:44Z</time>
      </trkpt>
      <trkpt lat="43.60694" lon="6.37548">
        <ele>650.4</ele>
        <time>2017-02-19T14:22:54Z</time>
      </trkpt>
      <trkpt lat="43.60695" lon="6.37561">
        <ele>650.2</ele>
        <time>2017-02-19T14:23:05Z</time>
      </trkpt>
      <trkpt lat="43.60693" lon="6.37574">
        <ele>649.5</ele>
        <time>2017-02-19T14:23:23Z</time>
      </trkpt>
      <trkpt lat="43.60695" lon="6.37587">
        <ele>649.2</ele>
        <time>2017-02-19T14:23:34Z</time>
      </trkpt>
      <trkpt lat="43.60696" lon="6.376">
        <ele>648.8</ele>
        <time>2017-02-19T14:23:43Z</time>
      </trkpt>
      <trkpt lat="43.60698" lon="6.37613">
        <ele>648.4</ele>
        <time>2017-02-19T14:23:52Z</time>
      </trkpt>
      <trkpt lat="43.60698" lon="6.37627">
        <ele>647.9</ele>
        <time>2017-02-19T14:24:00Z</time>
      </trkpt>
      <trkpt lat="43.607" lon="6.37639">
        <ele>647.5</ele>
        <time>2017-02-19T14:24:08Z</time>
      </trkpt>
      <trkpt lat="43.60701" lon="6.37653">
        <ele>647</ele>
        <time>2017-02-19T14:24:17Z</time>
      </trkpt>
      <trkpt lat="43.60703" lon="6.37667">
        <ele>646.3</ele>
        <time>2017-02-19T14:24:26Z</time>
      </trkpt>
      <trkpt lat="43.60705" lon="6.3768">
        <ele>645.4</ele>
        <time>2017-02-19T14:24:35Z</time>
      </trkpt>
      <trkpt lat="43.60708" lon="6.37692">
        <ele>644.8</ele>
        <time>2017-02-19T14:24:44Z</time>
      </trkpt>
      <trkpt lat="43.6071" lon="6.37704">
        <ele>644.3</ele>
        <time>2017-02-19T14:24:52Z</time>
      </trkpt>
      <trkpt lat="43.60711" lon="6.37717">
        <ele>643.9</ele>
        <time>2017-02-19T14:25:00Z</time>
      </trkpt>
      <trkpt lat="43.60712" lon="6.3773">
        <ele>643.4</ele>
        <time>2017-02-19T14:25:08Z</time>
      </trkpt>
      <trkpt lat="43.60714" lon="6.37742">
        <ele>642.9</ele>
        <time>2017-02-19T14:25:16Z</time>
      </trkpt>
      <trkpt lat="43.60715" lon="6.37756">
        <ele>642.7</ele>
        <time>2017-02-19T14:25:25Z</time>
      </trkpt>
      <trkpt lat="43.60716" lon="6.37768">
        <ele>642.7</ele>
        <time>2017-02-19T14:25:33Z</time>
      </trkpt>
      <trkpt lat="43.60719" lon="6.3778">
        <ele>642.8</ele>
        <time>2017-02-19T14:25:41Z</time>
      </trkpt>
      <trkpt lat="43.60721" lon="6.37793">
        <ele>642.6</ele>
        <time>2017-02-19T14:25:50Z</time>
      </trkpt>
      <trkpt lat="43.60724" lon="6.37806">
        <ele>642.7</ele>
        <time>2017-02-19T14:25:59Z</time>
      </trkpt>
      <trkpt lat="43.60725" lon="6.37818">
        <ele>642.8</ele>
        <time>2017-02-19T14:26:08Z</time>
      </trkpt>
      <trkpt lat="43.60726" lon="6.37831">
        <ele>643</ele>
        <time>2017-02-19T14:26:16Z</time>
      </trkpt>
      <trkpt lat="43.60727" lon="6.37843">
        <ele>643.3</ele>
        <time>2017-02-19T14:26:24Z</time>
      </trkpt>
      <trkpt lat="43.60728" lon="6.37857">
        <ele>643.9</ele>
        <time>2017-02-19T14:26:33Z</time>
      </trkpt>
      <trkpt lat="43.60728" lon="6.3787">
        <ele>644.4</ele>
        <time>2017-02-19T14:26:42Z</time>
      </trkpt>
      <trkpt lat="43.60727" lon="6.37883">
        <ele>644.6</ele>
        <time>2017-02-19T14:26:50Z</time>
      </trkpt>
      <trkpt lat="43.60727" lon="6.37895">
        <ele>644.7</ele>
        <time>2017-02-19T14:27:05Z</time>
      </trkpt>
      <trkpt lat="43.60727" lon="6.37909">
        <ele>644.7</ele>
        <time>2017-02-19T14:27:15Z</time>
      </trkpt>
      <trkpt lat="43.6073" lon="6.37921">
        <ele>644.6</ele>
        <time>2017-02-19T14:27:24Z</time>
      </trkpt>
      <trkpt lat="43.60732" lon="6.37935">
        <ele>644.4</ele>
        <time>2017-02-19T14:27:34Z</time>
      </trkpt>
      <trkpt lat="43.60733" lon="6.37948">
        <ele>644.1</ele>
        <time>2017-02-19T14:27:43Z</time>
      </trkpt>
      <trkpt lat="43.60734" lon="6.37961">
        <ele>643.6</ele>
        <time>2017-02-19T14:27:52Z</time>
      </trkpt>
      <trkpt lat="43.60736" lon="6.37973">
        <ele>643.1</ele>
        <time>2017-02-19T14:28:01Z</time>
      </trkpt>
      <trkpt lat="43.60738" lon="6.37985">
        <ele>642.5</ele>
        <time>2017-02-19T14:28:10Z</time>
      </trkpt>
      <trkpt lat="43.60742" lon="6.37997">
        <ele>642.1</ele>
        <time>2017-02-19T14:28:19Z</time>
      </trkpt>
      <trkpt lat="43.60746" lon="6.38008">
        <ele>641.4</ele>
        <time>2017-02-19T14:28:28Z</time>
      </trkpt>
      <trkpt lat="43.6075" lon="6.3802">
        <ele>640.7</ele>
        <time>2017-02-19T14:28:38Z</time>
      </trkpt>
      <trkpt lat="43.60754" lon="6.38031">
        <ele>639.1</ele>
        <time>2017-02-19T14:29:03Z</time>
      </trkpt>
      <trkpt lat="43.6076" lon="6.38041">
        <ele>638.1</ele>
        <time>2017-02-19T14:29:30Z</time>
      </trkpt>
      <trkpt lat="43.60766" lon="6.38051">
        <ele>637.6</ele>
        <time>2017-02-19T14:29:39Z</time>
      </trkpt>
      <trkpt lat="43.60772" lon="6.38062">
        <ele>637</ele>
        <time>2017-02-19T14:29:48Z</time>
      </trkpt>
      <trkpt lat="43.60779" lon="6.38071">
        <ele>636.4</ele>
        <time>2017-02-19T14:29:57Z</time>
      </trkpt>
      <trkpt lat="43.60785" lon="6.38079">
        <ele>635.9</ele>
        <time>2017-02-19T14:30:06Z</time>
      </trkpt>
      <trkpt lat="43.60794" lon="6.38077">
        <ele>635.2</ele>
        <time>2017-02-19T14:30:17Z</time>
      </trkpt>
      <trkpt lat="43.60804" lon="6.38076">
        <ele>634.7</ele>
        <time>2017-02-19T14:30:27Z</time>
      </trkpt>
      <trkpt lat="43.60813" lon="6.38073">
        <ele>634.4</ele>
        <time>2017-02-19T14:30:36Z</time>
      </trkpt>
      <trkpt lat="43.60821" lon="6.38068">
        <ele>634.4</ele>
        <time>2017-02-19T14:30:46Z</time>
      </trkpt>
      <trkpt lat="43.60826" lon="6.38056">
        <ele>634.7</ele>
        <time>2017-02-19T14:30:56Z</time>
      </trkpt>
      <trkpt lat="43.60831" lon="6.38045">
        <ele>635.3</ele>
        <time>2017-02-19T14:31:07Z</time>
      </trkpt>
      <trkpt lat="43.60832" lon="6.38032">
        <ele>635.6</ele>
        <time>2017-02-19T14:31:18Z</time>
      </trkpt>
      <trkpt lat="43.60837" lon="6.38021">
        <ele>636.1</ele>
        <time>2017-02-19T14:31:31Z</time>
      </trkpt>
      <trkpt lat="43.60846" lon="6.38019">
        <ele>636</ele>
        <time>2017-02-19T14:31:42Z</time>
      </trkpt>
      <trkpt lat="43.60854" lon="6.38013">
        <ele>636.1</ele>
        <time>2017-02-19T14:31:53Z</time>
      </trkpt>
      <trkpt lat="43.60863" lon="6.38008">
        <ele>636.1</ele>
        <time>2017-02-19T14:32:02Z</time>
      </trkpt>
      <trkpt lat="43.60872" lon="6.38011">
        <ele>636.1</ele>
        <time>2017-02-19T14:32:12Z</time>
      </trkpt>
      <trkpt lat="43.60881" lon="6.38015">
        <ele>635.9</ele>
        <time>2017-02-19T14:32:23Z</time>
      </trkpt>
      <trkpt lat="43.6089" lon="6.38016">
        <ele>635.6</ele>
        <time>2017-02-19T14:32:38Z</time>
      </trkpt>
      <trkpt lat="43.60898" lon="6.38023">
        <ele>635.5</ele>
        <time>2017-02-19T14:33:00Z</time>
      </trkpt>
      <trkpt lat="43.60907" lon="6.38023">
        <ele>635.3</ele>
        <time>2017-02-19T14:33:19Z</time>
      </trkpt>
      <trkpt lat="43.60916" lon="6.3802">
        <ele>635.1</ele>
        <time>2017-02-19T14:33:33Z</time>
      </trkpt>
      <trkpt lat="43.60925" lon="6.38023">
        <ele>634.7</ele>
        <time>2017-02-19T14:33:48Z</time>
      </trkpt>
      <trkpt lat="43.60935" lon="6.38026">
        <ele>633.6</ele>
        <time>2017-02-19T14:34:01Z</time>
      </trkpt>
      <trkpt lat="43.60944" lon="6.38022">
        <ele>632.6</ele>
        <time>2017-02-19T14:34:20Z</time>
      </trkpt>
      <trkpt lat="43.60935" lon="6.38027">
        <ele>629.4</ele>
        <time>2017-02-19T14:40:44Z</time>
      </trkpt>
      <trkpt lat="43.60925" lon="6.38025">
        <ele>629.7</ele>
        <time>2017-02-19T14:41:05Z</time>
      </trkpt>
      <trkpt lat="43.60917" lon="6.38031">
        <ele>630.2</ele>
        <time>2017-02-19T14:41:40Z</time>
      </trkpt>
      <trkpt lat="43.60909" lon="6.38036">
        <ele>630.2</ele>
        <time>2017-02-19T14:41:55Z</time>
      </trkpt>
      <trkpt lat="43.60901" lon="6.38029">
        <ele>630.5</ele>
        <time>2017-02-19T14:42:13Z</time>
      </trkpt>
      <trkpt lat="43.60895" lon="6.38018">
        <ele>630.8</ele>
        <time>2017-02-19T14:42:28Z</time>
      </trkpt>
      <trkpt lat="43.60888" lon="6.38011">
        <ele>630.9</ele>
        <time>2017-02-19T14:42:47Z</time>
      </trkpt>
      <trkpt lat="43.60879" lon="6.38007">
        <ele>631.1</ele>
        <time>2017-02-19T14:43:05Z</time>
      </trkpt>
      <trkpt lat="43.60869" lon="6.3801">
        <ele>631.1</ele>
        <time>2017-02-19T14:43:19Z</time>
      </trkpt>
      <trkpt lat="43.6086" lon="6.38013">
        <ele>631.1</ele>
        <time>2017-02-19T14:43:29Z</time>
      </trkpt>
      <trkpt lat="43.60851" lon="6.38019">
        <ele>631</ele>
        <time>2017-02-19T14:43:42Z</time>
      </trkpt>
      <trkpt lat="43.60842" lon="6.38022">
        <ele>630.8</ele>
        <time>2017-02-19T14:43:55Z</time>
      </trkpt>
      <trkpt lat="43.60837" lon="6.38033">
        <ele>630.7</ele>
        <time>2017-02-19T14:44:08Z</time>
      </trkpt>
      <trkpt lat="43.60834" lon="6.38046">
        <ele>630.3</ele>
        <time>2017-02-19T14:44:20Z</time>
      </trkpt>
      <trkpt lat="43.60829" lon="6.38057">
        <ele>629.9</ele>
        <time>2017-02-19T14:44:32Z</time>
      </trkpt>
      <trkpt lat="43.60825" lon="6.38068">
        <ele>629.2</ele>
        <time>2017-02-19T14:44:46Z</time>
      </trkpt>
      <trkpt lat="43.60817" lon="6.38076">
        <ele>628.4</ele>
        <time>2017-02-19T14:45:00Z</time>
      </trkpt>
      <trkpt lat="43.60809" lon="6.38081">
        <ele>627.8</ele>
        <time>2017-02-19T14:45:12Z</time>
      </trkpt>
      <trkpt lat="43.608" lon="6.38082">
        <ele>627.4</ele>
        <time>2017-02-19T14:45:24Z</time>
      </trkpt>
      <trkpt lat="43.60791" lon="6.38084">
        <ele>627.1</ele>
        <time>2017-02-19T14:45:38Z</time>
      </trkpt>
      <trkpt lat="43.60793" lon="6.38097">
        <ele>626.8</ele>
        <time>2017-02-19T14:47:55Z</time>
      </trkpt>
      <trkpt lat="43.60795" lon="6.38109">
        <ele>626.5</ele>
        <time>2017-02-19T14:48:06Z</time>
      </trkpt>
      <trkpt lat="43.60797" lon="6.38122">
        <ele>626</ele>
        <time>2017-02-19T14:48:15Z</time>
      </trkpt>
      <trkpt lat="43.60797" lon="6.38136">
        <ele>625</ele>
        <time>2017-02-19T14:48:25Z</time>
      </trkpt>
      <trkpt lat="43.60796" lon="6.38149">
        <ele>624.1</ele>
        <time>2017-02-19T14:48:35Z</time>
      </trkpt>
      <trkpt lat="43.60796" lon="6.38162">
        <ele>623.5</ele>
        <time>2017-02-19T14:48:45Z</time>
      </trkpt>
      <trkpt lat="43.60795" lon="6.38175">
        <ele>622.7</ele>
        <time>2017-02-19T14:48:54Z</time>
      </trkpt>
      <trkpt lat="43.60793" lon="6.38189">
        <ele>622.1</ele>
        <time>2017-02-19T14:49:04Z</time>
      </trkpt>
      <trkpt lat="43.6079" lon="6.38201">
        <ele>621.7</ele>
        <time>2017-02-19T14:49:13Z</time>
      </trkpt>
      <trkpt lat="43.60783" lon="6.38211">
        <ele>621.1</ele>
        <time>2017-02-19T14:49:22Z</time>
      </trkpt>
      <trkpt lat="43.60778" lon="6.38222">
        <ele>620.2</ele>
        <time>2017-02-19T14:49:33Z</time>
      </trkpt>
      <trkpt lat="43.60775" lon="6.38233">
        <ele>618.7</ele>
        <time>2017-02-19T14:50:20Z</time>
      </trkpt>
      <trkpt lat="43.60768" lon="6.38224">
        <ele>618.7</ele>
        <time>2017-02-19T14:51:32Z</time>
      </trkpt>
      <trkpt lat="43.60761" lon="6.38215">
        <ele>618.8</ele>
        <time>2017-02-19T14:51:45Z</time>
      </trkpt>
      <trkpt lat="43.60753" lon="6.38209">
        <ele>618.9</ele>
        <time>2017-02-19T14:51:56Z</time>
      </trkpt>
      <trkpt lat="43.60745" lon="6.38202">
        <ele>619.7</ele>
        <time>2017-02-19T14:52:45Z</time>
      </trkpt>
      <trkpt lat="43.60741" lon="6.3819">
        <ele>619.5</ele>
        <time>2017-02-19T14:53:35Z</time>
      </trkpt>
      <trkpt lat="43.60747" lon="6.382">
        <ele>619.7</ele>
        <time>2017-02-19T14:56:24Z</time>
      </trkpt>
      <trkpt lat="43.60744" lon="6.38212">
        <ele>619.9</ele>
        <time>2017-02-19T14:57:26Z</time>
      </trkpt>
      <trkpt lat="43.60738" lon="6.38223">
        <ele>619.4</ele>
        <time>2017-02-19T14:57:43Z</time>
      </trkpt>
      <trkpt lat="43.60734" lon="6.38233">
        <ele>617.9</ele>
        <time>2017-02-19T14:58:00Z</time>
      </trkpt>
      <trkpt lat="43.60729" lon="6.38245">
        <ele>615.3</ele>
        <time>2017-02-19T14:58:17Z</time>
      </trkpt>
      <trkpt lat="43.6072" lon="6.38249">
        <ele>611.9</ele>
        <time>2017-02-19T14:58:54Z</time>
      </trkpt>
      <trkpt lat="43.60711" lon="6.38245">
        <ele>610.4</ele>
        <time>2017-02-19T14:59:37Z</time>
      </trkpt>
      <trkpt lat="43.60704" lon="6.38252">
        <ele>606.6</ele>
        <time>2017-02-19T15:00:33Z</time>
      </trkpt>
      <trkpt lat="43.60709" lon="6.38263">
        <ele>604.6</ele>
        <time>2017-02-19T15:01:01Z</time>
      </trkpt>
      <trkpt lat="43.60709" lon="6.38277">
        <ele>603.5</ele>
        <time>2017-02-19T15:01:17Z</time>
      </trkpt>
      <trkpt lat="43.60707" lon="6.38289">
        <ele>602.2</ele>
        <time>2017-02-19T15:01:27Z</time>
      </trkpt>
      <trkpt lat="43.607" lon="6.38297">
        <ele>599.7</ele>
        <time>2017-02-19T15:02:01Z</time>
      </trkpt>
      <trkpt lat="43.607" lon="6.3831">
        <ele>599.2</ele>
        <time>2017-02-19T15:04:42Z</time>
      </trkpt>
      <trkpt lat="43.60691" lon="6.38306">
        <ele>598.5</ele>
        <time>2017-02-19T15:04:58Z</time>
      </trkpt>
      <trkpt lat="43.60684" lon="6.38297">
        <ele>598.2</ele>
        <time>2017-02-19T15:05:06Z</time>
      </trkpt>
      <trkpt lat="43.60676" lon="6.38292">
        <ele>596.9</ele>
        <time>2017-02-19T15:05:19Z</time>
      </trkpt>
      <trkpt lat="43.60671" lon="6.38279">
        <ele>595.6</ele>
        <time>2017-02-19T15:05:36Z</time>
      </trkpt>
      <trkpt lat="43.60664" lon="6.3827">
        <ele>595.2</ele>
        <time>2017-02-19T15:05:43Z</time>
      </trkpt>
      <trkpt lat="43.60658" lon="6.3826">
        <ele>594.6</ele>
        <time>2017-02-19T15:05:52Z</time>
      </trkpt>
      <trkpt lat="43.60651" lon="6.38251">
        <ele>593.6</ele>
        <time>2017-02-19T15:06:12Z</time>
      </trkpt>
      <trkpt lat="43.60642" lon="6.38247">
        <ele>592.9</ele>
        <time>2017-02-19T15:06:27Z</time>
      </trkpt>
      <trkpt lat="43.60634" lon="6.38241">
        <ele>592.4</ele>
        <time>2017-02-19T15:06:34Z</time>
      </trkpt>
      <trkpt lat="43.60624" lon="6.38239">
        <ele>591.9</ele>
        <time>2017-02-19T15:06:41Z</time>
      </trkpt>
      <trkpt lat="43.60616" lon="6.38246">
        <ele>590.2</ele>
        <time>2017-02-19T15:06:57Z</time>
      </trkpt>
      <trkpt lat="43.60607" lon="6.38248">
        <ele>589.3</ele>
        <time>2017-02-19T15:07:08Z</time>
      </trkpt>
      <trkpt lat="43.60597" lon="6.3825">
        <ele>587.7</ele>
        <time>2017-02-19T15:07:18Z</time>
      </trkpt>
      <trkpt lat="43.60588" lon="6.38253">
        <ele>585.6</ele>
        <time>2017-02-19T15:07:35Z</time>
      </trkpt>
      <trkpt lat="43.6058" lon="6.38248">
        <ele>584.1</ele>
        <time>2017-02-19T15:08:02Z</time>
      </trkpt>
      <trkpt lat="43.60572" lon="6.38255">
        <ele>584</ele>
        <time>2017-02-19T15:11:07Z</time>
      </trkpt>
      <trkpt lat="43.6058" lon="6.3825">
        <ele>584.8</ele>
        <time>2017-02-19T15:14:13Z</time>
      </trkpt>
      <trkpt lat="43.60587" lon="6.38258">
        <ele>584.9</ele>
        <time>2017-02-19T15:16:11Z</time>
      </trkpt>
      <trkpt lat="43.60578" lon="6.38263">
        <ele>587.4</ele>
        <time>2017-02-19T15:20:44Z</time>
      </trkpt>
      <trkpt lat="43.60588" lon="6.3826">
        <ele>591.9</ele>
        <time>2017-02-19T15:24:37Z</time>
      </trkpt>
      <trkpt lat="43.60596" lon="6.38258">
        <ele>592.3</ele>
        <time>2017-02-19T15:24:56Z</time>
      </trkpt>
      <trkpt lat="43.60587" lon="6.38257">
        <ele>605.7</ele>
        <time>2017-02-19T15:36:20Z</time>
      </trkpt>
      <trkpt lat="43.60579" lon="6.38252">
        <ele>609.1</ele>
        <time>2017-02-19T15:38:46Z</time>
      </trkpt>
    </trkseg>
  </trk>
</gpx>